<?xml version="1.0" encoding="UTF-8"?>
<gpx version="1.0" creator="Trackator" xmlns:xsi="http://www.w3.org/2001/XMLSchema-instance" xmlns="http://www.topografix.com/GPX/1/0" xmlns:topografix="http://www.topografix.com/GPX/Private/TopoGrafix/0/1" xsi:schemaLocation="http://www.topografix.com/GPX/1/0 http://www.topografix.com/GPX/1/0/gpx.xsd http://www.topografix.com/GPX/Private/TopoGrafix/0/1 http://www.topografix.com/GPX/Private/TopoGrafix/0/1/topografix.xsd">
<metadata>
<link href="http://www.trackator.com">
<text>Trackator</text>
</link>
</metadata>
<time>2015-05-28T08:51:32Z</time>
<trk>
<name>Track: </name>
<desc>General</desc>
<trkseg>
<trkpt lat="53.3488832" lon="18.4388306">
<ele>102</ele>
<time>2015-05-28T08:51:32Z</time>
</trkpt>
<trkpt lat="53.3489216" lon="18.4388810">
<ele>103</ele>
<time>2015-05-28T08:51:35Z</time>
</trkpt>
<trkpt lat="53.3488918" lon="18.4388763">
<ele>101</ele>
<time>2015-05-28T08:51:38Z</time>
</trkpt>
<trkpt lat="53.3488769" lon="18.4387976">
<ele>98</ele>
<time>2015-05-28T08:51:40Z</time>
</trkpt>
<trkpt lat="53.3488932" lon="18.4388290">
<ele>100</ele>
<time>2015-05-28T08:51:44Z</time>
</trkpt>
<trkpt lat="53.3488925" lon="18.4388244">
<ele>100</ele>
<time>2015-05-28T08:51:46Z</time>
</trkpt>
<trkpt lat="53.3488943" lon="18.4388318">
<ele>100</ele>
<time>2015-05-28T08:51:48Z</time>
</trkpt>
<trkpt lat="53.3488931" lon="18.4388418">
<ele>101</ele>
<time>2015-05-28T08:51:52Z</time>
</trkpt>
<trkpt lat="53.3488931" lon="18.4388421">
<ele>101</ele>
<time>2015-05-28T08:51:54Z</time>
</trkpt>
<trkpt lat="53.3488930" lon="18.4388416">
<ele>101</ele>
<time>2015-05-28T08:51:56Z</time>
</trkpt>
<trkpt lat="53.3488931" lon="18.4388415">
<ele>101</ele>
<time>2015-05-28T08:51:58Z</time>
</trkpt>
<trkpt lat="53.3488931" lon="18.4388415">
<ele>101</ele>
<time>2015-05-28T08:52:00Z</time>
</trkpt>
<trkpt lat="53.3488932" lon="18.4388416">
<ele>101</ele>
<time>2015-05-28T08:52:02Z</time>
</trkpt>
<trkpt lat="53.3488932" lon="18.4388415">
<ele>101</ele>
<time>2015-05-28T08:52:04Z</time>
</trkpt>
<trkpt lat="53.3488933" lon="18.4388416">
<ele>101</ele>
<time>2015-05-28T08:52:06Z</time>
</trkpt>
<trkpt lat="53.3488933" lon="18.4388418">
<ele>101</ele>
<time>2015-05-28T08:52:08Z</time>
</trkpt>
<trkpt lat="53.3488933" lon="18.4388418">
<ele>101</ele>
<time>2015-05-28T08:52:10Z</time>
</trkpt>
<trkpt lat="53.3488933" lon="18.4388418">
<ele>101</ele>
<time>2015-05-28T08:52:12Z</time>
</trkpt>
<trkpt lat="53.3488933" lon="18.4388418">
<ele>101</ele>
<time>2015-05-28T08:52:14Z</time>
</trkpt>
<trkpt lat="53.3488932" lon="18.4388418">
<ele>101</ele>
<time>2015-05-28T08:52:16Z</time>
</trkpt>
<trkpt lat="53.3488932" lon="18.4388418">
<ele>101</ele>
<time>2015-05-28T08:52:18Z</time>
</trkpt>
<trkpt lat="53.3488931" lon="18.4388417">
<ele>101</ele>
<time>2015-05-28T08:52:20Z</time>
</trkpt>
<trkpt lat="53.3488931" lon="18.4388419">
<ele>101</ele>
<time>2015-05-28T08:52:22Z</time>
</trkpt>
<trkpt lat="53.3488932" lon="18.4388419">
<ele>101</ele>
<time>2015-05-28T08:52:24Z</time>
</trkpt>
<trkpt lat="53.3488932" lon="18.4388420">
<ele>101</ele>
<time>2015-05-28T08:52:26Z</time>
</trkpt>
<trkpt lat="53.3488932" lon="18.4388419">
<ele>101</ele>
<time>2015-05-28T08:52:28Z</time>
</trkpt>
<trkpt lat="53.3488931" lon="18.4388419">
<ele>101</ele>
<time>2015-05-28T08:52:30Z</time>
</trkpt>
<trkpt lat="53.3488930" lon="18.4388418">
<ele>101</ele>
<time>2015-05-28T08:52:32Z</time>
</trkpt>
<trkpt lat="53.3488930" lon="18.4388419">
<ele>101</ele>
<time>2015-05-28T08:52:34Z</time>
</trkpt>
<trkpt lat="53.3488930" lon="18.4388418">
<ele>101</ele>
<time>2015-05-28T08:52:36Z</time>
</trkpt>
<trkpt lat="53.3488930" lon="18.4388418">
<ele>101</ele>
<time>2015-05-28T08:52:38Z</time>
</trkpt>
<trkpt lat="53.3488929" lon="18.4388417">
<ele>101</ele>
<time>2015-05-28T08:52:40Z</time>
</trkpt>
<trkpt lat="53.3488927" lon="18.4388416">
<ele>101</ele>
<time>2015-05-28T08:52:42Z</time>
</trkpt>
<trkpt lat="53.3488926" lon="18.4388416">
<ele>101</ele>
<time>2015-05-28T08:52:44Z</time>
</trkpt>
<trkpt lat="53.3488926" lon="18.4388415">
<ele>101</ele>
<time>2015-05-28T08:52:46Z</time>
</trkpt>
<trkpt lat="53.3488926" lon="18.4388415">
<ele>101</ele>
<time>2015-05-28T08:52:48Z</time>
</trkpt>
<trkpt lat="53.3488926" lon="18.4388416">
<ele>101</ele>
<time>2015-05-28T08:52:50Z</time>
</trkpt>
<trkpt lat="53.3488925" lon="18.4388417">
<ele>101</ele>
<time>2015-05-28T08:52:52Z</time>
</trkpt>
<trkpt lat="53.3488927" lon="18.4388416">
<ele>101</ele>
<time>2015-05-28T08:52:54Z</time>
</trkpt>
<trkpt lat="53.3488928" lon="18.4388419">
<ele>101</ele>
<time>2015-05-28T08:52:56Z</time>
</trkpt>
<trkpt lat="53.3488921" lon="18.4388598">
<ele>101</ele>
<time>2015-05-28T08:52:58Z</time>
</trkpt>
<trkpt lat="53.3488689" lon="18.4389764">
<ele>102</ele>
<time>2015-05-28T08:53:00Z</time>
</trkpt>
<trkpt lat="53.3488365" lon="18.4390907">
<ele>100</ele>
<time>2015-05-28T08:53:02Z</time>
</trkpt>
<trkpt lat="53.3488239" lon="18.4391913">
<ele>103</ele>
<time>2015-05-28T08:53:04Z</time>
</trkpt>
<trkpt lat="53.3488197" lon="18.4392711">
<ele>100</ele>
<time>2015-05-28T08:53:06Z</time>
</trkpt>
<trkpt lat="53.3488033" lon="18.4394164">
<ele>99</ele>
<time>2015-05-28T08:53:08Z</time>
</trkpt>
<trkpt lat="53.3487384" lon="18.4396620">
<ele>101</ele>
<time>2015-05-28T08:53:10Z</time>
</trkpt>
<trkpt lat="53.3486819" lon="18.4398742">
<ele>101</ele>
<time>2015-05-28T08:53:12Z</time>
</trkpt>
<trkpt lat="53.3486120" lon="18.4401367">
<ele>100</ele>
<time>2015-05-28T08:53:14Z</time>
</trkpt>
<trkpt lat="53.3485208" lon="18.4404080">
<ele>100</ele>
<time>2015-05-28T08:53:16Z</time>
</trkpt>
<trkpt lat="53.3484138" lon="18.4407246">
<ele>99</ele>
<time>2015-05-28T08:53:18Z</time>
</trkpt>
<trkpt lat="53.3483151" lon="18.4410712">
<ele>98</ele>
<time>2015-05-28T08:53:20Z</time>
</trkpt>
<trkpt lat="53.3481819" lon="18.4414291">
<ele>98</ele>
<time>2015-05-28T08:53:22Z</time>
</trkpt>
<trkpt lat="53.3480416" lon="18.4417800">
<ele>97</ele>
<time>2015-05-28T08:53:24Z</time>
</trkpt>
<trkpt lat="53.3478860" lon="18.4420815">
<ele>96</ele>
<time>2015-05-28T08:53:26Z</time>
</trkpt>
<trkpt lat="53.3477502" lon="18.4423508">
<ele>97</ele>
<time>2015-05-28T08:53:28Z</time>
</trkpt>
<trkpt lat="53.3476585" lon="18.4425311">
<ele>98</ele>
<time>2015-05-28T08:53:30Z</time>
</trkpt>
<trkpt lat="53.3475953" lon="18.4426014">
<ele>99</ele>
<time>2015-05-28T08:53:32Z</time>
</trkpt>
<trkpt lat="53.3475384" lon="18.4426525">
<ele>100</ele>
<time>2015-05-28T08:53:34Z</time>
</trkpt>
<trkpt lat="53.3474824" lon="18.4427101">
<ele>101</ele>
<time>2015-05-28T08:53:36Z</time>
</trkpt>
<trkpt lat="53.3474009" lon="18.4428871">
<ele>100</ele>
<time>2015-05-28T08:53:38Z</time>
</trkpt>
<trkpt lat="53.3473492" lon="18.4430903">
<ele>100</ele>
<time>2015-05-28T08:53:40Z</time>
</trkpt>
<trkpt lat="53.3472862" lon="18.4432964">
<ele>100</ele>
<time>2015-05-28T08:53:42Z</time>
</trkpt>
<trkpt lat="53.3471984" lon="18.4435246">
<ele>101</ele>
<time>2015-05-28T08:53:44Z</time>
</trkpt>
<trkpt lat="53.3471303" lon="18.4437559">
<ele>101</ele>
<time>2015-05-28T08:53:46Z</time>
</trkpt>
<trkpt lat="53.3470517" lon="18.4439798">
<ele>101</ele>
<time>2015-05-28T08:53:48Z</time>
</trkpt>
<trkpt lat="53.3469746" lon="18.4441911">
<ele>100</ele>
<time>2015-05-28T08:53:50Z</time>
</trkpt>
<trkpt lat="53.3469450" lon="18.4444151">
<ele>100</ele>
<time>2015-05-28T08:53:52Z</time>
</trkpt>
<trkpt lat="53.3469679" lon="18.4445795">
<ele>98</ele>
<time>2015-05-28T08:53:54Z</time>
</trkpt>
<trkpt lat="53.3470353" lon="18.4447478">
<ele>99</ele>
<time>2015-05-28T08:53:56Z</time>
</trkpt>
<trkpt lat="53.3470904" lon="18.4448382">
<ele>99</ele>
<time>2015-05-28T08:53:58Z</time>
</trkpt>
<trkpt lat="53.3470932" lon="18.4449246">
<ele>99</ele>
<time>2015-05-28T08:54:00Z</time>
</trkpt>
<trkpt lat="53.3471258" lon="18.4449977">
<ele>101</ele>
<time>2015-05-28T08:54:02Z</time>
</trkpt>
<trkpt lat="53.3471947" lon="18.4450827">
<ele>99</ele>
<time>2015-05-28T08:54:04Z</time>
</trkpt>
<trkpt lat="53.3472918" lon="18.4451012">
<ele>97</ele>
<time>2015-05-28T08:54:06Z</time>
</trkpt>
<trkpt lat="53.3473572" lon="18.4450399">
<ele>96</ele>
<time>2015-05-28T08:54:08Z</time>
</trkpt>
<trkpt lat="53.3473681" lon="18.4449824">
<ele>97</ele>
<time>2015-05-28T08:54:10Z</time>
</trkpt>
<trkpt lat="53.3473527" lon="18.4450062">
<ele>100</ele>
<time>2015-05-28T08:54:12Z</time>
</trkpt>
<trkpt lat="53.3473718" lon="18.4449550">
<ele>102</ele>
<time>2015-05-28T08:54:14Z</time>
</trkpt>
<trkpt lat="53.3474409" lon="18.4448634">
<ele>101</ele>
<time>2015-05-28T08:54:16Z</time>
</trkpt>
<trkpt lat="53.3475077" lon="18.4447415">
<ele>101</ele>
<time>2015-05-28T08:54:18Z</time>
</trkpt>
<trkpt lat="53.3475889" lon="18.4445570">
<ele>99</ele>
<time>2015-05-28T08:54:20Z</time>
</trkpt>
<trkpt lat="53.3477263" lon="18.4444699">
<ele>101</ele>
<time>2015-05-28T08:54:22Z</time>
</trkpt>
<trkpt lat="53.3479074" lon="18.4444702">
<ele>98</ele>
<time>2015-05-28T08:54:24Z</time>
</trkpt>
<trkpt lat="53.3479957" lon="18.4446207">
<ele>103</ele>
<time>2015-05-28T08:54:26Z</time>
</trkpt>
<trkpt lat="53.3481123" lon="18.4447310">
<ele>103</ele>
<time>2015-05-28T08:54:28Z</time>
</trkpt>
<trkpt lat="53.3482759" lon="18.4448235">
<ele>99</ele>
<time>2015-05-28T08:54:30Z</time>
</trkpt>
<trkpt lat="53.3484755" lon="18.4448456">
<ele>100</ele>
<time>2015-05-28T08:54:32Z</time>
</trkpt>
<trkpt lat="53.3486671" lon="18.4448506">
<ele>101</ele>
<time>2015-05-28T08:54:34Z</time>
</trkpt>
<trkpt lat="53.3488564" lon="18.4449676">
<ele>102</ele>
<time>2015-05-28T08:54:36Z</time>
</trkpt>
<trkpt lat="53.3490566" lon="18.4450670">
<ele>102</ele>
<time>2015-05-28T08:54:38Z</time>
</trkpt>
<trkpt lat="53.3492245" lon="18.4452395">
<ele>102</ele>
<time>2015-05-28T08:54:40Z</time>
</trkpt>
<trkpt lat="53.3493444" lon="18.4454682">
<ele>100</ele>
<time>2015-05-28T08:54:42Z</time>
</trkpt>
<trkpt lat="53.3494738" lon="18.4457151">
<ele>99</ele>
<time>2015-05-28T08:54:44Z</time>
</trkpt>
<trkpt lat="53.3495640" lon="18.4458838">
<ele>101</ele>
<time>2015-05-28T08:54:46Z</time>
</trkpt>
<trkpt lat="53.3496287" lon="18.4459999">
<ele>101</ele>
<time>2015-05-28T08:54:48Z</time>
</trkpt>
<trkpt lat="53.3496639" lon="18.4460805">
<ele>100</ele>
<time>2015-05-28T08:54:50Z</time>
</trkpt>
<trkpt lat="53.3496692" lon="18.4460857">
<ele>102</ele>
<time>2015-05-28T08:54:52Z</time>
</trkpt>
<trkpt lat="53.3496950" lon="18.4461344">
<ele>103</ele>
<time>2015-05-28T08:54:54Z</time>
</trkpt>
<trkpt lat="53.3497392" lon="18.4462389">
<ele>103</ele>
<time>2015-05-28T08:54:56Z</time>
</trkpt>
<trkpt lat="53.3498191" lon="18.4464369">
<ele>103</ele>
<time>2015-05-28T08:54:58Z</time>
</trkpt>
<trkpt lat="53.3499127" lon="18.4466340">
<ele>102</ele>
<time>2015-05-28T08:55:00Z</time>
</trkpt>
<trkpt lat="53.3500434" lon="18.4468567">
<ele>105</ele>
<time>2015-05-28T08:55:02Z</time>
</trkpt>
<trkpt lat="53.3502280" lon="18.4472666">
<ele>105</ele>
<time>2015-05-28T08:55:04Z</time>
</trkpt>
<trkpt lat="53.3503833" lon="18.4475705">
<ele>106</ele>
<time>2015-05-28T08:55:06Z</time>
</trkpt>
<trkpt lat="53.3505608" lon="18.4478981">
<ele>104</ele>
<time>2015-05-28T08:55:08Z</time>
</trkpt>
<trkpt lat="53.3507330" lon="18.4482086">
<ele>104</ele>
<time>2015-05-28T08:55:10Z</time>
</trkpt>
<trkpt lat="53.3509062" lon="18.4485078">
<ele>100</ele>
<time>2015-05-28T08:55:12Z</time>
</trkpt>
<trkpt lat="53.3510251" lon="18.4487846">
<ele>98</ele>
<time>2015-05-28T08:55:14Z</time>
</trkpt>
<trkpt lat="53.3512348" lon="18.4492115">
<ele>95</ele>
<time>2015-05-28T08:55:16Z</time>
</trkpt>
<trkpt lat="53.3514810" lon="18.4496664">
<ele>90</ele>
<time>2015-05-28T08:55:18Z</time>
</trkpt>
<trkpt lat="53.3516239" lon="18.4500115">
<ele>87</ele>
<time>2015-05-28T08:55:20Z</time>
</trkpt>
<trkpt lat="53.3517649" lon="18.4503471">
<ele>86</ele>
<time>2015-05-28T08:55:22Z</time>
</trkpt>
<trkpt lat="53.3518803" lon="18.4506535">
<ele>86</ele>
<time>2015-05-28T08:55:24Z</time>
</trkpt>
<trkpt lat="53.3519490" lon="18.4508455">
<ele>84</ele>
<time>2015-05-28T08:55:26Z</time>
</trkpt>
<trkpt lat="53.3520001" lon="18.4509457">
<ele>82</ele>
<time>2015-05-28T08:55:28Z</time>
</trkpt>
<trkpt lat="53.3520310" lon="18.4510019">
<ele>83</ele>
<time>2015-05-28T08:55:30Z</time>
</trkpt>
<trkpt lat="53.3520561" lon="18.4510332">
<ele>82</ele>
<time>2015-05-28T08:55:32Z</time>
</trkpt>
<trkpt lat="53.3521015" lon="18.4510554">
<ele>82</ele>
<time>2015-05-28T08:55:34Z</time>
</trkpt>
<trkpt lat="53.3521876" lon="18.4510232">
<ele>80</ele>
<time>2015-05-28T08:55:36Z</time>
</trkpt>
<trkpt lat="53.3523092" lon="18.4509071">
<ele>78</ele>
<time>2015-05-28T08:55:38Z</time>
</trkpt>
<trkpt lat="53.3524770" lon="18.4507549">
<ele>76</ele>
<time>2015-05-28T08:55:40Z</time>
</trkpt>
<trkpt lat="53.3526578" lon="18.4505876">
<ele>77</ele>
<time>2015-05-28T08:55:42Z</time>
</trkpt>
<trkpt lat="53.3528666" lon="18.4503903">
<ele>75</ele>
<time>2015-05-28T08:55:44Z</time>
</trkpt>
<trkpt lat="53.3530803" lon="18.4501707">
<ele>73</ele>
<time>2015-05-28T08:55:46Z</time>
</trkpt>
<trkpt lat="53.3533002" lon="18.4499171">
<ele>71</ele>
<time>2015-05-28T08:55:48Z</time>
</trkpt>
<trkpt lat="53.3535307" lon="18.4496032">
<ele>71</ele>
<time>2015-05-28T08:55:50Z</time>
</trkpt>
<trkpt lat="53.3537765" lon="18.4492637">
<ele>72</ele>
<time>2015-05-28T08:55:52Z</time>
</trkpt>
<trkpt lat="53.3540631" lon="18.4488045">
<ele>68</ele>
<time>2015-05-28T08:55:54Z</time>
</trkpt>
<trkpt lat="53.3543548" lon="18.4482760">
<ele>64</ele>
<time>2015-05-28T08:55:56Z</time>
</trkpt>
<trkpt lat="53.3546367" lon="18.4477701">
<ele>62</ele>
<time>2015-05-28T08:55:58Z</time>
</trkpt>
<trkpt lat="53.3549449" lon="18.4472597">
<ele>61</ele>
<time>2015-05-28T08:56:00Z</time>
</trkpt>
<trkpt lat="53.3552547" lon="18.4467292">
<ele>61</ele>
<time>2015-05-28T08:56:02Z</time>
</trkpt>
<trkpt lat="53.3555520" lon="18.4462366">
<ele>59</ele>
<time>2015-05-28T08:56:04Z</time>
</trkpt>
<trkpt lat="53.3558395" lon="18.4457685">
<ele>58</ele>
<time>2015-05-28T08:56:06Z</time>
</trkpt>
<trkpt lat="53.3561239" lon="18.4452758">
<ele>56</ele>
<time>2015-05-28T08:56:08Z</time>
</trkpt>
<trkpt lat="53.3564337" lon="18.4447557">
<ele>56</ele>
<time>2015-05-28T08:56:10Z</time>
</trkpt>
<trkpt lat="53.3567350" lon="18.4442406">
<ele>56</ele>
<time>2015-05-28T08:56:12Z</time>
</trkpt>
<trkpt lat="53.3570515" lon="18.4437306">
<ele>57</ele>
<time>2015-05-28T08:56:14Z</time>
</trkpt>
<trkpt lat="53.3573627" lon="18.4431983">
<ele>56</ele>
<time>2015-05-28T08:56:16Z</time>
</trkpt>
<trkpt lat="53.3576722" lon="18.4426752">
<ele>56</ele>
<time>2015-05-28T08:56:18Z</time>
</trkpt>
<trkpt lat="53.3579657" lon="18.4421399">
<ele>55</ele>
<time>2015-05-28T08:56:20Z</time>
</trkpt>
<trkpt lat="53.3582657" lon="18.4415827">
<ele>54</ele>
<time>2015-05-28T08:56:22Z</time>
</trkpt>
<trkpt lat="53.3585766" lon="18.4410570">
<ele>53</ele>
<time>2015-05-28T08:56:24Z</time>
</trkpt>
<trkpt lat="53.3588668" lon="18.4405535">
<ele>53</ele>
<time>2015-05-28T08:56:26Z</time>
</trkpt>
<trkpt lat="53.3591639" lon="18.4400541">
<ele>51</ele>
<time>2015-05-28T08:56:28Z</time>
</trkpt>
<trkpt lat="53.3594749" lon="18.4395539">
<ele>52</ele>
<time>2015-05-28T08:56:30Z</time>
</trkpt>
<trkpt lat="53.3597768" lon="18.4390361">
<ele>53</ele>
<time>2015-05-28T08:56:32Z</time>
</trkpt>
<trkpt lat="53.3600925" lon="18.4385067">
<ele>68</ele>
<time>2015-05-28T08:56:34Z</time>
</trkpt>
<trkpt lat="53.3603621" lon="18.4380497">
<ele>62</ele>
<time>2015-05-28T08:56:36Z</time>
</trkpt>
<trkpt lat="53.3606281" lon="18.4376206">
<ele>59</ele>
<time>2015-05-28T08:56:38Z</time>
</trkpt>
<trkpt lat="53.3609045" lon="18.4372004">
<ele>58</ele>
<time>2015-05-28T08:56:40Z</time>
</trkpt>
<trkpt lat="53.3611523" lon="18.4368707">
<ele>58</ele>
<time>2015-05-28T08:56:42Z</time>
</trkpt>
<trkpt lat="53.3613795" lon="18.4365885">
<ele>58</ele>
<time>2015-05-28T08:56:44Z</time>
</trkpt>
<trkpt lat="53.3615991" lon="18.4363431">
<ele>61</ele>
<time>2015-05-28T08:56:46Z</time>
</trkpt>
<trkpt lat="53.3618278" lon="18.4361096">
<ele>61</ele>
<time>2015-05-28T08:56:48Z</time>
</trkpt>
<trkpt lat="53.3620704" lon="18.4358505">
<ele>62</ele>
<time>2015-05-28T08:56:50Z</time>
</trkpt>
<trkpt lat="53.3623203" lon="18.4355869">
<ele>61</ele>
<time>2015-05-28T08:56:52Z</time>
</trkpt>
<trkpt lat="53.3625768" lon="18.4353057">
<ele>61</ele>
<time>2015-05-28T08:56:54Z</time>
</trkpt>
<trkpt lat="53.3628594" lon="18.4350197">
<ele>61</ele>
<time>2015-05-28T08:56:56Z</time>
</trkpt>
<trkpt lat="53.3631442" lon="18.4347278">
<ele>61</ele>
<time>2015-05-28T08:56:58Z</time>
</trkpt>
<trkpt lat="53.3634504" lon="18.4344259">
<ele>61</ele>
<time>2015-05-28T08:57:00Z</time>
</trkpt>
<trkpt lat="53.3637598" lon="18.4341018">
<ele>63</ele>
<time>2015-05-28T08:57:02Z</time>
</trkpt>
<trkpt lat="53.3640666" lon="18.4337779">
<ele>63</ele>
<time>2015-05-28T08:57:04Z</time>
</trkpt>
<trkpt lat="53.3643865" lon="18.4334368">
<ele>65</ele>
<time>2015-05-28T08:57:06Z</time>
</trkpt>
<trkpt lat="53.3647110" lon="18.4331013">
<ele>66</ele>
<time>2015-05-28T08:57:08Z</time>
</trkpt>
<trkpt lat="53.3650438" lon="18.4327487">
<ele>67</ele>
<time>2015-05-28T08:57:10Z</time>
</trkpt>
<trkpt lat="53.3653863" lon="18.4324120">
<ele>66</ele>
<time>2015-05-28T08:57:12Z</time>
</trkpt>
<trkpt lat="53.3657401" lon="18.4320499">
<ele>68</ele>
<time>2015-05-28T08:57:14Z</time>
</trkpt>
<trkpt lat="53.3660863" lon="18.4316903">
<ele>68</ele>
<time>2015-05-28T08:57:16Z</time>
</trkpt>
<trkpt lat="53.366459" lon="18.4313287">
<ele>70</ele>
<time>2015-05-28T08:57:18Z</time>
</trkpt>
<trkpt lat="53.3668343" lon="18.4309523">
<ele>71</ele>
<time>2015-05-28T08:57:20Z</time>
</trkpt>
<trkpt lat="53.3672050" lon="18.4305758">
<ele>72</ele>
<time>2015-05-28T08:57:22Z</time>
</trkpt>
<trkpt lat="53.3675637" lon="18.4301907">
<ele>72</ele>
<time>2015-05-28T08:57:24Z</time>
</trkpt>
<trkpt lat="53.3679290" lon="18.4297978">
<ele>72</ele>
<time>2015-05-28T08:57:26Z</time>
</trkpt>
<trkpt lat="53.3683028" lon="18.4294142">
<ele>73</ele>
<time>2015-05-28T08:57:28Z</time>
</trkpt>
<trkpt lat="53.3686687" lon="18.4290401">
<ele>73</ele>
<time>2015-05-28T08:57:30Z</time>
</trkpt>
<trkpt lat="53.3690295" lon="18.4286590">
<ele>73</ele>
<time>2015-05-28T08:57:32Z</time>
</trkpt>
<trkpt lat="53.3693848" lon="18.4282648">
<ele>73</ele>
<time>2015-05-28T08:57:34Z</time>
</trkpt>
<trkpt lat="53.3697401" lon="18.4279001">
<ele>72</ele>
<time>2015-05-28T08:57:36Z</time>
</trkpt>
<trkpt lat="53.3700860" lon="18.4275364">
<ele>71</ele>
<time>2015-05-28T08:57:38Z</time>
</trkpt>
<trkpt lat="53.3704429" lon="18.4271614">
<ele>71</ele>
<time>2015-05-28T08:57:40Z</time>
</trkpt>
<trkpt lat="53.3708155" lon="18.4267917">
<ele>71</ele>
<time>2015-05-28T08:57:42Z</time>
</trkpt>
<trkpt lat="53.3711969" lon="18.4263954">
<ele>70</ele>
<time>2015-05-28T08:57:44Z</time>
</trkpt>
<trkpt lat="53.3715715" lon="18.4260025">
<ele>70</ele>
<time>2015-05-28T08:57:46Z</time>
</trkpt>
<trkpt lat="53.3719465" lon="18.4256126">
<ele>70</ele>
<time>2015-05-28T08:57:48Z</time>
</trkpt>
<trkpt lat="53.3723201" lon="18.4252346">
<ele>69</ele>
<time>2015-05-28T08:57:50Z</time>
</trkpt>
<trkpt lat="53.3726856" lon="18.4248531">
<ele>68</ele>
<time>2015-05-28T08:57:52Z</time>
</trkpt>
<trkpt lat="53.3730544" lon="18.4244613">
<ele>68</ele>
<time>2015-05-28T08:57:54Z</time>
</trkpt>
<trkpt lat="53.3734194" lon="18.4240714">
<ele>67</ele>
<time>2015-05-28T08:57:56Z</time>
</trkpt>
<trkpt lat="53.3738002" lon="18.4236958">
<ele>66</ele>
<time>2015-05-28T08:57:58Z</time>
</trkpt>
<trkpt lat="53.3741716" lon="18.4233325">
<ele>68</ele>
<time>2015-05-28T08:58:00Z</time>
</trkpt>
<trkpt lat="53.3745222" lon="18.4229777">
<ele>67</ele>
<time>2015-05-28T08:58:02Z</time>
</trkpt>
<trkpt lat="53.3748669" lon="18.4226124">
<ele>68</ele>
<time>2015-05-28T08:58:04Z</time>
</trkpt>
<trkpt lat="53.3752063" lon="18.4222556">
<ele>68</ele>
<time>2015-05-28T08:58:06Z</time>
</trkpt>
<trkpt lat="53.3755434" lon="18.4219117">
<ele>67</ele>
<time>2015-05-28T08:58:08Z</time>
</trkpt>
<trkpt lat="53.3758783" lon="18.4215752">
<ele>68</ele>
<time>2015-05-28T08:58:10Z</time>
</trkpt>
<trkpt lat="53.3762161" lon="18.4212397">
<ele>67</ele>
<time>2015-05-28T08:58:12Z</time>
</trkpt>
<trkpt lat="53.3765391" lon="18.4209132">
<ele>67</ele>
<time>2015-05-28T08:58:14Z</time>
</trkpt>
<trkpt lat="53.3768207" lon="18.4206146">
<ele>66</ele>
<time>2015-05-28T08:58:16Z</time>
</trkpt>
<trkpt lat="53.3770716" lon="18.4203601">
<ele>64</ele>
<time>2015-05-28T08:58:18Z</time>
</trkpt>
<trkpt lat="53.3772772" lon="18.4201699">
<ele>63</ele>
<time>2015-05-28T08:58:20Z</time>
</trkpt>
<trkpt lat="53.3774098" lon="18.4201557">
<ele>64</ele>
<time>2015-05-28T08:58:22Z</time>
</trkpt>
<trkpt lat="53.3774929" lon="18.4202533">
<ele>63</ele>
<time>2015-05-28T08:58:24Z</time>
</trkpt>
<trkpt lat="53.3775907" lon="18.4204493">
<ele>64</ele>
<time>2015-05-28T08:58:26Z</time>
</trkpt>
<trkpt lat="53.3777047" lon="18.4206583">
<ele>62</ele>
<time>2015-05-28T08:58:28Z</time>
</trkpt>
<trkpt lat="53.3778531" lon="18.4208825">
<ele>62</ele>
<time>2015-05-28T08:58:30Z</time>
</trkpt>
<trkpt lat="53.3780460" lon="18.4211776">
<ele>61</ele>
<time>2015-05-28T08:58:32Z</time>
</trkpt>
<trkpt lat="53.3782508" lon="18.4214717">
<ele>60</ele>
<time>2015-05-28T08:58:34Z</time>
</trkpt>
<trkpt lat="53.3784763" lon="18.4217657">
<ele>59</ele>
<time>2015-05-28T08:58:36Z</time>
</trkpt>
<trkpt lat="53.3787379" lon="18.4220613">
<ele>57</ele>
<time>2015-05-28T08:58:38Z</time>
</trkpt>
<trkpt lat="53.3789827" lon="18.4223168">
<ele>57</ele>
<time>2015-05-28T08:58:40Z</time>
</trkpt>
<trkpt lat="53.3792489" lon="18.4225676">
<ele>57</ele>
<time>2015-05-28T08:58:42Z</time>
</trkpt>
<trkpt lat="53.3795363" lon="18.4228349">
<ele>57</ele>
<time>2015-05-28T08:58:44Z</time>
</trkpt>
<trkpt lat="53.3798294" lon="18.4230922">
<ele>56</ele>
<time>2015-05-28T08:58:46Z</time>
</trkpt>
<trkpt lat="53.3801222" lon="18.4233603">
<ele>56</ele>
<time>2015-05-28T08:58:48Z</time>
</trkpt>
<trkpt lat="53.3804147" lon="18.4236202">
<ele>57</ele>
<time>2015-05-28T08:58:50Z</time>
</trkpt>
<trkpt lat="53.3807248" lon="18.4238923">
<ele>56</ele>
<time>2015-05-28T08:58:52Z</time>
</trkpt>
<trkpt lat="53.3810258" lon="18.4241649">
<ele>55</ele>
<time>2015-05-28T08:58:54Z</time>
</trkpt>
<trkpt lat="53.3813252" lon="18.4244427">
<ele>54</ele>
<time>2015-05-28T08:58:56Z</time>
</trkpt>
<trkpt lat="53.3816391" lon="18.4246950">
<ele>54</ele>
<time>2015-05-28T08:58:58Z</time>
</trkpt>
<trkpt lat="53.3819737" lon="18.4248723">
<ele>54</ele>
<time>2015-05-28T08:59:00Z</time>
</trkpt>
<trkpt lat="53.3823035" lon="18.4250388">
<ele>54</ele>
<time>2015-05-28T08:59:02Z</time>
</trkpt>
<trkpt lat="53.3826482" lon="18.4252045">
<ele>52</ele>
<time>2015-05-28T08:59:04Z</time>
</trkpt>
<trkpt lat="53.3829914" lon="18.4253829">
<ele>54</ele>
<time>2015-05-28T08:59:06Z</time>
</trkpt>
<trkpt lat="53.3832924" lon="18.4255142">
<ele>58</ele>
<time>2015-05-28T08:59:08Z</time>
</trkpt>
<trkpt lat="53.3836607" lon="18.4257545">
<ele>58</ele>
<time>2015-05-28T08:59:10Z</time>
</trkpt>
<trkpt lat="53.3840022" lon="18.4259921">
<ele>56</ele>
<time>2015-05-28T08:59:12Z</time>
</trkpt>
<trkpt lat="53.3843433" lon="18.4262117">
<ele>56</ele>
<time>2015-05-28T08:59:14Z</time>
</trkpt>
<trkpt lat="53.3846537" lon="18.4264569">
<ele>56</ele>
<time>2015-05-28T08:59:16Z</time>
</trkpt>
<trkpt lat="53.3849872" lon="18.4267154">
<ele>55</ele>
<time>2015-05-28T08:59:18Z</time>
</trkpt>
<trkpt lat="53.3852918" lon="18.4269219">
<ele>53</ele>
<time>2015-05-28T08:59:20Z</time>
</trkpt>
<trkpt lat="53.3856463" lon="18.4272005">
<ele>53</ele>
<time>2015-05-28T08:59:22Z</time>
</trkpt>
<trkpt lat="53.3859512" lon="18.4274297">
<ele>53</ele>
<time>2015-05-28T08:59:24Z</time>
</trkpt>
<trkpt lat="53.3862844" lon="18.4277009">
<ele>53</ele>
<time>2015-05-28T08:59:26Z</time>
</trkpt>
<trkpt lat="53.3866049" lon="18.4279706">
<ele>54</ele>
<time>2015-05-28T08:59:28Z</time>
</trkpt>
<trkpt lat="53.3869141" lon="18.4282174">
<ele>53</ele>
<time>2015-05-28T08:59:30Z</time>
</trkpt>
<trkpt lat="53.3872383" lon="18.4284892">
<ele>52</ele>
<time>2015-05-28T08:59:32Z</time>
</trkpt>
<trkpt lat="53.3874314" lon="18.4286907">
<ele>52</ele>
<time>2015-05-28T08:59:34Z</time>
</trkpt>
<trkpt lat="53.3876265" lon="18.4289293">
<ele>53</ele>
<time>2015-05-28T08:59:36Z</time>
</trkpt>
<trkpt lat="53.3878579" lon="18.4292078">
<ele>52</ele>
<time>2015-05-28T08:59:38Z</time>
</trkpt>
<trkpt lat="53.3881043" lon="18.4295085">
<ele>52</ele>
<time>2015-05-28T08:59:40Z</time>
</trkpt>
<trkpt lat="53.3883697" lon="18.4298274">
<ele>53</ele>
<time>2015-05-28T08:59:42Z</time>
</trkpt>
<trkpt lat="53.3886480" lon="18.4301678">
<ele>54</ele>
<time>2015-05-28T08:59:44Z</time>
</trkpt>
<trkpt lat="53.3889407" lon="18.4305289">
<ele>55</ele>
<time>2015-05-28T08:59:46Z</time>
</trkpt>
<trkpt lat="53.3892536" lon="18.4309058">
<ele>54</ele>
<time>2015-05-28T08:59:48Z</time>
</trkpt>
<trkpt lat="53.3898803" lon="18.4316834">
<ele>55</ele>
<time>2015-05-28T08:59:52Z</time>
</trkpt>
<trkpt lat="53.3904995" lon="18.4324375">
<ele>56</ele>
<time>2015-05-28T08:59:56Z</time>
</trkpt>
<trkpt lat="53.3908147" lon="18.4328397">
<ele>55</ele>
<time>2015-05-28T08:59:58Z</time>
</trkpt>
<trkpt lat="53.3910948" lon="18.4332786">
<ele>55</ele>
<time>2015-05-28T09:00:00Z</time>
</trkpt>
<trkpt lat="53.3913690" lon="18.4337833">
<ele>70</ele>
<time>2015-05-28T09:00:02Z</time>
</trkpt>
<trkpt lat="53.3916302" lon="18.4342771">
<ele>62</ele>
<time>2015-05-28T09:00:04Z</time>
</trkpt>
<trkpt lat="53.3919012" lon="18.4347928">
<ele>62</ele>
<time>2015-05-28T09:00:06Z</time>
</trkpt>
<trkpt lat="53.3924396" lon="18.4358363">
<ele>60</ele>
<time>2015-05-28T09:00:10Z</time>
</trkpt>
<trkpt lat="53.3929385" lon="18.4367873">
<ele>56</ele>
<time>2015-05-28T09:00:14Z</time>
</trkpt>
<trkpt lat="53.3931412" lon="18.4371828">
<ele>56</ele>
<time>2015-05-28T09:00:16Z</time>
</trkpt>
<trkpt lat="53.3933306" lon="18.4375483">
<ele>56</ele>
<time>2015-05-28T09:00:18Z</time>
</trkpt>
<trkpt lat="53.3935234" lon="18.4379112">
<ele>54</ele>
<time>2015-05-28T09:00:20Z</time>
</trkpt>
<trkpt lat="53.3937026" lon="18.4382686">
<ele>55</ele>
<time>2015-05-28T09:00:22Z</time>
</trkpt>
<trkpt lat="53.3938728" lon="18.4386123">
<ele>55</ele>
<time>2015-05-28T09:00:24Z</time>
</trkpt>
<trkpt lat="53.3940555" lon="18.4389666">
<ele>55</ele>
<time>2015-05-28T09:00:26Z</time>
</trkpt>
<trkpt lat="53.3942503" lon="18.4393397">
<ele>56</ele>
<time>2015-05-28T09:00:28Z</time>
</trkpt>
<trkpt lat="53.3944528" lon="18.4397404">
<ele>57</ele>
<time>2015-05-28T09:00:30Z</time>
</trkpt>
<trkpt lat="53.3946520" lon="18.4401044">
<ele>56</ele>
<time>2015-05-28T09:00:32Z</time>
</trkpt>
<trkpt lat="53.3948618" lon="18.4405207">
<ele>58</ele>
<time>2015-05-28T09:00:34Z</time>
</trkpt>
<trkpt lat="53.3950784" lon="18.4409430">
<ele>59</ele>
<time>2015-05-28T09:00:36Z</time>
</trkpt>
<trkpt lat="53.3952763" lon="18.4413795">
<ele>59</ele>
<time>2015-05-28T09:00:38Z</time>
</trkpt>
<trkpt lat="53.3955009" lon="18.4417919">
<ele>59</ele>
<time>2015-05-28T09:00:40Z</time>
</trkpt>
<trkpt lat="53.3957189" lon="18.4422060">
<ele>59</ele>
<time>2015-05-28T09:00:42Z</time>
</trkpt>
<trkpt lat="53.3959390" lon="18.4426026">
<ele>58</ele>
<time>2015-05-28T09:00:44Z</time>
</trkpt>
<trkpt lat="53.3961523" lon="18.4430268">
<ele>59</ele>
<time>2015-05-28T09:00:46Z</time>
</trkpt>
<trkpt lat="53.3963545" lon="18.4434203">
<ele>56</ele>
<time>2015-05-28T09:00:48Z</time>
</trkpt>
<trkpt lat="53.3965686" lon="18.4438271">
<ele>56</ele>
<time>2015-05-28T09:00:50Z</time>
</trkpt>
<trkpt lat="53.3967757" lon="18.4442305">
<ele>56</ele>
<time>2015-05-28T09:00:52Z</time>
</trkpt>
<trkpt lat="53.3983587" lon="18.4471897">
<ele>53</ele>
<time>2015-05-28T09:01:06Z</time>
</trkpt>
<trkpt lat="53.3985713" lon="18.4475809">
<ele>54</ele>
<time>2015-05-28T09:01:08Z</time>
</trkpt>
<trkpt lat="53.3987705" lon="18.4479683">
<ele>54</ele>
<time>2015-05-28T09:01:10Z</time>
</trkpt>
<trkpt lat="53.3989537" lon="18.4483109">
<ele>54</ele>
<time>2015-05-28T09:01:12Z</time>
</trkpt>
<trkpt lat="53.399125" lon="18.4486221">
<ele>54</ele>
<time>2015-05-28T09:01:14Z</time>
</trkpt>
<trkpt lat="53.3992867" lon="18.4489064">
<ele>53</ele>
<time>2015-05-28T09:01:16Z</time>
</trkpt>
<trkpt lat="53.3994280" lon="18.4491739">
<ele>54</ele>
<time>2015-05-28T09:01:18Z</time>
</trkpt>
<trkpt lat="53.399554" lon="18.4494191">
<ele>53</ele>
<time>2015-05-28T09:01:20Z</time>
</trkpt>
<trkpt lat="53.3996945" lon="18.4496434">
<ele>52</ele>
<time>2015-05-28T09:01:22Z</time>
</trkpt>
<trkpt lat="53.3998328" lon="18.4498625">
<ele>52</ele>
<time>2015-05-28T09:01:24Z</time>
</trkpt>
<trkpt lat="53.4000044" lon="18.4501158">
<ele>55</ele>
<time>2015-05-28T09:01:26Z</time>
</trkpt>
<trkpt lat="53.4001670" lon="18.4503584">
<ele>54</ele>
<time>2015-05-28T09:01:28Z</time>
</trkpt>
<trkpt lat="53.4003364" lon="18.4506143">
<ele>54</ele>
<time>2015-05-28T09:01:30Z</time>
</trkpt>
<trkpt lat="53.4005000" lon="18.4508521">
<ele>54</ele>
<time>2015-05-28T09:01:32Z</time>
</trkpt>
<trkpt lat="53.4006510" lon="18.4510875">
<ele>55</ele>
<time>2015-05-28T09:01:34Z</time>
</trkpt>
<trkpt lat="53.4008013" lon="18.4513156">
<ele>54</ele>
<time>2015-05-28T09:01:36Z</time>
</trkpt>
<trkpt lat="53.4009505" lon="18.4515430">
<ele>55</ele>
<time>2015-05-28T09:01:38Z</time>
</trkpt>
<trkpt lat="53.4010904" lon="18.4518500">
<ele>53</ele>
<time>2015-05-28T09:01:40Z</time>
</trkpt>
<trkpt lat="53.4012218" lon="18.4521320">
<ele>54</ele>
<time>2015-05-28T09:01:42Z</time>
</trkpt>
<trkpt lat="53.4013541" lon="18.4524027">
<ele>55</ele>
<time>2015-05-28T09:01:44Z</time>
</trkpt>
<trkpt lat="53.4014753" lon="18.4526122">
<ele>57</ele>
<time>2015-05-28T09:01:46Z</time>
</trkpt>
<trkpt lat="53.4016068" lon="18.4528271">
<ele>57</ele>
<time>2015-05-28T09:01:48Z</time>
</trkpt>
<trkpt lat="53.4017285" lon="18.4529881">
<ele>56</ele>
<time>2015-05-28T09:01:50Z</time>
</trkpt>
<trkpt lat="53.4019274" lon="18.4530439">
<ele>58</ele>
<time>2015-05-28T09:01:54Z</time>
</trkpt>
<trkpt lat="53.4019893" lon="18.4529412">
<ele>58</ele>
<time>2015-05-28T09:01:56Z</time>
</trkpt>
<trkpt lat="53.4020608" lon="18.4527743">
<ele>58</ele>
<time>2015-05-28T09:01:58Z</time>
</trkpt>
<trkpt lat="53.4021697" lon="18.4525274">
<ele>59</ele>
<time>2015-05-28T09:02:00Z</time>
</trkpt>
<trkpt lat="53.4022831" lon="18.4523649">
<ele>58</ele>
<time>2015-05-28T09:02:02Z</time>
</trkpt>
<trkpt lat="53.4023588" lon="18.4521912">
<ele>58</ele>
<time>2015-05-28T09:02:04Z</time>
</trkpt>
<trkpt lat="53.4024476" lon="18.4520025">
<ele>57</ele>
<time>2015-05-28T09:02:06Z</time>
</trkpt>
<trkpt lat="53.4025002" lon="18.4519133">
<ele>58</ele>
<time>2015-05-28T09:02:08Z</time>
</trkpt>
<trkpt lat="53.4025659" lon="18.4518033">
<ele>58</ele>
<time>2015-05-28T09:02:10Z</time>
</trkpt>
<trkpt lat="53.4025929" lon="18.4517586">
<ele>60</ele>
<time>2015-05-28T09:02:12Z</time>
</trkpt>
<trkpt lat="53.4026530" lon="18.4516931">
<ele>58</ele>
<time>2015-05-28T09:02:14Z</time>
</trkpt>
<trkpt lat="53.4027307" lon="18.4516117">
<ele>57</ele>
<time>2015-05-28T09:02:16Z</time>
</trkpt>
<trkpt lat="53.4028586" lon="18.4515278">
<ele>56</ele>
<time>2015-05-28T09:02:18Z</time>
</trkpt>
<trkpt lat="53.4029845" lon="18.4514700">
<ele>58</ele>
<time>2015-05-28T09:02:20Z</time>
</trkpt>
<trkpt lat="53.4031123" lon="18.4514056">
<ele>61</ele>
<time>2015-05-28T09:02:22Z</time>
</trkpt>
<trkpt lat="53.4032489" lon="18.4512996">
<ele>61</ele>
<time>2015-05-28T09:02:24Z</time>
</trkpt>
<trkpt lat="53.4034092" lon="18.4512175">
<ele>61</ele>
<time>2015-05-28T09:02:26Z</time>
</trkpt>
<trkpt lat="53.4035423" lon="18.4511298">
<ele>61</ele>
<time>2015-05-28T09:02:28Z</time>
</trkpt>
<trkpt lat="53.4036986" lon="18.4510774">
<ele>60</ele>
<time>2015-05-28T09:02:30Z</time>
</trkpt>
<trkpt lat="53.4038398" lon="18.4510209">
<ele>59</ele>
<time>2015-05-28T09:02:32Z</time>
</trkpt>
<trkpt lat="53.4040012" lon="18.4509917">
<ele>59</ele>
<time>2015-05-28T09:02:34Z</time>
</trkpt>
<trkpt lat="53.404162" lon="18.4509946">
<ele>60</ele>
<time>2015-05-28T09:02:36Z</time>
</trkpt>
<trkpt lat="53.4043276" lon="18.4509973">
<ele>60</ele>
<time>2015-05-28T09:02:38Z</time>
</trkpt>
<trkpt lat="53.4044891" lon="18.4510081">
<ele>62</ele>
<time>2015-05-28T09:02:40Z</time>
</trkpt>
<trkpt lat="53.4046216" lon="18.4510141">
<ele>65</ele>
<time>2015-05-28T09:02:42Z</time>
</trkpt>
<trkpt lat="53.4047605" lon="18.4509928">
<ele>62</ele>
<time>2015-05-28T09:02:44Z</time>
</trkpt>
<trkpt lat="53.4048701" lon="18.4509677">
<ele>61</ele>
<time>2015-05-28T09:02:46Z</time>
</trkpt>
<trkpt lat="53.4049420" lon="18.4509044">
<ele>62</ele>
<time>2015-05-28T09:02:48Z</time>
</trkpt>
<trkpt lat="53.4049328" lon="18.4507908">
<ele>62</ele>
<time>2015-05-28T09:02:50Z</time>
</trkpt>
<trkpt lat="53.4048951" lon="18.4506522">
<ele>64</ele>
<time>2015-05-28T09:02:52Z</time>
</trkpt>
<trkpt lat="53.4048887" lon="18.4504236">
<ele>65</ele>
<time>2015-05-28T09:02:54Z</time>
</trkpt>
<trkpt lat="53.4048382" lon="18.4502107">
<ele>66</ele>
<time>2015-05-28T09:02:56Z</time>
</trkpt>
<trkpt lat="53.4048100" lon="18.4499919">
<ele>67</ele>
<time>2015-05-28T09:02:58Z</time>
</trkpt>
<trkpt lat="53.4047051" lon="18.4497645">
<ele>67</ele>
<time>2015-05-28T09:03:00Z</time>
</trkpt>
<trkpt lat="53.4047424" lon="18.4494596">
<ele>67</ele>
<time>2015-05-28T09:03:02Z</time>
</trkpt>
<trkpt lat="53.4046530" lon="18.4491458">
<ele>63</ele>
<time>2015-05-28T09:03:04Z</time>
</trkpt>
<trkpt lat="53.4046610" lon="18.4488640">
<ele>64</ele>
<time>2015-05-28T09:03:06Z</time>
</trkpt>
<trkpt lat="53.4045787" lon="18.4485785">
<ele>64</ele>
<time>2015-05-28T09:03:08Z</time>
</trkpt>
<trkpt lat="53.4045219" lon="18.4482938">
<ele>63</ele>
<time>2015-05-28T09:03:10Z</time>
</trkpt>
<trkpt lat="53.4044533" lon="18.4480572">
<ele>63</ele>
<time>2015-05-28T09:03:12Z</time>
</trkpt>
<trkpt lat="53.4044097" lon="18.4478156">
<ele>62</ele>
<time>2015-05-28T09:03:14Z</time>
</trkpt>
<trkpt lat="53.4043512" lon="18.4475788">
<ele>61</ele>
<time>2015-05-28T09:03:16Z</time>
</trkpt>
<trkpt lat="53.4042917" lon="18.4473208">
<ele>61</ele>
<time>2015-05-28T09:03:18Z</time>
</trkpt>
<trkpt lat="53.4042274" lon="18.4470369">
<ele>60</ele>
<time>2015-05-28T09:03:20Z</time>
</trkpt>
<trkpt lat="53.4041488" lon="18.4467449">
<ele>58</ele>
<time>2015-05-28T09:03:22Z</time>
</trkpt>
<trkpt lat="53.4040881" lon="18.4464648">
<ele>58</ele>
<time>2015-05-28T09:03:24Z</time>
</trkpt>
<trkpt lat="53.4040371" lon="18.4461748">
<ele>61</ele>
<time>2015-05-28T09:03:26Z</time>
</trkpt>
<trkpt lat="53.4039535" lon="18.4459109">
<ele>63</ele>
<time>2015-05-28T09:03:28Z</time>
</trkpt>
<trkpt lat="53.4039046" lon="18.4457583">
<ele>63</ele>
<time>2015-05-28T09:03:30Z</time>
</trkpt>
<trkpt lat="53.4038609" lon="18.4456650">
<ele>62</ele>
<time>2015-05-28T09:03:32Z</time>
</trkpt>
<trkpt lat="53.4038621" lon="18.4456060">
<ele>66</ele>
<time>2015-05-28T09:03:34Z</time>
</trkpt>
<trkpt lat="53.4038430" lon="18.4455209">
<ele>66</ele>
<time>2015-05-28T09:03:36Z</time>
</trkpt>
<trkpt lat="53.4038319" lon="18.4454530">
<ele>64</ele>
<time>2015-05-28T09:03:38Z</time>
</trkpt>
<trkpt lat="53.4038200" lon="18.4453786">
<ele>62</ele>
<time>2015-05-28T09:03:40Z</time>
</trkpt>
<trkpt lat="53.4038105" lon="18.4453289">
<ele>62</ele>
<time>2015-05-28T09:03:42Z</time>
</trkpt>
<trkpt lat="53.4038105" lon="18.4453215">
<ele>61</ele>
<time>2015-05-28T09:03:44Z</time>
</trkpt>
<trkpt lat="53.4038119" lon="18.4453195">
<ele>61</ele>
<time>2015-05-28T09:03:46Z</time>
</trkpt>
<trkpt lat="53.4038121" lon="18.4453188">
<ele>61</ele>
<time>2015-05-28T09:03:48Z</time>
</trkpt>
<trkpt lat="53.4038118" lon="18.4453237">
<ele>61</ele>
<time>2015-05-28T09:03:50Z</time>
</trkpt>
<trkpt lat="53.4038118" lon="18.4453288">
<ele>62</ele>
<time>2015-05-28T09:03:52Z</time>
</trkpt>
<trkpt lat="53.4038121" lon="18.4453313">
<ele>62</ele>
<time>2015-05-28T09:03:54Z</time>
</trkpt>
<trkpt lat="53.4038122" lon="18.4453329">
<ele>62</ele>
<time>2015-05-28T09:03:56Z</time>
</trkpt>
<trkpt lat="53.4038124" lon="18.4453331">
<ele>62</ele>
<time>2015-05-28T09:03:58Z</time>
</trkpt>
<trkpt lat="53.4038124" lon="18.4453335">
<ele>62</ele>
<time>2015-05-28T09:04:00Z</time>
</trkpt>
<trkpt lat="53.4038124" lon="18.4453341">
<ele>62</ele>
<time>2015-05-28T09:04:02Z</time>
</trkpt>
<trkpt lat="53.4038124" lon="18.4453345">
<ele>62</ele>
<time>2015-05-28T09:04:04Z</time>
</trkpt>
<trkpt lat="53.4038123" lon="18.4453348">
<ele>62</ele>
<time>2015-05-28T09:04:06Z</time>
</trkpt>
<trkpt lat="53.4038123" lon="18.4453349">
<ele>62</ele>
<time>2015-05-28T09:04:08Z</time>
</trkpt>
<trkpt lat="53.4038124" lon="18.4453349">
<ele>62</ele>
<time>2015-05-28T09:04:10Z</time>
</trkpt>
<trkpt lat="53.4038125" lon="18.4453346">
<ele>62</ele>
<time>2015-05-28T09:04:12Z</time>
</trkpt>
<trkpt lat="53.4038132" lon="18.4453331">
<ele>62</ele>
<time>2015-05-28T09:04:14Z</time>
</trkpt>
<trkpt lat="53.4038024" lon="18.4453414">
<ele>61</ele>
<time>2015-05-28T09:04:16Z</time>
</trkpt>
<trkpt lat="53.4037842" lon="18.4453623">
<ele>61</ele>
<time>2015-05-28T09:04:18Z</time>
</trkpt>
<trkpt lat="53.4037687" lon="18.4453718">
<ele>60</ele>
<time>2015-05-28T09:04:20Z</time>
</trkpt>
<trkpt lat="53.4037692" lon="18.4453563">
<ele>59</ele>
<time>2015-05-28T09:04:22Z</time>
</trkpt>
<trkpt lat="53.4037690" lon="18.4453499">
<ele>60</ele>
<time>2015-05-28T09:04:24Z</time>
</trkpt>
<trkpt lat="53.4037798" lon="18.4453689">
<ele>60</ele>
<time>2015-05-28T09:04:26Z</time>
</trkpt>
<trkpt lat="53.4038050" lon="18.4454747">
<ele>58</ele>
<time>2015-05-28T09:04:28Z</time>
</trkpt>
<trkpt lat="53.4038823" lon="18.4457916">
<ele>59</ele>
<time>2015-05-28T09:04:30Z</time>
</trkpt>
<trkpt lat="53.4039594" lon="18.4460718">
<ele>62</ele>
<time>2015-05-28T09:04:32Z</time>
</trkpt>
<trkpt lat="53.4040431" lon="18.4463993">
<ele>60</ele>
<time>2015-05-28T09:04:34Z</time>
</trkpt>
<trkpt lat="53.4041322" lon="18.4468093">
<ele>61</ele>
<time>2015-05-28T09:04:36Z</time>
</trkpt>
<trkpt lat="53.4041715" lon="18.4470447">
<ele>63</ele>
<time>2015-05-28T09:04:38Z</time>
</trkpt>
<trkpt lat="53.4042599" lon="18.4474628">
<ele>61</ele>
<time>2015-05-28T09:04:40Z</time>
</trkpt>
<trkpt lat="53.4043673" lon="18.4478433">
<ele>62</ele>
<time>2015-05-28T09:04:42Z</time>
</trkpt>
<trkpt lat="53.4044485" lon="18.4481547">
<ele>61</ele>
<time>2015-05-28T09:04:44Z</time>
</trkpt>
<trkpt lat="53.4045304" lon="18.4484581">
<ele>63</ele>
<time>2015-05-28T09:04:46Z</time>
</trkpt>
<trkpt lat="53.4045969" lon="18.4487369">
<ele>64</ele>
<time>2015-05-28T09:04:48Z</time>
</trkpt>
<trkpt lat="53.4046209" lon="18.4489290">
<ele>63</ele>
<time>2015-05-28T09:04:50Z</time>
</trkpt>
<trkpt lat="53.4046539" lon="18.4490626">
<ele>62</ele>
<time>2015-05-28T09:04:52Z</time>
</trkpt>
<trkpt lat="53.4046893" lon="18.4490971">
<ele>64</ele>
<time>2015-05-28T09:04:54Z</time>
</trkpt>
<trkpt lat="53.4047002" lon="18.4491000">
<ele>62</ele>
<time>2015-05-28T09:04:56Z</time>
</trkpt>
<trkpt lat="53.4047219" lon="18.4491001">
<ele>61</ele>
<time>2015-05-28T09:04:58Z</time>
</trkpt>
<trkpt lat="53.4047409" lon="18.4491159">
<ele>63</ele>
<time>2015-05-28T09:05:00Z</time>
</trkpt>
<trkpt lat="53.4047543" lon="18.4491136">
<ele>66</ele>
<time>2015-05-28T09:05:02Z</time>
</trkpt>
<trkpt lat="53.4047655" lon="18.4491206">
<ele>66</ele>
<time>2015-05-28T09:05:04Z</time>
</trkpt>
<trkpt lat="53.4047798" lon="18.4491390">
<ele>65</ele>
<time>2015-05-28T09:05:06Z</time>
</trkpt>
<trkpt lat="53.4047888" lon="18.4491483">
<ele>64</ele>
<time>2015-05-28T09:05:08Z</time>
</trkpt>
<trkpt lat="53.4047926" lon="18.4491506">
<ele>65</ele>
<time>2015-05-28T09:05:10Z</time>
</trkpt>
<trkpt lat="53.4047986" lon="18.4491587">
<ele>62</ele>
<time>2015-05-28T09:05:12Z</time>
</trkpt>
<trkpt lat="53.4048059" lon="18.4491664">
<ele>63</ele>
<time>2015-05-28T09:05:14Z</time>
</trkpt>
<trkpt lat="53.4048100" lon="18.4491680">
<ele>63</ele>
<time>2015-05-28T09:05:16Z</time>
</trkpt>
<trkpt lat="53.4048139" lon="18.4491669">
<ele>63</ele>
<time>2015-05-28T09:05:18Z</time>
</trkpt>
<trkpt lat="53.4048147" lon="18.4491671">
<ele>63</ele>
<time>2015-05-28T09:05:20Z</time>
</trkpt>
<trkpt lat="53.4048160" lon="18.4491669">
<ele>63</ele>
<time>2015-05-28T09:05:22Z</time>
</trkpt>
<trkpt lat="53.4048160" lon="18.4491682">
<ele>64</ele>
<time>2015-05-28T09:05:24Z</time>
</trkpt>
<trkpt lat="53.4048155" lon="18.4491682">
<ele>64</ele>
<time>2015-05-28T09:05:26Z</time>
</trkpt>
<trkpt lat="53.4048152" lon="18.4491680">
<ele>64</ele>
<time>2015-05-28T09:05:28Z</time>
</trkpt>
<trkpt lat="53.4048151" lon="18.4491677">
<ele>64</ele>
<time>2015-05-28T09:05:30Z</time>
</trkpt>
<trkpt lat="53.4048149" lon="18.4491673">
<ele>64</ele>
<time>2015-05-28T09:05:32Z</time>
</trkpt>
<trkpt lat="53.4048151" lon="18.4491671">
<ele>64</ele>
<time>2015-05-28T09:05:34Z</time>
</trkpt>
<trkpt lat="53.4048148" lon="18.4491668">
<ele>64</ele>
<time>2015-05-28T09:05:36Z</time>
</trkpt>
<trkpt lat="53.4048152" lon="18.4491666">
<ele>64</ele>
<time>2015-05-28T09:05:42Z</time>
</trkpt>
<trkpt lat="53.4048152" lon="18.4491667">
<ele>64</ele>
<time>2015-05-28T09:05:44Z</time>
</trkpt>
<trkpt lat="53.4048083" lon="18.4491735">
<ele>64</ele>
<time>2015-05-28T09:05:46Z</time>
</trkpt>
<trkpt lat="53.4048022" lon="18.4491826">
<ele>65</ele>
<time>2015-05-28T09:05:48Z</time>
</trkpt>
<trkpt lat="53.4047993" lon="18.4491899">
<ele>67</ele>
<time>2015-05-28T09:05:50Z</time>
</trkpt>
<trkpt lat="53.4047980" lon="18.4491914">
<ele>68</ele>
<time>2015-05-28T09:05:52Z</time>
</trkpt>
<trkpt lat="53.4047987" lon="18.4491922">
<ele>68</ele>
<time>2015-05-28T09:05:54Z</time>
</trkpt>
<trkpt lat="53.4048018" lon="18.4491944">
<ele>67</ele>
<time>2015-05-28T09:05:58Z</time>
</trkpt>
<trkpt lat="53.4048021" lon="18.4491950">
<ele>67</ele>
<time>2015-05-28T09:06:00Z</time>
</trkpt>
<trkpt lat="53.4048023" lon="18.4491955">
<ele>67</ele>
<time>2015-05-28T09:06:02Z</time>
</trkpt>
<trkpt lat="53.4048024" lon="18.4491955">
<ele>67</ele>
<time>2015-05-28T09:06:04Z</time>
</trkpt>
<trkpt lat="53.4048024" lon="18.4491955">
<ele>67</ele>
<time>2015-05-28T09:06:06Z</time>
</trkpt>
<trkpt lat="53.4048024" lon="18.4491954">
<ele>67</ele>
<time>2015-05-28T09:06:08Z</time>
</trkpt>
<trkpt lat="53.4048021" lon="18.4491944">
<ele>67</ele>
<time>2015-05-28T09:06:10Z</time>
</trkpt>
<trkpt lat="53.4048018" lon="18.4491938">
<ele>67</ele>
<time>2015-05-28T09:06:12Z</time>
</trkpt>
<trkpt lat="53.4048017" lon="18.4491936">
<ele>67</ele>
<time>2015-05-28T09:06:14Z</time>
</trkpt>
<trkpt lat="53.4048017" lon="18.4491935">
<ele>67</ele>
<time>2015-05-28T09:06:16Z</time>
</trkpt>
<trkpt lat="53.4048016" lon="18.4491935">
<ele>67</ele>
<time>2015-05-28T09:06:18Z</time>
</trkpt>
<trkpt lat="53.4048016" lon="18.4491936">
<ele>67</ele>
<time>2015-05-28T09:06:20Z</time>
</trkpt>
<trkpt lat="53.4048017" lon="18.4491936">
<ele>67</ele>
<time>2015-05-28T09:06:22Z</time>
</trkpt>
<trkpt lat="53.4048014" lon="18.4491933">
<ele>67</ele>
<time>2015-05-28T09:06:24Z</time>
</trkpt>
<trkpt lat="53.4048013" lon="18.4491932">
<ele>67</ele>
<time>2015-05-28T09:06:26Z</time>
</trkpt>
<trkpt lat="53.4048014" lon="18.4491931">
<ele>67</ele>
<time>2015-05-28T09:06:28Z</time>
</trkpt>
<trkpt lat="53.4048013" lon="18.4491928">
<ele>67</ele>
<time>2015-05-28T09:06:30Z</time>
</trkpt>
<trkpt lat="53.4048013" lon="18.4491927">
<ele>67</ele>
<time>2015-05-28T09:06:32Z</time>
</trkpt>
<trkpt lat="53.4048011" lon="18.4491921">
<ele>67</ele>
<time>2015-05-28T09:06:34Z</time>
</trkpt>
<trkpt lat="53.4048010" lon="18.4491917">
<ele>67</ele>
<time>2015-05-28T09:06:36Z</time>
</trkpt>
<trkpt lat="53.4048009" lon="18.4491915">
<ele>67</ele>
<time>2015-05-28T09:06:38Z</time>
</trkpt>
<trkpt lat="53.4048009" lon="18.4491913">
<ele>67</ele>
<time>2015-05-28T09:06:40Z</time>
</trkpt>
<trkpt lat="53.4048009" lon="18.4491911">
<ele>67</ele>
<time>2015-05-28T09:06:42Z</time>
</trkpt>
<trkpt lat="53.404801" lon="18.4491910">
<ele>67</ele>
<time>2015-05-28T09:06:46Z</time>
</trkpt>
<trkpt lat="53.4048010" lon="18.4491909">
<ele>67</ele>
<time>2015-05-28T09:06:48Z</time>
</trkpt>
<trkpt lat="53.4048010" lon="18.4491908">
<ele>67</ele>
<time>2015-05-28T09:06:50Z</time>
</trkpt>
<trkpt lat="53.4048010" lon="18.4491906">
<ele>67</ele>
<time>2015-05-28T09:06:52Z</time>
</trkpt>
<trkpt lat="53.4048010" lon="18.4491905">
<ele>67</ele>
<time>2015-05-28T09:06:54Z</time>
</trkpt>
<trkpt lat="53.4048010" lon="18.4491903">
<ele>67</ele>
<time>2015-05-28T09:06:56Z</time>
</trkpt>
<trkpt lat="53.4048010" lon="18.4491903">
<ele>67</ele>
<time>2015-05-28T09:06:58Z</time>
</trkpt>
<trkpt lat="53.404801" lon="18.4491902">
<ele>67</ele>
<time>2015-05-28T09:07:00Z</time>
</trkpt>
<trkpt lat="53.4048009" lon="18.4491901">
<ele>67</ele>
<time>2015-05-28T09:07:02Z</time>
</trkpt>
<trkpt lat="53.4048009" lon="18.44919">
<ele>67</ele>
<time>2015-05-28T09:07:04Z</time>
</trkpt>
<trkpt lat="53.4048009" lon="18.4491898">
<ele>67</ele>
<time>2015-05-28T09:07:06Z</time>
</trkpt>
<trkpt lat="53.4048008" lon="18.4491897">
<ele>67</ele>
<time>2015-05-28T09:07:08Z</time>
</trkpt>
<trkpt lat="53.4048008" lon="18.4491896">
<ele>67</ele>
<time>2015-05-28T09:07:10Z</time>
</trkpt>
<trkpt lat="53.4048008" lon="18.4491896">
<ele>67</ele>
<time>2015-05-28T09:07:12Z</time>
</trkpt>
<trkpt lat="53.4048008" lon="18.4491895">
<ele>67</ele>
<time>2015-05-28T09:07:14Z</time>
</trkpt>
<trkpt lat="53.4048008" lon="18.4491894">
<ele>67</ele>
<time>2015-05-28T09:07:16Z</time>
</trkpt>
<trkpt lat="53.4048008" lon="18.4491893">
<ele>67</ele>
<time>2015-05-28T09:07:18Z</time>
</trkpt>
<trkpt lat="53.4048009" lon="18.4491893">
<ele>67</ele>
<time>2015-05-28T09:07:20Z</time>
</trkpt>
<trkpt lat="53.4048009" lon="18.4491893">
<ele>67</ele>
<time>2015-05-28T09:07:22Z</time>
</trkpt>
<trkpt lat="53.4048009" lon="18.4491892">
<ele>67</ele>
<time>2015-05-28T09:07:24Z</time>
</trkpt>
<trkpt lat="53.4048009" lon="18.4491892">
<ele>67</ele>
<time>2015-05-28T09:07:26Z</time>
</trkpt>
<trkpt lat="53.4048009" lon="18.4491892">
<ele>67</ele>
<time>2015-05-28T09:07:28Z</time>
</trkpt>
<trkpt lat="53.404801" lon="18.4491892">
<ele>67</ele>
<time>2015-05-28T09:07:30Z</time>
</trkpt>
<trkpt lat="53.4048010" lon="18.4491892">
<ele>67</ele>
<time>2015-05-28T09:07:32Z</time>
</trkpt>
<trkpt lat="53.4048010" lon="18.4491892">
<ele>67</ele>
<time>2015-05-28T09:07:34Z</time>
</trkpt>
<trkpt lat="53.4048010" lon="18.4491892">
<ele>67</ele>
<time>2015-05-28T09:07:36Z</time>
</trkpt>
<trkpt lat="53.4048011" lon="18.4491892">
<ele>67</ele>
<time>2015-05-28T09:07:38Z</time>
</trkpt>
<trkpt lat="53.4048010" lon="18.4491892">
<ele>67</ele>
<time>2015-05-28T09:07:40Z</time>
</trkpt>
<trkpt lat="53.4048010" lon="18.4491891">
<ele>67</ele>
<time>2015-05-28T09:07:42Z</time>
</trkpt>
<trkpt lat="53.4048007" lon="18.4491886">
<ele>67</ele>
<time>2015-05-28T09:07:44Z</time>
</trkpt>
<trkpt lat="53.4048005" lon="18.4491882">
<ele>67</ele>
<time>2015-05-28T09:07:46Z</time>
</trkpt>
<trkpt lat="53.4048004" lon="18.4491879">
<ele>67</ele>
<time>2015-05-28T09:07:48Z</time>
</trkpt>
<trkpt lat="53.4048003" lon="18.4491878">
<ele>67</ele>
<time>2015-05-28T09:07:50Z</time>
</trkpt>
<trkpt lat="53.4048003" lon="18.4491877">
<ele>67</ele>
<time>2015-05-28T09:07:52Z</time>
</trkpt>
<trkpt lat="53.4048002" lon="18.4491877">
<ele>67</ele>
<time>2015-05-28T09:07:54Z</time>
</trkpt>
<trkpt lat="53.4048002" lon="18.4491876">
<ele>67</ele>
<time>2015-05-28T09:07:56Z</time>
</trkpt>
<trkpt lat="53.4048001" lon="18.4491876">
<ele>67</ele>
<time>2015-05-28T09:07:58Z</time>
</trkpt>
<trkpt lat="53.4048001" lon="18.4491876">
<ele>67</ele>
<time>2015-05-28T09:08:00Z</time>
</trkpt>
<trkpt lat="53.4048001" lon="18.4491876">
<ele>67</ele>
<time>2015-05-28T09:08:02Z</time>
</trkpt>
<trkpt lat="53.4048000" lon="18.4491876">
<ele>67</ele>
<time>2015-05-28T09:08:04Z</time>
</trkpt>
<trkpt lat="53.4048000" lon="18.4491876">
<ele>67</ele>
<time>2015-05-28T09:08:06Z</time>
</trkpt>
<trkpt lat="53.4047999" lon="18.4491876">
<ele>67</ele>
<time>2015-05-28T09:08:08Z</time>
</trkpt>
<trkpt lat="53.4047999" lon="18.4491876">
<ele>67</ele>
<time>2015-05-28T09:08:10Z</time>
</trkpt>
<trkpt lat="53.4047999" lon="18.4491875">
<ele>67</ele>
<time>2015-05-28T09:08:12Z</time>
</trkpt>
<trkpt lat="53.4047998" lon="18.4491874">
<ele>67</ele>
<time>2015-05-28T09:08:14Z</time>
</trkpt>
<trkpt lat="53.4047997" lon="18.4491874">
<ele>67</ele>
<time>2015-05-28T09:08:16Z</time>
</trkpt>
<trkpt lat="53.4047997" lon="18.4491873">
<ele>67</ele>
<time>2015-05-28T09:08:18Z</time>
</trkpt>
<trkpt lat="53.4047996" lon="18.4491872">
<ele>67</ele>
<time>2015-05-28T09:08:20Z</time>
</trkpt>
<trkpt lat="53.4047996" lon="18.4491871">
<ele>67</ele>
<time>2015-05-28T09:08:22Z</time>
</trkpt>
<trkpt lat="53.4047996" lon="18.4491869">
<ele>67</ele>
<time>2015-05-28T09:08:24Z</time>
</trkpt>
<trkpt lat="53.4047996" lon="18.4491868">
<ele>67</ele>
<time>2015-05-28T09:08:26Z</time>
</trkpt>
<trkpt lat="53.4047997" lon="18.4491866">
<ele>67</ele>
<time>2015-05-28T09:08:28Z</time>
</trkpt>
<trkpt lat="53.4047997" lon="18.4491864">
<ele>67</ele>
<time>2015-05-28T09:08:30Z</time>
</trkpt>
<trkpt lat="53.4047998" lon="18.4491864">
<ele>67</ele>
<time>2015-05-28T09:08:32Z</time>
</trkpt>
<trkpt lat="53.4047998" lon="18.4491863">
<ele>67</ele>
<time>2015-05-28T09:08:34Z</time>
</trkpt>
<trkpt lat="53.4047997" lon="18.4491863">
<ele>67</ele>
<time>2015-05-28T09:08:36Z</time>
</trkpt>
<trkpt lat="53.4047997" lon="18.4491862">
<ele>67</ele>
<time>2015-05-28T09:08:38Z</time>
</trkpt>
<trkpt lat="53.4047997" lon="18.4491863">
<ele>67</ele>
<time>2015-05-28T09:08:40Z</time>
</trkpt>
<trkpt lat="53.4047996" lon="18.4491862">
<ele>67</ele>
<time>2015-05-28T09:08:42Z</time>
</trkpt>
<trkpt lat="53.4047996" lon="18.4491861">
<ele>67</ele>
<time>2015-05-28T09:08:44Z</time>
</trkpt>
<trkpt lat="53.4047995" lon="18.4491861">
<ele>67</ele>
<time>2015-05-28T09:08:46Z</time>
</trkpt>
<trkpt lat="53.4047996" lon="18.4491861">
<ele>67</ele>
<time>2015-05-28T09:08:48Z</time>
</trkpt>
<trkpt lat="53.4047996" lon="18.4491861">
<ele>67</ele>
<time>2015-05-28T09:08:50Z</time>
</trkpt>
<trkpt lat="53.4047997" lon="18.4491861">
<ele>67</ele>
<time>2015-05-28T09:08:52Z</time>
</trkpt>
<trkpt lat="53.4047997" lon="18.4491861">
<ele>67</ele>
<time>2015-05-28T09:08:54Z</time>
</trkpt>
<trkpt lat="53.4047997" lon="18.4491861">
<ele>66</ele>
<time>2015-05-28T09:08:56Z</time>
</trkpt>
<trkpt lat="53.4047998" lon="18.4491861">
<ele>67</ele>
<time>2015-05-28T09:08:58Z</time>
</trkpt>
<trkpt lat="53.4047998" lon="18.4491861">
<ele>67</ele>
<time>2015-05-28T09:09:00Z</time>
</trkpt>
<trkpt lat="53.4047998" lon="18.4491861">
<ele>67</ele>
<time>2015-05-28T09:09:02Z</time>
</trkpt>
<trkpt lat="53.4047999" lon="18.4491862">
<ele>67</ele>
<time>2015-05-28T09:09:04Z</time>
</trkpt>
<trkpt lat="53.4047999" lon="18.4491861">
<ele>66</ele>
<time>2015-05-28T09:09:06Z</time>
</trkpt>
<trkpt lat="53.4047999" lon="18.4491861">
<ele>66</ele>
<time>2015-05-28T09:09:08Z</time>
</trkpt>
<trkpt lat="53.4047999" lon="18.4491861">
<ele>66</ele>
<time>2015-05-28T09:09:10Z</time>
</trkpt>
<trkpt lat="53.4047999" lon="18.4491860">
<ele>66</ele>
<time>2015-05-28T09:09:12Z</time>
</trkpt>
<trkpt lat="53.4047999" lon="18.4491859">
<ele>67</ele>
<time>2015-05-28T09:09:14Z</time>
</trkpt>
<trkpt lat="53.4047998" lon="18.4491859">
<ele>67</ele>
<time>2015-05-28T09:09:16Z</time>
</trkpt>
<trkpt lat="53.4047998" lon="18.4491859">
<ele>67</ele>
<time>2015-05-28T09:09:18Z</time>
</trkpt>
<trkpt lat="53.4047999" lon="18.4491859">
<ele>67</ele>
<time>2015-05-28T09:09:20Z</time>
</trkpt>
<trkpt lat="53.4047999" lon="18.4491859">
<ele>66</ele>
<time>2015-05-28T09:09:22Z</time>
</trkpt>
<trkpt lat="53.4047999" lon="18.4491859">
<ele>66</ele>
<time>2015-05-28T09:09:24Z</time>
</trkpt>
<trkpt lat="53.4047999" lon="18.4491859">
<ele>66</ele>
<time>2015-05-28T09:09:26Z</time>
</trkpt>
<trkpt lat="53.4048000" lon="18.4491859">
<ele>66</ele>
<time>2015-05-28T09:09:28Z</time>
</trkpt>
<trkpt lat="53.4048000" lon="18.4491858">
<ele>66</ele>
<time>2015-05-28T09:09:30Z</time>
</trkpt>
<trkpt lat="53.4048" lon="18.4491857">
<ele>66</ele>
<time>2015-05-28T09:09:32Z</time>
</trkpt>
<trkpt lat="53.4047999" lon="18.4491855">
<ele>66</ele>
<time>2015-05-28T09:09:34Z</time>
</trkpt>
<trkpt lat="53.4047999" lon="18.4491854">
<ele>66</ele>
<time>2015-05-28T09:09:36Z</time>
</trkpt>
<trkpt lat="53.4047999" lon="18.4491853">
<ele>66</ele>
<time>2015-05-28T09:09:38Z</time>
</trkpt>
<trkpt lat="53.4047999" lon="18.4491852">
<ele>66</ele>
<time>2015-05-28T09:09:40Z</time>
</trkpt>
<trkpt lat="53.4047999" lon="18.4491852">
<ele>66</ele>
<time>2015-05-28T09:09:42Z</time>
</trkpt>
<trkpt lat="53.4047999" lon="18.4491851">
<ele>66</ele>
<time>2015-05-28T09:09:44Z</time>
</trkpt>
<trkpt lat="53.4047999" lon="18.4491851">
<ele>66</ele>
<time>2015-05-28T09:09:46Z</time>
</trkpt>
<trkpt lat="53.4047999" lon="18.4491850">
<ele>66</ele>
<time>2015-05-28T09:09:48Z</time>
</trkpt>
<trkpt lat="53.4047999" lon="18.4491850">
<ele>66</ele>
<time>2015-05-28T09:09:50Z</time>
</trkpt>
<trkpt lat="53.4047999" lon="18.4491850">
<ele>66</ele>
<time>2015-05-28T09:09:52Z</time>
</trkpt>
<trkpt lat="53.4047999" lon="18.4491850">
<ele>66</ele>
<time>2015-05-28T09:09:54Z</time>
</trkpt>
<trkpt lat="53.4047999" lon="18.4491851">
<ele>66</ele>
<time>2015-05-28T09:09:56Z</time>
</trkpt>
<trkpt lat="53.4047999" lon="18.4491851">
<ele>66</ele>
<time>2015-05-28T09:09:58Z</time>
</trkpt>
<trkpt lat="53.4047999" lon="18.4491852">
<ele>66</ele>
<time>2015-05-28T09:10:00Z</time>
</trkpt>
<trkpt lat="53.4047999" lon="18.4491852">
<ele>66</ele>
<time>2015-05-28T09:10:02Z</time>
</trkpt>
<trkpt lat="53.4047998" lon="18.4491852">
<ele>66</ele>
<time>2015-05-28T09:10:04Z</time>
</trkpt>
<trkpt lat="53.4047998" lon="18.4491851">
<ele>66</ele>
<time>2015-05-28T09:10:06Z</time>
</trkpt>
<trkpt lat="53.4047998" lon="18.4491850">
<ele>66</ele>
<time>2015-05-28T09:10:08Z</time>
</trkpt>
<trkpt lat="53.4047998" lon="18.4491850">
<ele>66</ele>
<time>2015-05-28T09:10:10Z</time>
</trkpt>
<trkpt lat="53.4047998" lon="18.4491849">
<ele>66</ele>
<time>2015-05-28T09:10:12Z</time>
</trkpt>
<trkpt lat="53.4047997" lon="18.4491849">
<ele>66</ele>
<time>2015-05-28T09:10:14Z</time>
</trkpt>
<trkpt lat="53.4047997" lon="18.4491849">
<ele>66</ele>
<time>2015-05-28T09:10:16Z</time>
</trkpt>
<trkpt lat="53.4047998" lon="18.4491849">
<ele>66</ele>
<time>2015-05-28T09:10:18Z</time>
</trkpt>
<trkpt lat="53.4047998" lon="18.4491849">
<ele>66</ele>
<time>2015-05-28T09:10:20Z</time>
</trkpt>
<trkpt lat="53.4047998" lon="18.4491848">
<ele>66</ele>
<time>2015-05-28T09:10:22Z</time>
</trkpt>
<trkpt lat="53.4047998" lon="18.4491848">
<ele>66</ele>
<time>2015-05-28T09:10:24Z</time>
</trkpt>
<trkpt lat="53.4047997" lon="18.4491847">
<ele>66</ele>
<time>2015-05-28T09:10:26Z</time>
</trkpt>
<trkpt lat="53.4047997" lon="18.4491846">
<ele>66</ele>
<time>2015-05-28T09:10:28Z</time>
</trkpt>
<trkpt lat="53.4047997" lon="18.4491845">
<ele>66</ele>
<time>2015-05-28T09:10:30Z</time>
</trkpt>
<trkpt lat="53.4047997" lon="18.4491845">
<ele>66</ele>
<time>2015-05-28T09:10:32Z</time>
</trkpt>
<trkpt lat="53.4047997" lon="18.4491844">
<ele>66</ele>
<time>2015-05-28T09:10:34Z</time>
</trkpt>
<trkpt lat="53.4047997" lon="18.4491843">
<ele>66</ele>
<time>2015-05-28T09:10:36Z</time>
</trkpt>
<trkpt lat="53.4047997" lon="18.4491841">
<ele>66</ele>
<time>2015-05-28T09:10:38Z</time>
</trkpt>
<trkpt lat="53.4047997" lon="18.4491840">
<ele>66</ele>
<time>2015-05-28T09:10:40Z</time>
</trkpt>
<trkpt lat="53.4047997" lon="18.4491839">
<ele>66</ele>
<time>2015-05-28T09:10:42Z</time>
</trkpt>
<trkpt lat="53.4047997" lon="18.4491839">
<ele>66</ele>
<time>2015-05-28T09:10:44Z</time>
</trkpt>
<trkpt lat="53.4047997" lon="18.4491839">
<ele>66</ele>
<time>2015-05-28T09:10:46Z</time>
</trkpt>
<trkpt lat="53.4047997" lon="18.4491839">
<ele>66</ele>
<time>2015-05-28T09:10:48Z</time>
</trkpt>
<trkpt lat="53.4047998" lon="18.4491839">
<ele>66</ele>
<time>2015-05-28T09:10:50Z</time>
</trkpt>
<trkpt lat="53.4047998" lon="18.4491840">
<ele>66</ele>
<time>2015-05-28T09:10:52Z</time>
</trkpt>
<trkpt lat="53.4047998" lon="18.4491841">
<ele>66</ele>
<time>2015-05-28T09:10:54Z</time>
</trkpt>
<trkpt lat="53.4047999" lon="18.4491841">
<ele>66</ele>
<time>2015-05-28T09:10:56Z</time>
</trkpt>
<trkpt lat="53.4047999" lon="18.4491841">
<ele>66</ele>
<time>2015-05-28T09:10:58Z</time>
</trkpt>
<trkpt lat="53.4047999" lon="18.4491841">
<ele>66</ele>
<time>2015-05-28T09:11:00Z</time>
</trkpt>
<trkpt lat="53.4047999" lon="18.4491840">
<ele>66</ele>
<time>2015-05-28T09:11:02Z</time>
</trkpt>
<trkpt lat="53.4047999" lon="18.4491840">
<ele>66</ele>
<time>2015-05-28T09:11:04Z</time>
</trkpt>
<trkpt lat="53.4047999" lon="18.4491840">
<ele>66</ele>
<time>2015-05-28T09:11:06Z</time>
</trkpt>
<trkpt lat="53.4047999" lon="18.4491840">
<ele>66</ele>
<time>2015-05-28T09:11:08Z</time>
</trkpt>
<trkpt lat="53.4047999" lon="18.4491839">
<ele>66</ele>
<time>2015-05-28T09:11:10Z</time>
</trkpt>
<trkpt lat="53.4047998" lon="18.4491838">
<ele>66</ele>
<time>2015-05-28T09:11:12Z</time>
</trkpt>
<trkpt lat="53.4047999" lon="18.4491838">
<ele>66</ele>
<time>2015-05-28T09:11:14Z</time>
</trkpt>
<trkpt lat="53.4047999" lon="18.4491839">
<ele>66</ele>
<time>2015-05-28T09:11:16Z</time>
</trkpt>
<trkpt lat="53.4047999" lon="18.4491839">
<ele>66</ele>
<time>2015-05-28T09:11:18Z</time>
</trkpt>
<trkpt lat="53.4047999" lon="18.4491840">
<ele>66</ele>
<time>2015-05-28T09:11:20Z</time>
</trkpt>
<trkpt lat="53.4048" lon="18.4491840">
<ele>66</ele>
<time>2015-05-28T09:11:22Z</time>
</trkpt>
<trkpt lat="53.4048000" lon="18.4491840">
<ele>66</ele>
<time>2015-05-28T09:11:24Z</time>
</trkpt>
<trkpt lat="53.4048000" lon="18.4491839">
<ele>66</ele>
<time>2015-05-28T09:11:26Z</time>
</trkpt>
<trkpt lat="53.4048000" lon="18.4491839">
<ele>66</ele>
<time>2015-05-28T09:11:28Z</time>
</trkpt>
<trkpt lat="53.4048001" lon="18.4491838">
<ele>66</ele>
<time>2015-05-28T09:11:30Z</time>
</trkpt>
<trkpt lat="53.4048001" lon="18.4491838">
<ele>66</ele>
<time>2015-05-28T09:11:32Z</time>
</trkpt>
<trkpt lat="53.4048001" lon="18.4491838">
<ele>66</ele>
<time>2015-05-28T09:11:34Z</time>
</trkpt>
<trkpt lat="53.4048002" lon="18.4491838">
<ele>66</ele>
<time>2015-05-28T09:11:36Z</time>
</trkpt>
<trkpt lat="53.4048002" lon="18.4491837">
<ele>66</ele>
<time>2015-05-28T09:11:38Z</time>
</trkpt>
<trkpt lat="53.4048002" lon="18.4491837">
<ele>66</ele>
<time>2015-05-28T09:11:40Z</time>
</trkpt>
<trkpt lat="53.4048002" lon="18.4491835">
<ele>66</ele>
<time>2015-05-28T09:11:42Z</time>
</trkpt>
<trkpt lat="53.4048002" lon="18.4491834">
<ele>66</ele>
<time>2015-05-28T09:11:44Z</time>
</trkpt>
<trkpt lat="53.4048002" lon="18.4491833">
<ele>66</ele>
<time>2015-05-28T09:11:46Z</time>
</trkpt>
<trkpt lat="53.4048002" lon="18.4491831">
<ele>66</ele>
<time>2015-05-28T09:11:48Z</time>
</trkpt>
<trkpt lat="53.4048002" lon="18.4491830">
<ele>66</ele>
<time>2015-05-28T09:11:50Z</time>
</trkpt>
<trkpt lat="53.4048002" lon="18.4491829">
<ele>66</ele>
<time>2015-05-28T09:11:52Z</time>
</trkpt>
<trkpt lat="53.4048003" lon="18.4491828">
<ele>66</ele>
<time>2015-05-28T09:11:54Z</time>
</trkpt>
<trkpt lat="53.4048003" lon="18.4491826">
<ele>66</ele>
<time>2015-05-28T09:11:56Z</time>
</trkpt>
<trkpt lat="53.4048004" lon="18.4491825">
<ele>66</ele>
<time>2015-05-28T09:11:58Z</time>
</trkpt>
<trkpt lat="53.4048004" lon="18.4491824">
<ele>66</ele>
<time>2015-05-28T09:12:00Z</time>
</trkpt>
<trkpt lat="53.4048004" lon="18.4491824">
<ele>66</ele>
<time>2015-05-28T09:12:02Z</time>
</trkpt>
<trkpt lat="53.4048005" lon="18.4491824">
<ele>66</ele>
<time>2015-05-28T09:12:04Z</time>
</trkpt>
<trkpt lat="53.4048006" lon="18.4491824">
<ele>66</ele>
<time>2015-05-28T09:12:06Z</time>
</trkpt>
<trkpt lat="53.4048007" lon="18.4491823">
<ele>66</ele>
<time>2015-05-28T09:12:10Z</time>
</trkpt>
<trkpt lat="53.4048008" lon="18.4491823">
<ele>66</ele>
<time>2015-05-28T09:12:12Z</time>
</trkpt>
<trkpt lat="53.4048008" lon="18.4491824">
<ele>66</ele>
<time>2015-05-28T09:12:14Z</time>
</trkpt>
<trkpt lat="53.4048009" lon="18.4491824">
<ele>66</ele>
<time>2015-05-28T09:12:16Z</time>
</trkpt>
<trkpt lat="53.4048010" lon="18.4491823">
<ele>66</ele>
<time>2015-05-28T09:12:18Z</time>
</trkpt>
<trkpt lat="53.4048011" lon="18.4491823">
<ele>66</ele>
<time>2015-05-28T09:12:20Z</time>
</trkpt>
<trkpt lat="53.4048011" lon="18.4491822">
<ele>66</ele>
<time>2015-05-28T09:12:22Z</time>
</trkpt>
<trkpt lat="53.4048011" lon="18.4491822">
<ele>66</ele>
<time>2015-05-28T09:12:24Z</time>
</trkpt>
<trkpt lat="53.4048012" lon="18.4491822">
<ele>66</ele>
<time>2015-05-28T09:12:26Z</time>
</trkpt>
<trkpt lat="53.4048012" lon="18.4491821">
<ele>66</ele>
<time>2015-05-28T09:12:28Z</time>
</trkpt>
<trkpt lat="53.4048012" lon="18.4491820">
<ele>66</ele>
<time>2015-05-28T09:12:30Z</time>
</trkpt>
<trkpt lat="53.4048012" lon="18.4491819">
<ele>66</ele>
<time>2015-05-28T09:12:32Z</time>
</trkpt>
<trkpt lat="53.4048012" lon="18.4491818">
<ele>66</ele>
<time>2015-05-28T09:12:34Z</time>
</trkpt>
<trkpt lat="53.4048012" lon="18.4491817">
<ele>66</ele>
<time>2015-05-28T09:12:36Z</time>
</trkpt>
<trkpt lat="53.4048011" lon="18.4491816">
<ele>66</ele>
<time>2015-05-28T09:12:38Z</time>
</trkpt>
<trkpt lat="53.4048011" lon="18.4491815">
<ele>66</ele>
<time>2015-05-28T09:12:40Z</time>
</trkpt>
<trkpt lat="53.4048011" lon="18.4491815">
<ele>66</ele>
<time>2015-05-28T09:12:42Z</time>
</trkpt>
<trkpt lat="53.4047980" lon="18.4491654">
<ele>67</ele>
<time>2015-05-28T09:12:44Z</time>
</trkpt>
<trkpt lat="53.4047954" lon="18.4491411">
<ele>67</ele>
<time>2015-05-28T09:12:46Z</time>
</trkpt>
<trkpt lat="53.4047868" lon="18.4491238">
<ele>67</ele>
<time>2015-05-28T09:12:48Z</time>
</trkpt>
<trkpt lat="53.4047885" lon="18.4491142">
<ele>67</ele>
<time>2015-05-28T09:12:50Z</time>
</trkpt>
<trkpt lat="53.4048126" lon="18.4491026">
<ele>65</ele>
<time>2015-05-28T09:12:52Z</time>
</trkpt>
<trkpt lat="53.4048524" lon="18.4490822">
<ele>63</ele>
<time>2015-05-28T09:12:54Z</time>
</trkpt>
<trkpt lat="53.4048892" lon="18.4490510">
<ele>62</ele>
<time>2015-05-28T09:12:56Z</time>
</trkpt>
<trkpt lat="53.4049117" lon="18.4490194">
<ele>61</ele>
<time>2015-05-28T09:12:58Z</time>
</trkpt>
<trkpt lat="53.4049079" lon="18.4490216">
<ele>60</ele>
<time>2015-05-28T09:13:00Z</time>
</trkpt>
<trkpt lat="53.4049067" lon="18.4490235">
<ele>59</ele>
<time>2015-05-28T09:13:02Z</time>
</trkpt>
<trkpt lat="53.4049052" lon="18.4490214">
<ele>59</ele>
<time>2015-05-28T09:13:04Z</time>
</trkpt>
<trkpt lat="53.4049027" lon="18.4490192">
<ele>59</ele>
<time>2015-05-28T09:13:06Z</time>
</trkpt>
<trkpt lat="53.4048992" lon="18.4490196">
<ele>58</ele>
<time>2015-05-28T09:13:08Z</time>
</trkpt>
<trkpt lat="53.4048983" lon="18.4490202">
<ele>58</ele>
<time>2015-05-28T09:13:10Z</time>
</trkpt>
<trkpt lat="53.4048985" lon="18.4490208">
<ele>59</ele>
<time>2015-05-28T09:13:14Z</time>
</trkpt>
<trkpt lat="53.4048985" lon="18.4490209">
<ele>59</ele>
<time>2015-05-28T09:13:16Z</time>
</trkpt>
<trkpt lat="53.4048984" lon="18.4490209">
<ele>59</ele>
<time>2015-05-28T09:13:18Z</time>
</trkpt>
<trkpt lat="53.4048984" lon="18.4490210">
<ele>59</ele>
<time>2015-05-28T09:13:20Z</time>
</trkpt>
<trkpt lat="53.4048984" lon="18.4490210">
<ele>59</ele>
<time>2015-05-28T09:13:22Z</time>
</trkpt>
<trkpt lat="53.4048984" lon="18.4490210">
<ele>59</ele>
<time>2015-05-28T09:13:24Z</time>
</trkpt>
<trkpt lat="53.4048983" lon="18.4490210">
<ele>59</ele>
<time>2015-05-28T09:13:26Z</time>
</trkpt>
<trkpt lat="53.4048983" lon="18.4490211">
<ele>59</ele>
<time>2015-05-28T09:13:28Z</time>
</trkpt>
<trkpt lat="53.4048983" lon="18.4490211">
<ele>59</ele>
<time>2015-05-28T09:13:30Z</time>
</trkpt>
<trkpt lat="53.4048983" lon="18.4490211">
<ele>59</ele>
<time>2015-05-28T09:13:32Z</time>
</trkpt>
<trkpt lat="53.4048983" lon="18.4490210">
<ele>59</ele>
<time>2015-05-28T09:13:34Z</time>
</trkpt>
<trkpt lat="53.4048983" lon="18.4490210">
<ele>59</ele>
<time>2015-05-28T09:13:36Z</time>
</trkpt>
<trkpt lat="53.4048982" lon="18.4490210">
<ele>59</ele>
<time>2015-05-28T09:13:38Z</time>
</trkpt>
<trkpt lat="53.4048983" lon="18.4490210">
<ele>59</ele>
<time>2015-05-28T09:13:40Z</time>
</trkpt>
<trkpt lat="53.4048983" lon="18.4490210">
<ele>59</ele>
<time>2015-05-28T09:13:42Z</time>
</trkpt>
<trkpt lat="53.4048983" lon="18.4490210">
<ele>59</ele>
<time>2015-05-28T09:13:44Z</time>
</trkpt>
<trkpt lat="53.4048983" lon="18.4490210">
<ele>59</ele>
<time>2015-05-28T09:13:46Z</time>
</trkpt>
<trkpt lat="53.4048983" lon="18.4490210">
<ele>59</ele>
<time>2015-05-28T09:13:48Z</time>
</trkpt>
<trkpt lat="53.4048983" lon="18.4490210">
<ele>59</ele>
<time>2015-05-28T09:13:50Z</time>
</trkpt>
<trkpt lat="53.4048983" lon="18.4490210">
<ele>59</ele>
<time>2015-05-28T09:13:52Z</time>
</trkpt>
<trkpt lat="53.4048982" lon="18.4490211">
<ele>59</ele>
<time>2015-05-28T09:13:54Z</time>
</trkpt>
<trkpt lat="53.4048982" lon="18.4490211">
<ele>59</ele>
<time>2015-05-28T09:13:56Z</time>
</trkpt>
<trkpt lat="53.4048982" lon="18.4490212">
<ele>59</ele>
<time>2015-05-28T09:13:58Z</time>
</trkpt>
<trkpt lat="53.4048982" lon="18.4490212">
<ele>59</ele>
<time>2015-05-28T09:14:00Z</time>
</trkpt>
<trkpt lat="53.4048982" lon="18.4490212">
<ele>59</ele>
<time>2015-05-28T09:14:02Z</time>
</trkpt>
<trkpt lat="53.4048982" lon="18.4490212">
<ele>59</ele>
<time>2015-05-28T09:14:04Z</time>
</trkpt>
<trkpt lat="53.4048981" lon="18.4490213">
<ele>59</ele>
<time>2015-05-28T09:14:06Z</time>
</trkpt>
<trkpt lat="53.4048981" lon="18.4490212">
<ele>59</ele>
<time>2015-05-28T09:14:08Z</time>
</trkpt>
<trkpt lat="53.4048981" lon="18.4490212">
<ele>59</ele>
<time>2015-05-28T09:14:10Z</time>
</trkpt>
<trkpt lat="53.4048982" lon="18.4490212">
<ele>59</ele>
<time>2015-05-28T09:14:12Z</time>
</trkpt>
<trkpt lat="53.4048982" lon="18.4490211">
<ele>59</ele>
<time>2015-05-28T09:14:14Z</time>
</trkpt>
<trkpt lat="53.4048982" lon="18.4490211">
<ele>58</ele>
<time>2015-05-28T09:14:16Z</time>
</trkpt>
<trkpt lat="53.4048982" lon="18.4490211">
<ele>58</ele>
<time>2015-05-28T09:14:18Z</time>
</trkpt>
<trkpt lat="53.4048982" lon="18.4490211">
<ele>58</ele>
<time>2015-05-28T09:14:20Z</time>
</trkpt>
<trkpt lat="53.4048982" lon="18.4490211">
<ele>58</ele>
<time>2015-05-28T09:14:22Z</time>
</trkpt>
<trkpt lat="53.4048981" lon="18.4490211">
<ele>58</ele>
<time>2015-05-28T09:14:24Z</time>
</trkpt>
<trkpt lat="53.4048981" lon="18.4490211">
<ele>58</ele>
<time>2015-05-28T09:14:26Z</time>
</trkpt>
<trkpt lat="53.4048981" lon="18.4490211">
<ele>58</ele>
<time>2015-05-28T09:14:28Z</time>
</trkpt>
<trkpt lat="53.4048981" lon="18.4490212">
<ele>58</ele>
<time>2015-05-28T09:14:30Z</time>
</trkpt>
<trkpt lat="53.4048981" lon="18.4490212">
<ele>58</ele>
<time>2015-05-28T09:14:32Z</time>
</trkpt>
<trkpt lat="53.4048981" lon="18.4490212">
<ele>58</ele>
<time>2015-05-28T09:14:34Z</time>
</trkpt>
<trkpt lat="53.4048980" lon="18.4490212">
<ele>58</ele>
<time>2015-05-28T09:14:36Z</time>
</trkpt>
<trkpt lat="53.4048980" lon="18.4490212">
<ele>58</ele>
<time>2015-05-28T09:14:38Z</time>
</trkpt>
<trkpt lat="53.4048980" lon="18.4490212">
<ele>58</ele>
<time>2015-05-28T09:14:40Z</time>
</trkpt>
<trkpt lat="53.4048980" lon="18.4490212">
<ele>58</ele>
<time>2015-05-28T09:14:42Z</time>
</trkpt>
<trkpt lat="53.4048981" lon="18.4490212">
<ele>58</ele>
<time>2015-05-28T09:14:44Z</time>
</trkpt>
<trkpt lat="53.4048981" lon="18.4490212">
<ele>58</ele>
<time>2015-05-28T09:14:46Z</time>
</trkpt>
<trkpt lat="53.4048981" lon="18.4490212">
<ele>58</ele>
<time>2015-05-28T09:14:48Z</time>
</trkpt>
<trkpt lat="53.4048980" lon="18.4490212">
<ele>58</ele>
<time>2015-05-28T09:14:50Z</time>
</trkpt>
<trkpt lat="53.4048981" lon="18.4490212">
<ele>58</ele>
<time>2015-05-28T09:14:52Z</time>
</trkpt>
<trkpt lat="53.4048981" lon="18.4490211">
<ele>58</ele>
<time>2015-05-28T09:14:54Z</time>
</trkpt>
<trkpt lat="53.4048980" lon="18.4490212">
<ele>58</ele>
<time>2015-05-28T09:14:56Z</time>
</trkpt>
<trkpt lat="53.4048980" lon="18.4490212">
<ele>58</ele>
<time>2015-05-28T09:14:58Z</time>
</trkpt>
<trkpt lat="53.4048980" lon="18.4490212">
<ele>58</ele>
<time>2015-05-28T09:15:00Z</time>
</trkpt>
<trkpt lat="53.4048981" lon="18.4490212">
<ele>58</ele>
<time>2015-05-28T09:15:02Z</time>
</trkpt>
<trkpt lat="53.4048981" lon="18.4490213">
<ele>58</ele>
<time>2015-05-28T09:15:04Z</time>
</trkpt>
<trkpt lat="53.4048981" lon="18.4490213">
<ele>58</ele>
<time>2015-05-28T09:15:06Z</time>
</trkpt>
<trkpt lat="53.4048981" lon="18.4490214">
<ele>58</ele>
<time>2015-05-28T09:15:08Z</time>
</trkpt>
<trkpt lat="53.4048980" lon="18.4490214">
<ele>58</ele>
<time>2015-05-28T09:15:10Z</time>
</trkpt>
<trkpt lat="53.4048980" lon="18.4490215">
<ele>58</ele>
<time>2015-05-28T09:15:12Z</time>
</trkpt>
<trkpt lat="53.4048980" lon="18.4490216">
<ele>58</ele>
<time>2015-05-28T09:15:14Z</time>
</trkpt>
<trkpt lat="53.4048980" lon="18.4490216">
<ele>58</ele>
<time>2015-05-28T09:15:16Z</time>
</trkpt>
<trkpt lat="53.4048979" lon="18.4490217">
<ele>58</ele>
<time>2015-05-28T09:15:18Z</time>
</trkpt>
<trkpt lat="53.4048979" lon="18.4490217">
<ele>58</ele>
<time>2015-05-28T09:15:20Z</time>
</trkpt>
<trkpt lat="53.4048978" lon="18.4490218">
<ele>58</ele>
<time>2015-05-28T09:15:22Z</time>
</trkpt>
<trkpt lat="53.4048978" lon="18.4490218">
<ele>58</ele>
<time>2015-05-28T09:15:24Z</time>
</trkpt>
<trkpt lat="53.4048978" lon="18.4490219">
<ele>58</ele>
<time>2015-05-28T09:15:26Z</time>
</trkpt>
<trkpt lat="53.4048978" lon="18.4490219">
<ele>58</ele>
<time>2015-05-28T09:15:28Z</time>
</trkpt>
<trkpt lat="53.4048978" lon="18.4490219">
<ele>58</ele>
<time>2015-05-28T09:15:30Z</time>
</trkpt>
<trkpt lat="53.4048978" lon="18.4490219">
<ele>58</ele>
<time>2015-05-28T09:15:32Z</time>
</trkpt>
<trkpt lat="53.4048977" lon="18.4490220">
<ele>58</ele>
<time>2015-05-28T09:15:34Z</time>
</trkpt>
<trkpt lat="53.4048977" lon="18.4490221">
<ele>58</ele>
<time>2015-05-28T09:15:36Z</time>
</trkpt>
<trkpt lat="53.4048977" lon="18.4490221">
<ele>58</ele>
<time>2015-05-28T09:15:38Z</time>
</trkpt>
<trkpt lat="53.4048977" lon="18.4490221">
<ele>58</ele>
<time>2015-05-28T09:15:40Z</time>
</trkpt>
<trkpt lat="53.4048977" lon="18.4490222">
<ele>58</ele>
<time>2015-05-28T09:15:42Z</time>
</trkpt>
<trkpt lat="53.4048977" lon="18.4490221">
<ele>58</ele>
<time>2015-05-28T09:15:44Z</time>
</trkpt>
<trkpt lat="53.4048977" lon="18.4490221">
<ele>58</ele>
<time>2015-05-28T09:15:46Z</time>
</trkpt>
<trkpt lat="53.4048977" lon="18.4490221">
<ele>58</ele>
<time>2015-05-28T09:15:48Z</time>
</trkpt>
<trkpt lat="53.4048978" lon="18.4490221">
<ele>58</ele>
<time>2015-05-28T09:15:50Z</time>
</trkpt>
<trkpt lat="53.4048978" lon="18.4490221">
<ele>58</ele>
<time>2015-05-28T09:15:52Z</time>
</trkpt>
<trkpt lat="53.4048978" lon="18.4490221">
<ele>58</ele>
<time>2015-05-28T09:15:54Z</time>
</trkpt>
<trkpt lat="53.4048978" lon="18.4490222">
<ele>58</ele>
<time>2015-05-28T09:15:56Z</time>
</trkpt>
<trkpt lat="53.4048978" lon="18.4490222">
<ele>58</ele>
<time>2015-05-28T09:15:58Z</time>
</trkpt>
<trkpt lat="53.4048978" lon="18.4490222">
<ele>58</ele>
<time>2015-05-28T09:16:00Z</time>
</trkpt>
<trkpt lat="53.4048977" lon="18.4490223">
<ele>58</ele>
<time>2015-05-28T09:16:02Z</time>
</trkpt>
<trkpt lat="53.4048977" lon="18.4490223">
<ele>58</ele>
<time>2015-05-28T09:16:04Z</time>
</trkpt>
<trkpt lat="53.4048977" lon="18.4490224">
<ele>58</ele>
<time>2015-05-28T09:16:08Z</time>
</trkpt>
<trkpt lat="53.4048977" lon="18.4490224">
<ele>58</ele>
<time>2015-05-28T09:16:10Z</time>
</trkpt>
<trkpt lat="53.4048977" lon="18.4490225">
<ele>58</ele>
<time>2015-05-28T09:16:12Z</time>
</trkpt>
<trkpt lat="53.4048977" lon="18.4490225">
<ele>58</ele>
<time>2015-05-28T09:16:14Z</time>
</trkpt>
<trkpt lat="53.4048977" lon="18.4490226">
<ele>58</ele>
<time>2015-05-28T09:16:16Z</time>
</trkpt>
<trkpt lat="53.4048977" lon="18.4490226">
<ele>58</ele>
<time>2015-05-28T09:16:18Z</time>
</trkpt>
<trkpt lat="53.4048977" lon="18.4490226">
<ele>58</ele>
<time>2015-05-28T09:16:20Z</time>
</trkpt>
<trkpt lat="53.4048977" lon="18.4490226">
<ele>58</ele>
<time>2015-05-28T09:16:22Z</time>
</trkpt>
<trkpt lat="53.4048977" lon="18.4490226">
<ele>58</ele>
<time>2015-05-28T09:16:26Z</time>
</trkpt>
<trkpt lat="53.4048977" lon="18.4490227">
<ele>58</ele>
<time>2015-05-28T09:16:28Z</time>
</trkpt>
<trkpt lat="53.4048977" lon="18.4490227">
<ele>58</ele>
<time>2015-05-28T09:16:30Z</time>
</trkpt>
<trkpt lat="53.4048977" lon="18.4490228">
<ele>58</ele>
<time>2015-05-28T09:16:34Z</time>
</trkpt>
<trkpt lat="53.4048977" lon="18.4490228">
<ele>58</ele>
<time>2015-05-28T09:16:36Z</time>
</trkpt>
<trkpt lat="53.4048977" lon="18.4490228">
<ele>58</ele>
<time>2015-05-28T09:16:40Z</time>
</trkpt>
<trkpt lat="53.4048978" lon="18.4490229">
<ele>58</ele>
<time>2015-05-28T09:16:42Z</time>
</trkpt>
<trkpt lat="53.4048977" lon="18.4490229">
<ele>58</ele>
<time>2015-05-28T09:16:46Z</time>
</trkpt>
<trkpt lat="53.4048977" lon="18.4490229">
<ele>58</ele>
<time>2015-05-28T09:16:48Z</time>
</trkpt>
<trkpt lat="53.4048977" lon="18.4490229">
<ele>58</ele>
<time>2015-05-28T09:16:52Z</time>
</trkpt>
<trkpt lat="53.4048977" lon="18.4490229">
<ele>58</ele>
<time>2015-05-28T09:16:54Z</time>
</trkpt>
<trkpt lat="53.4048978" lon="18.4490229">
<ele>58</ele>
<time>2015-05-28T09:16:56Z</time>
</trkpt>
<trkpt lat="53.4048978" lon="18.4490229">
<ele>58</ele>
<time>2015-05-28T09:16:58Z</time>
</trkpt>
<trkpt lat="53.4048978" lon="18.4490229">
<ele>58</ele>
<time>2015-05-28T09:17:00Z</time>
</trkpt>
<trkpt lat="53.4048978" lon="18.4490229">
<ele>58</ele>
<time>2015-05-28T09:17:02Z</time>
</trkpt>
<trkpt lat="53.4048978" lon="18.4490230">
<ele>58</ele>
<time>2015-05-28T09:17:04Z</time>
</trkpt>
<trkpt lat="53.4048978" lon="18.4490230">
<ele>58</ele>
<time>2015-05-28T09:17:06Z</time>
</trkpt>
<trkpt lat="53.4048978" lon="18.4490231">
<ele>58</ele>
<time>2015-05-28T09:17:08Z</time>
</trkpt>
<trkpt lat="53.4048978" lon="18.4490231">
<ele>58</ele>
<time>2015-05-28T09:17:10Z</time>
</trkpt>
<trkpt lat="53.4048979" lon="18.4490231">
<ele>58</ele>
<time>2015-05-28T09:17:14Z</time>
</trkpt>
<trkpt lat="53.4048979" lon="18.4490231">
<ele>58</ele>
<time>2015-05-28T09:17:16Z</time>
</trkpt>
<trkpt lat="53.4048978" lon="18.4490232">
<ele>58</ele>
<time>2015-05-28T09:17:18Z</time>
</trkpt>
<trkpt lat="53.4048978" lon="18.4490232">
<ele>58</ele>
<time>2015-05-28T09:17:20Z</time>
</trkpt>
<trkpt lat="53.4048978" lon="18.4490233">
<ele>58</ele>
<time>2015-05-28T09:17:22Z</time>
</trkpt>
<trkpt lat="53.4048977" lon="18.4490234">
<ele>58</ele>
<time>2015-05-28T09:17:24Z</time>
</trkpt>
<trkpt lat="53.4048977" lon="18.4490234">
<ele>58</ele>
<time>2015-05-28T09:17:26Z</time>
</trkpt>
<trkpt lat="53.4048977" lon="18.4490234">
<ele>58</ele>
<time>2015-05-28T09:17:28Z</time>
</trkpt>
<trkpt lat="53.4048977" lon="18.4490235">
<ele>58</ele>
<time>2015-05-28T09:17:30Z</time>
</trkpt>
<trkpt lat="53.4048977" lon="18.4490235">
<ele>58</ele>
<time>2015-05-28T09:17:32Z</time>
</trkpt>
<trkpt lat="53.4048977" lon="18.4490235">
<ele>58</ele>
<time>2015-05-28T09:17:34Z</time>
</trkpt>
<trkpt lat="53.4048977" lon="18.4490236">
<ele>58</ele>
<time>2015-05-28T09:17:36Z</time>
</trkpt>
<trkpt lat="53.4048977" lon="18.4490236">
<ele>58</ele>
<time>2015-05-28T09:17:38Z</time>
</trkpt>
<trkpt lat="53.4048977" lon="18.4490236">
<ele>58</ele>
<time>2015-05-28T09:17:40Z</time>
</trkpt>
<trkpt lat="53.4048977" lon="18.4490237">
<ele>58</ele>
<time>2015-05-28T09:17:42Z</time>
</trkpt>
<trkpt lat="53.4048976" lon="18.4490237">
<ele>58</ele>
<time>2015-05-28T09:17:44Z</time>
</trkpt>
<trkpt lat="53.4048976" lon="18.4490237">
<ele>58</ele>
<time>2015-05-28T09:17:46Z</time>
</trkpt>
<trkpt lat="53.4048976" lon="18.4490238">
<ele>58</ele>
<time>2015-05-28T09:17:48Z</time>
</trkpt>
<trkpt lat="53.4048976" lon="18.4490237">
<ele>58</ele>
<time>2015-05-28T09:17:50Z</time>
</trkpt>
<trkpt lat="53.4048976" lon="18.4490237">
<ele>58</ele>
<time>2015-05-28T09:17:52Z</time>
</trkpt>
<trkpt lat="53.4048976" lon="18.4490237">
<ele>58</ele>
<time>2015-05-28T09:17:54Z</time>
</trkpt>
<trkpt lat="53.4048976" lon="18.4490238">
<ele>58</ele>
<time>2015-05-28T09:17:56Z</time>
</trkpt>
<trkpt lat="53.4048976" lon="18.4490238">
<ele>58</ele>
<time>2015-05-28T09:17:58Z</time>
</trkpt>
<trkpt lat="53.4048976" lon="18.4490238">
<ele>58</ele>
<time>2015-05-28T09:18:00Z</time>
</trkpt>
<trkpt lat="53.4048976" lon="18.4490239">
<ele>58</ele>
<time>2015-05-28T09:18:02Z</time>
</trkpt>
<trkpt lat="53.4048976" lon="18.4490239">
<ele>58</ele>
<time>2015-05-28T09:18:04Z</time>
</trkpt>
<trkpt lat="53.4048976" lon="18.4490239">
<ele>58</ele>
<time>2015-05-28T09:18:06Z</time>
</trkpt>
<trkpt lat="53.4048976" lon="18.4490239">
<ele>58</ele>
<time>2015-05-28T09:18:08Z</time>
</trkpt>
<trkpt lat="53.4048976" lon="18.4490239">
<ele>58</ele>
<time>2015-05-28T09:18:10Z</time>
</trkpt>
<trkpt lat="53.4048976" lon="18.4490239">
<ele>58</ele>
<time>2015-05-28T09:18:12Z</time>
</trkpt>
<trkpt lat="53.4048976" lon="18.4490239">
<ele>58</ele>
<time>2015-05-28T09:18:14Z</time>
</trkpt>
<trkpt lat="53.4048976" lon="18.4490239">
<ele>58</ele>
<time>2015-05-28T09:18:16Z</time>
</trkpt>
<trkpt lat="53.4048977" lon="18.4490239">
<ele>58</ele>
<time>2015-05-28T09:18:18Z</time>
</trkpt>
<trkpt lat="53.4048977" lon="18.4490240">
<ele>58</ele>
<time>2015-05-28T09:18:20Z</time>
</trkpt>
<trkpt lat="53.4048977" lon="18.4490240">
<ele>58</ele>
<time>2015-05-28T09:18:22Z</time>
</trkpt>
<trkpt lat="53.4048977" lon="18.4490240">
<ele>58</ele>
<time>2015-05-28T09:18:24Z</time>
</trkpt>
<trkpt lat="53.4048977" lon="18.4490239">
<ele>58</ele>
<time>2015-05-28T09:18:26Z</time>
</trkpt>
<trkpt lat="53.4048977" lon="18.4490239">
<ele>58</ele>
<time>2015-05-28T09:18:28Z</time>
</trkpt>
<trkpt lat="53.4048977" lon="18.4490239">
<ele>58</ele>
<time>2015-05-28T09:18:30Z</time>
</trkpt>
<trkpt lat="53.4048977" lon="18.4490239">
<ele>58</ele>
<time>2015-05-28T09:18:32Z</time>
</trkpt>
<trkpt lat="53.4048977" lon="18.4490239">
<ele>58</ele>
<time>2015-05-28T09:18:34Z</time>
</trkpt>
<trkpt lat="53.4048977" lon="18.4490239">
<ele>58</ele>
<time>2015-05-28T09:18:36Z</time>
</trkpt>
<trkpt lat="53.4048977" lon="18.449024">
<ele>58</ele>
<time>2015-05-28T09:18:38Z</time>
</trkpt>
<trkpt lat="53.4048977" lon="18.4490240">
<ele>58</ele>
<time>2015-05-28T09:18:40Z</time>
</trkpt>
<trkpt lat="53.4048977" lon="18.4490240">
<ele>58</ele>
<time>2015-05-28T09:18:42Z</time>
</trkpt>
<trkpt lat="53.4048976" lon="18.4490241">
<ele>58</ele>
<time>2015-05-28T09:18:44Z</time>
</trkpt>
<trkpt lat="53.4048976" lon="18.4490241">
<ele>58</ele>
<time>2015-05-28T09:18:46Z</time>
</trkpt>
<trkpt lat="53.4048976" lon="18.4490241">
<ele>58</ele>
<time>2015-05-28T09:18:48Z</time>
</trkpt>
<trkpt lat="53.4048976" lon="18.4490242">
<ele>58</ele>
<time>2015-05-28T09:18:50Z</time>
</trkpt>
<trkpt lat="53.4048976" lon="18.4490242">
<ele>58</ele>
<time>2015-05-28T09:18:52Z</time>
</trkpt>
<trkpt lat="53.4048976" lon="18.4490243">
<ele>58</ele>
<time>2015-05-28T09:18:54Z</time>
</trkpt>
<trkpt lat="53.4048976" lon="18.4490243">
<ele>58</ele>
<time>2015-05-28T09:18:56Z</time>
</trkpt>
<trkpt lat="53.4048976" lon="18.4490244">
<ele>58</ele>
<time>2015-05-28T09:18:58Z</time>
</trkpt>
<trkpt lat="53.4048975" lon="18.4490244">
<ele>58</ele>
<time>2015-05-28T09:19:00Z</time>
</trkpt>
<trkpt lat="53.4048975" lon="18.4490244">
<ele>58</ele>
<time>2015-05-28T09:19:02Z</time>
</trkpt>
<trkpt lat="53.4048976" lon="18.4490244">
<ele>58</ele>
<time>2015-05-28T09:19:04Z</time>
</trkpt>
<trkpt lat="53.4048975" lon="18.4490244">
<ele>58</ele>
<time>2015-05-28T09:19:06Z</time>
</trkpt>
<trkpt lat="53.4048975" lon="18.4490244">
<ele>58</ele>
<time>2015-05-28T09:19:08Z</time>
</trkpt>
<trkpt lat="53.4048975" lon="18.4490245">
<ele>58</ele>
<time>2015-05-28T09:19:10Z</time>
</trkpt>
<trkpt lat="53.4048975" lon="18.4490245">
<ele>58</ele>
<time>2015-05-28T09:19:12Z</time>
</trkpt>
<trkpt lat="53.4048975" lon="18.4490245">
<ele>58</ele>
<time>2015-05-28T09:19:14Z</time>
</trkpt>
<trkpt lat="53.4048974" lon="18.4490245">
<ele>58</ele>
<time>2015-05-28T09:19:16Z</time>
</trkpt>
<trkpt lat="53.4048974" lon="18.4490246">
<ele>58</ele>
<time>2015-05-28T09:19:18Z</time>
</trkpt>
<trkpt lat="53.4048974" lon="18.4490246">
<ele>58</ele>
<time>2015-05-28T09:19:20Z</time>
</trkpt>
<trkpt lat="53.4048974" lon="18.4490246">
<ele>58</ele>
<time>2015-05-28T09:19:22Z</time>
</trkpt>
<trkpt lat="53.4048974" lon="18.4490246">
<ele>58</ele>
<time>2015-05-28T09:19:24Z</time>
</trkpt>
<trkpt lat="53.4048974" lon="18.4490246">
<ele>58</ele>
<time>2015-05-28T09:19:26Z</time>
</trkpt>
<trkpt lat="53.4048974" lon="18.4490246">
<ele>58</ele>
<time>2015-05-28T09:19:28Z</time>
</trkpt>
<trkpt lat="53.4048974" lon="18.4490246">
<ele>58</ele>
<time>2015-05-28T09:19:30Z</time>
</trkpt>
<trkpt lat="53.4048974" lon="18.4490247">
<ele>58</ele>
<time>2015-05-28T09:19:32Z</time>
</trkpt>
<trkpt lat="53.4048973" lon="18.4490247">
<ele>58</ele>
<time>2015-05-28T09:19:34Z</time>
</trkpt>
<trkpt lat="53.4048973" lon="18.4490247">
<ele>58</ele>
<time>2015-05-28T09:19:36Z</time>
</trkpt>
<trkpt lat="53.4048973" lon="18.4490247">
<ele>58</ele>
<time>2015-05-28T09:19:38Z</time>
</trkpt>
<trkpt lat="53.4048973" lon="18.4490247">
<ele>58</ele>
<time>2015-05-28T09:19:40Z</time>
</trkpt>
<trkpt lat="53.4048973" lon="18.4490247">
<ele>58</ele>
<time>2015-05-28T09:19:42Z</time>
</trkpt>
<trkpt lat="53.4048972" lon="18.4490248">
<ele>58</ele>
<time>2015-05-28T09:19:44Z</time>
</trkpt>
<trkpt lat="53.4048972" lon="18.4490248">
<ele>58</ele>
<time>2015-05-28T09:19:46Z</time>
</trkpt>
<trkpt lat="53.4048972" lon="18.4490248">
<ele>58</ele>
<time>2015-05-28T09:19:48Z</time>
</trkpt>
<trkpt lat="53.4048972" lon="18.4490248">
<ele>58</ele>
<time>2015-05-28T09:19:50Z</time>
</trkpt>
<trkpt lat="53.4048972" lon="18.4490249">
<ele>58</ele>
<time>2015-05-28T09:19:52Z</time>
</trkpt>
<trkpt lat="53.4048972" lon="18.4490249">
<ele>58</ele>
<time>2015-05-28T09:19:54Z</time>
</trkpt>
<trkpt lat="53.4048972" lon="18.4490248">
<ele>58</ele>
<time>2015-05-28T09:19:56Z</time>
</trkpt>
<trkpt lat="53.4048972" lon="18.4490248">
<ele>58</ele>
<time>2015-05-28T09:19:58Z</time>
</trkpt>
<trkpt lat="53.4048972" lon="18.4490249">
<ele>58</ele>
<time>2015-05-28T09:20:00Z</time>
</trkpt>
<trkpt lat="53.4048972" lon="18.4490249">
<ele>58</ele>
<time>2015-05-28T09:20:02Z</time>
</trkpt>
<trkpt lat="53.4048972" lon="18.4490249">
<ele>58</ele>
<time>2015-05-28T09:20:04Z</time>
</trkpt>
<trkpt lat="53.4048971" lon="18.4490249">
<ele>58</ele>
<time>2015-05-28T09:20:06Z</time>
</trkpt>
<trkpt lat="53.4048971" lon="18.4490249">
<ele>58</ele>
<time>2015-05-28T09:20:08Z</time>
</trkpt>
<trkpt lat="53.4048971" lon="18.4490249">
<ele>58</ele>
<time>2015-05-28T09:20:10Z</time>
</trkpt>
<trkpt lat="53.4048971" lon="18.4490250">
<ele>58</ele>
<time>2015-05-28T09:20:12Z</time>
</trkpt>
<trkpt lat="53.4048971" lon="18.4490250">
<ele>58</ele>
<time>2015-05-28T09:20:14Z</time>
</trkpt>
<trkpt lat="53.4048971" lon="18.4490251">
<ele>58</ele>
<time>2015-05-28T09:20:16Z</time>
</trkpt>
<trkpt lat="53.4048971" lon="18.4490251">
<ele>58</ele>
<time>2015-05-28T09:20:18Z</time>
</trkpt>
<trkpt lat="53.4048971" lon="18.4490251">
<ele>58</ele>
<time>2015-05-28T09:20:20Z</time>
</trkpt>
<trkpt lat="53.4048971" lon="18.4490251">
<ele>58</ele>
<time>2015-05-28T09:20:22Z</time>
</trkpt>
<trkpt lat="53.4048971" lon="18.4490251">
<ele>58</ele>
<time>2015-05-28T09:20:24Z</time>
</trkpt>
<trkpt lat="53.4048971" lon="18.4490251">
<ele>58</ele>
<time>2015-05-28T09:20:26Z</time>
</trkpt>
<trkpt lat="53.4048971" lon="18.4490251">
<ele>58</ele>
<time>2015-05-28T09:20:28Z</time>
</trkpt>
<trkpt lat="53.4048971" lon="18.4490251">
<ele>58</ele>
<time>2015-05-28T09:20:30Z</time>
</trkpt>
<trkpt lat="53.4048971" lon="18.4490251">
<ele>58</ele>
<time>2015-05-28T09:20:32Z</time>
</trkpt>
<trkpt lat="53.4048971" lon="18.4490251">
<ele>58</ele>
<time>2015-05-28T09:20:34Z</time>
</trkpt>
<trkpt lat="53.4048971" lon="18.4490251">
<ele>58</ele>
<time>2015-05-28T09:20:36Z</time>
</trkpt>
<trkpt lat="53.4048971" lon="18.4490251">
<ele>58</ele>
<time>2015-05-28T09:20:38Z</time>
</trkpt>
<trkpt lat="53.4048971" lon="18.4490251">
<ele>58</ele>
<time>2015-05-28T09:20:40Z</time>
</trkpt>
<trkpt lat="53.4048971" lon="18.4490252">
<ele>58</ele>
<time>2015-05-28T09:20:42Z</time>
</trkpt>
<trkpt lat="53.4048971" lon="18.4490251">
<ele>58</ele>
<time>2015-05-28T09:20:44Z</time>
</trkpt>
<trkpt lat="53.4048971" lon="18.4490251">
<ele>58</ele>
<time>2015-05-28T09:20:46Z</time>
</trkpt>
<trkpt lat="53.4048972" lon="18.4490251">
<ele>58</ele>
<time>2015-05-28T09:20:48Z</time>
</trkpt>
<trkpt lat="53.4048972" lon="18.4490251">
<ele>58</ele>
<time>2015-05-28T09:20:50Z</time>
</trkpt>
<trkpt lat="53.4048972" lon="18.4490251">
<ele>58</ele>
<time>2015-05-28T09:20:52Z</time>
</trkpt>
<trkpt lat="53.4048972" lon="18.4490251">
<ele>58</ele>
<time>2015-05-28T09:20:54Z</time>
</trkpt>
<trkpt lat="53.4048971" lon="18.4490251">
<ele>58</ele>
<time>2015-05-28T09:20:56Z</time>
</trkpt>
<trkpt lat="53.4048971" lon="18.4490251">
<ele>58</ele>
<time>2015-05-28T09:20:58Z</time>
</trkpt>
<trkpt lat="53.4048971" lon="18.4490252">
<ele>58</ele>
<time>2015-05-28T09:21:00Z</time>
</trkpt>
<trkpt lat="53.4048971" lon="18.4490252">
<ele>58</ele>
<time>2015-05-28T09:21:02Z</time>
</trkpt>
<trkpt lat="53.4048971" lon="18.4490252">
<ele>58</ele>
<time>2015-05-28T09:21:04Z</time>
</trkpt>
<trkpt lat="53.4048971" lon="18.4490252">
<ele>58</ele>
<time>2015-05-28T09:21:06Z</time>
</trkpt>
<trkpt lat="53.4048970" lon="18.4490252">
<ele>58</ele>
<time>2015-05-28T09:21:08Z</time>
</trkpt>
<trkpt lat="53.4048970" lon="18.4490252">
<ele>58</ele>
<time>2015-05-28T09:21:10Z</time>
</trkpt>
<trkpt lat="53.4048970" lon="18.4490252">
<ele>58</ele>
<time>2015-05-28T09:21:12Z</time>
</trkpt>
<trkpt lat="53.4048971" lon="18.4490252">
<ele>58</ele>
<time>2015-05-28T09:21:14Z</time>
</trkpt>
<trkpt lat="53.4048971" lon="18.4490252">
<ele>58</ele>
<time>2015-05-28T09:21:16Z</time>
</trkpt>
<trkpt lat="53.4048971" lon="18.4490252">
<ele>58</ele>
<time>2015-05-28T09:21:18Z</time>
</trkpt>
<trkpt lat="53.4048971" lon="18.4490252">
<ele>58</ele>
<time>2015-05-28T09:21:20Z</time>
</trkpt>
<trkpt lat="53.4048971" lon="18.4490252">
<ele>58</ele>
<time>2015-05-28T09:21:22Z</time>
</trkpt>
<trkpt lat="53.4048971" lon="18.4490252">
<ele>58</ele>
<time>2015-05-28T09:21:24Z</time>
</trkpt>
<trkpt lat="53.4048971" lon="18.4490252">
<ele>58</ele>
<time>2015-05-28T09:21:26Z</time>
</trkpt>
<trkpt lat="53.4048971" lon="18.4490252">
<ele>58</ele>
<time>2015-05-28T09:21:28Z</time>
</trkpt>
<trkpt lat="53.4048971" lon="18.4490252">
<ele>58</ele>
<time>2015-05-28T09:21:30Z</time>
</trkpt>
<trkpt lat="53.4048971" lon="18.4490252">
<ele>58</ele>
<time>2015-05-28T09:21:32Z</time>
</trkpt>
<trkpt lat="53.4048972" lon="18.4490252">
<ele>58</ele>
<time>2015-05-28T09:21:34Z</time>
</trkpt>
<trkpt lat="53.4048972" lon="18.4490253">
<ele>58</ele>
<time>2015-05-28T09:21:36Z</time>
</trkpt>
<trkpt lat="53.4048972" lon="18.4490253">
<ele>58</ele>
<time>2015-05-28T09:21:38Z</time>
</trkpt>
<trkpt lat="53.4048972" lon="18.4490253">
<ele>58</ele>
<time>2015-05-28T09:21:40Z</time>
</trkpt>
<trkpt lat="53.4048972" lon="18.4490254">
<ele>58</ele>
<time>2015-05-28T09:21:42Z</time>
</trkpt>
<trkpt lat="53.4048972" lon="18.4490254">
<ele>58</ele>
<time>2015-05-28T09:21:44Z</time>
</trkpt>
<trkpt lat="53.4048972" lon="18.4490254">
<ele>58</ele>
<time>2015-05-28T09:21:46Z</time>
</trkpt>
<trkpt lat="53.4048972" lon="18.4490254">
<ele>58</ele>
<time>2015-05-28T09:21:48Z</time>
</trkpt>
<trkpt lat="53.4048972" lon="18.4490254">
<ele>58</ele>
<time>2015-05-28T09:21:50Z</time>
</trkpt>
<trkpt lat="53.4048973" lon="18.4490254">
<ele>58</ele>
<time>2015-05-28T09:21:52Z</time>
</trkpt>
<trkpt lat="53.4048973" lon="18.4490254">
<ele>58</ele>
<time>2015-05-28T09:21:54Z</time>
</trkpt>
<trkpt lat="53.4048973" lon="18.4490254">
<ele>58</ele>
<time>2015-05-28T09:21:56Z</time>
</trkpt>
<trkpt lat="53.4048973" lon="18.4490254">
<ele>58</ele>
<time>2015-05-28T09:21:58Z</time>
</trkpt>
<trkpt lat="53.4048973" lon="18.4490254">
<ele>58</ele>
<time>2015-05-28T09:22:00Z</time>
</trkpt>
<trkpt lat="53.4048973" lon="18.4490255">
<ele>58</ele>
<time>2015-05-28T09:22:02Z</time>
</trkpt>
<trkpt lat="53.4048973" lon="18.4490255">
<ele>58</ele>
<time>2015-05-28T09:22:04Z</time>
</trkpt>
<trkpt lat="53.4048973" lon="18.4490255">
<ele>58</ele>
<time>2015-05-28T09:22:06Z</time>
</trkpt>
<trkpt lat="53.4048973" lon="18.4490255">
<ele>58</ele>
<time>2015-05-28T09:22:10Z</time>
</trkpt>
<trkpt lat="53.4048973" lon="18.4490255">
<ele>58</ele>
<time>2015-05-28T09:22:12Z</time>
</trkpt>
<trkpt lat="53.4048973" lon="18.4490255">
<ele>58</ele>
<time>2015-05-28T09:22:14Z</time>
</trkpt>
<trkpt lat="53.4048973" lon="18.4490255">
<ele>58</ele>
<time>2015-05-28T09:22:16Z</time>
</trkpt>
<trkpt lat="53.4048974" lon="18.4490255">
<ele>58</ele>
<time>2015-05-28T09:22:18Z</time>
</trkpt>
<trkpt lat="53.4048974" lon="18.4490256">
<ele>58</ele>
<time>2015-05-28T09:22:20Z</time>
</trkpt>
<trkpt lat="53.4048975" lon="18.4490256">
<ele>58</ele>
<time>2015-05-28T09:22:22Z</time>
</trkpt>
<trkpt lat="53.4048975" lon="18.4490256">
<ele>58</ele>
<time>2015-05-28T09:22:24Z</time>
</trkpt>
<trkpt lat="53.4048975" lon="18.4490256">
<ele>58</ele>
<time>2015-05-28T09:22:26Z</time>
</trkpt>
<trkpt lat="53.4048975" lon="18.4490257">
<ele>58</ele>
<time>2015-05-28T09:22:28Z</time>
</trkpt>
<trkpt lat="53.4048975" lon="18.4490257">
<ele>58</ele>
<time>2015-05-28T09:22:30Z</time>
</trkpt>
<trkpt lat="53.4048975" lon="18.4490257">
<ele>58</ele>
<time>2015-05-28T09:22:32Z</time>
</trkpt>
<trkpt lat="53.4048976" lon="18.4490258">
<ele>58</ele>
<time>2015-05-28T09:22:34Z</time>
</trkpt>
<trkpt lat="53.4048976" lon="18.4490258">
<ele>58</ele>
<time>2015-05-28T09:22:36Z</time>
</trkpt>
<trkpt lat="53.4048976" lon="18.4490258">
<ele>58</ele>
<time>2015-05-28T09:22:38Z</time>
</trkpt>
<trkpt lat="53.4048976" lon="18.4490258">
<ele>58</ele>
<time>2015-05-28T09:22:40Z</time>
</trkpt>
<trkpt lat="53.4048977" lon="18.4490259">
<ele>58</ele>
<time>2015-05-28T09:22:42Z</time>
</trkpt>
<trkpt lat="53.4048977" lon="18.4490259">
<ele>58</ele>
<time>2015-05-28T09:22:44Z</time>
</trkpt>
<trkpt lat="53.4048977" lon="18.4490259">
<ele>58</ele>
<time>2015-05-28T09:22:46Z</time>
</trkpt>
<trkpt lat="53.4048977" lon="18.4490259">
<ele>58</ele>
<time>2015-05-28T09:22:48Z</time>
</trkpt>
<trkpt lat="53.4048978" lon="18.4490259">
<ele>58</ele>
<time>2015-05-28T09:22:50Z</time>
</trkpt>
<trkpt lat="53.4048978" lon="18.4490259">
<ele>58</ele>
<time>2015-05-28T09:22:52Z</time>
</trkpt>
<trkpt lat="53.4048978" lon="18.449026">
<ele>58</ele>
<time>2015-05-28T09:22:54Z</time>
</trkpt>
<trkpt lat="53.4048978" lon="18.4490259">
<ele>58</ele>
<time>2015-05-28T09:22:56Z</time>
</trkpt>
<trkpt lat="53.4048978" lon="18.449026">
<ele>58</ele>
<time>2015-05-28T09:22:58Z</time>
</trkpt>
<trkpt lat="53.4048978" lon="18.4490260">
<ele>58</ele>
<time>2015-05-28T09:23:00Z</time>
</trkpt>
<trkpt lat="53.4048978" lon="18.4490260">
<ele>58</ele>
<time>2015-05-28T09:23:02Z</time>
</trkpt>
<trkpt lat="53.4048978" lon="18.4490260">
<ele>58</ele>
<time>2015-05-28T09:23:04Z</time>
</trkpt>
<trkpt lat="53.4048978" lon="18.4490260">
<ele>58</ele>
<time>2015-05-28T09:23:06Z</time>
</trkpt>
<trkpt lat="53.4048978" lon="18.4490260">
<ele>58</ele>
<time>2015-05-28T09:23:08Z</time>
</trkpt>
<trkpt lat="53.4048978" lon="18.4490260">
<ele>58</ele>
<time>2015-05-28T09:23:10Z</time>
</trkpt>
<trkpt lat="53.4048978" lon="18.4490260">
<ele>58</ele>
<time>2015-05-28T09:23:12Z</time>
</trkpt>
<trkpt lat="53.4048978" lon="18.4490260">
<ele>58</ele>
<time>2015-05-28T09:23:14Z</time>
</trkpt>
<trkpt lat="53.4048978" lon="18.4490260">
<ele>58</ele>
<time>2015-05-28T09:23:16Z</time>
</trkpt>
<trkpt lat="53.4048979" lon="18.4490260">
<ele>58</ele>
<time>2015-05-28T09:23:18Z</time>
</trkpt>
<trkpt lat="53.4048979" lon="18.4490260">
<ele>58</ele>
<time>2015-05-28T09:23:20Z</time>
</trkpt>
<trkpt lat="53.4048979" lon="18.4490261">
<ele>58</ele>
<time>2015-05-28T09:23:22Z</time>
</trkpt>
<trkpt lat="53.4048979" lon="18.4490261">
<ele>58</ele>
<time>2015-05-28T09:23:24Z</time>
</trkpt>
<trkpt lat="53.4048979" lon="18.4490261">
<ele>58</ele>
<time>2015-05-28T09:23:26Z</time>
</trkpt>
<trkpt lat="53.4048979" lon="18.4490261">
<ele>58</ele>
<time>2015-05-28T09:23:28Z</time>
</trkpt>
<trkpt lat="53.4048979" lon="18.4490261">
<ele>58</ele>
<time>2015-05-28T09:23:30Z</time>
</trkpt>
<trkpt lat="53.4048979" lon="18.4490261">
<ele>58</ele>
<time>2015-05-28T09:23:32Z</time>
</trkpt>
<trkpt lat="53.4048979" lon="18.4490261">
<ele>58</ele>
<time>2015-05-28T09:23:34Z</time>
</trkpt>
<trkpt lat="53.404898" lon="18.4490261">
<ele>58</ele>
<time>2015-05-28T09:23:36Z</time>
</trkpt>
<trkpt lat="53.4048980" lon="18.4490261">
<ele>58</ele>
<time>2015-05-28T09:23:38Z</time>
</trkpt>
<trkpt lat="53.4048980" lon="18.4490261">
<ele>58</ele>
<time>2015-05-28T09:23:40Z</time>
</trkpt>
<trkpt lat="53.4048980" lon="18.4490262">
<ele>58</ele>
<time>2015-05-28T09:23:42Z</time>
</trkpt>
<trkpt lat="53.4048981" lon="18.4490262">
<ele>58</ele>
<time>2015-05-28T09:23:44Z</time>
</trkpt>
<trkpt lat="53.4048981" lon="18.4490262">
<ele>58</ele>
<time>2015-05-28T09:23:46Z</time>
</trkpt>
<trkpt lat="53.4048981" lon="18.4490262">
<ele>58</ele>
<time>2015-05-28T09:23:48Z</time>
</trkpt>
<trkpt lat="53.4048981" lon="18.4490262">
<ele>58</ele>
<time>2015-05-28T09:23:50Z</time>
</trkpt>
<trkpt lat="53.4048981" lon="18.4490262">
<ele>58</ele>
<time>2015-05-28T09:23:52Z</time>
</trkpt>
<trkpt lat="53.4048981" lon="18.4490262">
<ele>58</ele>
<time>2015-05-28T09:23:54Z</time>
</trkpt>
<trkpt lat="53.4048982" lon="18.4490262">
<ele>58</ele>
<time>2015-05-28T09:23:56Z</time>
</trkpt>
<trkpt lat="53.4048982" lon="18.4490262">
<ele>58</ele>
<time>2015-05-28T09:23:58Z</time>
</trkpt>
<trkpt lat="53.4048983" lon="18.4490262">
<ele>58</ele>
<time>2015-05-28T09:24:00Z</time>
</trkpt>
<trkpt lat="53.4048983" lon="18.4490262">
<ele>58</ele>
<time>2015-05-28T09:24:02Z</time>
</trkpt>
<trkpt lat="53.4048983" lon="18.4490262">
<ele>58</ele>
<time>2015-05-28T09:24:04Z</time>
</trkpt>
<trkpt lat="53.4048984" lon="18.4490262">
<ele>58</ele>
<time>2015-05-28T09:24:06Z</time>
</trkpt>
<trkpt lat="53.4048984" lon="18.4490263">
<ele>58</ele>
<time>2015-05-28T09:24:08Z</time>
</trkpt>
<trkpt lat="53.4048985" lon="18.4490263">
<ele>58</ele>
<time>2015-05-28T09:24:10Z</time>
</trkpt>
<trkpt lat="53.4048985" lon="18.4490263">
<ele>58</ele>
<time>2015-05-28T09:24:12Z</time>
</trkpt>
<trkpt lat="53.4048985" lon="18.4490263">
<ele>58</ele>
<time>2015-05-28T09:24:14Z</time>
</trkpt>
<trkpt lat="53.4048985" lon="18.4490263">
<ele>58</ele>
<time>2015-05-28T09:24:16Z</time>
</trkpt>
<trkpt lat="53.4048985" lon="18.4490263">
<ele>58</ele>
<time>2015-05-28T09:24:18Z</time>
</trkpt>
<trkpt lat="53.4048986" lon="18.4490263">
<ele>58</ele>
<time>2015-05-28T09:24:20Z</time>
</trkpt>
<trkpt lat="53.4048986" lon="18.4490263">
<ele>58</ele>
<time>2015-05-28T09:24:22Z</time>
</trkpt>
<trkpt lat="53.4048987" lon="18.4490263">
<ele>58</ele>
<time>2015-05-28T09:24:24Z</time>
</trkpt>
<trkpt lat="53.4048987" lon="18.4490263">
<ele>58</ele>
<time>2015-05-28T09:24:26Z</time>
</trkpt>
<trkpt lat="53.4048988" lon="18.4490263">
<ele>58</ele>
<time>2015-05-28T09:24:28Z</time>
</trkpt>
<trkpt lat="53.4048988" lon="18.4490263">
<ele>58</ele>
<time>2015-05-28T09:24:30Z</time>
</trkpt>
<trkpt lat="53.4048988" lon="18.4490263">
<ele>58</ele>
<time>2015-05-28T09:24:32Z</time>
</trkpt>
<trkpt lat="53.4048988" lon="18.4490264">
<ele>58</ele>
<time>2015-05-28T09:24:34Z</time>
</trkpt>
<trkpt lat="53.4048989" lon="18.4490264">
<ele>58</ele>
<time>2015-05-28T09:24:36Z</time>
</trkpt>
<trkpt lat="53.4048989" lon="18.4490264">
<ele>58</ele>
<time>2015-05-28T09:24:38Z</time>
</trkpt>
<trkpt lat="53.4048989" lon="18.4490264">
<ele>58</ele>
<time>2015-05-28T09:24:40Z</time>
</trkpt>
<trkpt lat="53.4048989" lon="18.4490264">
<ele>58</ele>
<time>2015-05-28T09:24:42Z</time>
</trkpt>
<trkpt lat="53.4048989" lon="18.4490264">
<ele>58</ele>
<time>2015-05-28T09:24:44Z</time>
</trkpt>
<trkpt lat="53.4048989" lon="18.4490265">
<ele>58</ele>
<time>2015-05-28T09:24:46Z</time>
</trkpt>
<trkpt lat="53.4048989" lon="18.4490265">
<ele>58</ele>
<time>2015-05-28T09:24:48Z</time>
</trkpt>
<trkpt lat="53.4048989" lon="18.4490265">
<ele>58</ele>
<time>2015-05-28T09:24:50Z</time>
</trkpt>
<trkpt lat="53.4048989" lon="18.4490265">
<ele>58</ele>
<time>2015-05-28T09:24:52Z</time>
</trkpt>
<trkpt lat="53.4048990" lon="18.4490266">
<ele>58</ele>
<time>2015-05-28T09:24:54Z</time>
</trkpt>
<trkpt lat="53.4048990" lon="18.4490266">
<ele>58</ele>
<time>2015-05-28T09:24:56Z</time>
</trkpt>
<trkpt lat="53.4048990" lon="18.4490266">
<ele>58</ele>
<time>2015-05-28T09:24:58Z</time>
</trkpt>
<trkpt lat="53.4048990" lon="18.4490266">
<ele>58</ele>
<time>2015-05-28T09:25:00Z</time>
</trkpt>
<trkpt lat="53.4048990" lon="18.4490266">
<ele>58</ele>
<time>2015-05-28T09:25:02Z</time>
</trkpt>
<trkpt lat="53.4048990" lon="18.4490266">
<ele>58</ele>
<time>2015-05-28T09:25:04Z</time>
</trkpt>
<trkpt lat="53.4048990" lon="18.4490266">
<ele>58</ele>
<time>2015-05-28T09:25:06Z</time>
</trkpt>
<trkpt lat="53.4048990" lon="18.4490266">
<ele>58</ele>
<time>2015-05-28T09:25:08Z</time>
</trkpt>
<trkpt lat="53.4048990" lon="18.4490266">
<ele>58</ele>
<time>2015-05-28T09:25:10Z</time>
</trkpt>
<trkpt lat="53.4048990" lon="18.4490266">
<ele>58</ele>
<time>2015-05-28T09:25:12Z</time>
</trkpt>
<trkpt lat="53.4048991" lon="18.4490267">
<ele>58</ele>
<time>2015-05-28T09:25:14Z</time>
</trkpt>
<trkpt lat="53.4048991" lon="18.4490267">
<ele>58</ele>
<time>2015-05-28T09:25:16Z</time>
</trkpt>
<trkpt lat="53.4048991" lon="18.4490267">
<ele>58</ele>
<time>2015-05-28T09:25:18Z</time>
</trkpt>
<trkpt lat="53.4048991" lon="18.4490267">
<ele>58</ele>
<time>2015-05-28T09:25:20Z</time>
</trkpt>
<trkpt lat="53.4048991" lon="18.4490267">
<ele>58</ele>
<time>2015-05-28T09:25:22Z</time>
</trkpt>
<trkpt lat="53.4048991" lon="18.4490268">
<ele>58</ele>
<time>2015-05-28T09:25:24Z</time>
</trkpt>
<trkpt lat="53.4048991" lon="18.4490268">
<ele>58</ele>
<time>2015-05-28T09:25:26Z</time>
</trkpt>
<trkpt lat="53.4048992" lon="18.4490268">
<ele>58</ele>
<time>2015-05-28T09:25:28Z</time>
</trkpt>
<trkpt lat="53.4048992" lon="18.4490268">
<ele>58</ele>
<time>2015-05-28T09:25:30Z</time>
</trkpt>
<trkpt lat="53.4048993" lon="18.4490268">
<ele>58</ele>
<time>2015-05-28T09:25:32Z</time>
</trkpt>
<trkpt lat="53.4048993" lon="18.4490268">
<ele>58</ele>
<time>2015-05-28T09:25:34Z</time>
</trkpt>
<trkpt lat="53.4048993" lon="18.4490269">
<ele>58</ele>
<time>2015-05-28T09:25:36Z</time>
</trkpt>
<trkpt lat="53.4048994" lon="18.4490269">
<ele>58</ele>
<time>2015-05-28T09:25:38Z</time>
</trkpt>
<trkpt lat="53.4048994" lon="18.4490269">
<ele>58</ele>
<time>2015-05-28T09:25:40Z</time>
</trkpt>
<trkpt lat="53.4048994" lon="18.4490269">
<ele>58</ele>
<time>2015-05-28T09:25:42Z</time>
</trkpt>
<trkpt lat="53.4048994" lon="18.4490269">
<ele>58</ele>
<time>2015-05-28T09:25:44Z</time>
</trkpt>
<trkpt lat="53.4048994" lon="18.449027">
<ele>58</ele>
<time>2015-05-28T09:25:46Z</time>
</trkpt>
<trkpt lat="53.4048993" lon="18.4490270">
<ele>58</ele>
<time>2015-05-28T09:25:48Z</time>
</trkpt>
<trkpt lat="53.4048993" lon="18.4490270">
<ele>58</ele>
<time>2015-05-28T09:25:50Z</time>
</trkpt>
<trkpt lat="53.4048993" lon="18.4490271">
<ele>58</ele>
<time>2015-05-28T09:25:52Z</time>
</trkpt>
<trkpt lat="53.4048993" lon="18.4490271">
<ele>58</ele>
<time>2015-05-28T09:25:54Z</time>
</trkpt>
<trkpt lat="53.4048993" lon="18.4490271">
<ele>58</ele>
<time>2015-05-28T09:25:56Z</time>
</trkpt>
<trkpt lat="53.4048994" lon="18.4490270">
<ele>58</ele>
<time>2015-05-28T09:25:58Z</time>
</trkpt>
<trkpt lat="53.4048994" lon="18.4490270">
<ele>58</ele>
<time>2015-05-28T09:26:00Z</time>
</trkpt>
<trkpt lat="53.4048995" lon="18.4490270">
<ele>58</ele>
<time>2015-05-28T09:26:02Z</time>
</trkpt>
<trkpt lat="53.4048995" lon="18.4490270">
<ele>58</ele>
<time>2015-05-28T09:26:04Z</time>
</trkpt>
<trkpt lat="53.4048995" lon="18.4490270">
<ele>58</ele>
<time>2015-05-28T09:26:06Z</time>
</trkpt>
<trkpt lat="53.4048995" lon="18.4490270">
<ele>58</ele>
<time>2015-05-28T09:26:08Z</time>
</trkpt>
<trkpt lat="53.4048995" lon="18.4490270">
<ele>58</ele>
<time>2015-05-28T09:26:10Z</time>
</trkpt>
<trkpt lat="53.4048995" lon="18.4490270">
<ele>58</ele>
<time>2015-05-28T09:26:12Z</time>
</trkpt>
<trkpt lat="53.4048995" lon="18.4490270">
<ele>58</ele>
<time>2015-05-28T09:26:14Z</time>
</trkpt>
<trkpt lat="53.4048995" lon="18.4490270">
<ele>58</ele>
<time>2015-05-28T09:26:16Z</time>
</trkpt>
<trkpt lat="53.4048995" lon="18.4490270">
<ele>58</ele>
<time>2015-05-28T09:26:18Z</time>
</trkpt>
<trkpt lat="53.4048996" lon="18.4490270">
<ele>58</ele>
<time>2015-05-28T09:26:20Z</time>
</trkpt>
<trkpt lat="53.4048995" lon="18.4490271">
<ele>58</ele>
<time>2015-05-28T09:26:22Z</time>
</trkpt>
<trkpt lat="53.4048995" lon="18.4490271">
<ele>58</ele>
<time>2015-05-28T09:26:24Z</time>
</trkpt>
<trkpt lat="53.4048996" lon="18.4490271">
<ele>58</ele>
<time>2015-05-28T09:26:26Z</time>
</trkpt>
<trkpt lat="53.4048996" lon="18.4490271">
<ele>58</ele>
<time>2015-05-28T09:26:28Z</time>
</trkpt>
<trkpt lat="53.4048996" lon="18.4490271">
<ele>58</ele>
<time>2015-05-28T09:26:30Z</time>
</trkpt>
<trkpt lat="53.4048996" lon="18.4490271">
<ele>58</ele>
<time>2015-05-28T09:26:32Z</time>
</trkpt>
<trkpt lat="53.4048997" lon="18.4490270">
<ele>58</ele>
<time>2015-05-28T09:26:34Z</time>
</trkpt>
<trkpt lat="53.4048997" lon="18.4490270">
<ele>58</ele>
<time>2015-05-28T09:26:36Z</time>
</trkpt>
<trkpt lat="53.4048997" lon="18.4490270">
<ele>58</ele>
<time>2015-05-28T09:26:38Z</time>
</trkpt>
<trkpt lat="53.4048997" lon="18.4490270">
<ele>58</ele>
<time>2015-05-28T09:26:40Z</time>
</trkpt>
<trkpt lat="53.4048997" lon="18.4490270">
<ele>58</ele>
<time>2015-05-28T09:26:42Z</time>
</trkpt>
<trkpt lat="53.4048998" lon="18.4490270">
<ele>58</ele>
<time>2015-05-28T09:26:44Z</time>
</trkpt>
<trkpt lat="53.4048998" lon="18.4490270">
<ele>58</ele>
<time>2015-05-28T09:26:46Z</time>
</trkpt>
<trkpt lat="53.4048998" lon="18.4490270">
<ele>58</ele>
<time>2015-05-28T09:26:48Z</time>
</trkpt>
<trkpt lat="53.4048998" lon="18.4490270">
<ele>58</ele>
<time>2015-05-28T09:26:50Z</time>
</trkpt>
<trkpt lat="53.4048999" lon="18.4490270">
<ele>58</ele>
<time>2015-05-28T09:26:52Z</time>
</trkpt>
<trkpt lat="53.4048999" lon="18.4490270">
<ele>58</ele>
<time>2015-05-28T09:26:54Z</time>
</trkpt>
<trkpt lat="53.4048999" lon="18.449027">
<ele>58</ele>
<time>2015-05-28T09:26:56Z</time>
</trkpt>
<trkpt lat="53.4048999" lon="18.4490269">
<ele>58</ele>
<time>2015-05-28T09:26:58Z</time>
</trkpt>
<trkpt lat="53.4048999" lon="18.4490269">
<ele>58</ele>
<time>2015-05-28T09:27:00Z</time>
</trkpt>
<trkpt lat="53.4048999" lon="18.4490270">
<ele>58</ele>
<time>2015-05-28T09:27:02Z</time>
</trkpt>
<trkpt lat="53.4048999" lon="18.4490271">
<ele>58</ele>
<time>2015-05-28T09:27:04Z</time>
</trkpt>
<trkpt lat="53.4048999" lon="18.4490272">
<ele>58</ele>
<time>2015-05-28T09:27:06Z</time>
</trkpt>
<trkpt lat="53.4048998" lon="18.4490272">
<ele>58</ele>
<time>2015-05-28T09:27:08Z</time>
</trkpt>
<trkpt lat="53.4048998" lon="18.4490273">
<ele>58</ele>
<time>2015-05-28T09:27:12Z</time>
</trkpt>
<trkpt lat="53.4048998" lon="18.4490273">
<ele>58</ele>
<time>2015-05-28T09:27:14Z</time>
</trkpt>
<trkpt lat="53.4048998" lon="18.4490273">
<ele>58</ele>
<time>2015-05-28T09:27:16Z</time>
</trkpt>
<trkpt lat="53.4048997" lon="18.4490273">
<ele>58</ele>
<time>2015-05-28T09:27:18Z</time>
</trkpt>
<trkpt lat="53.4048997" lon="18.4490273">
<ele>58</ele>
<time>2015-05-28T09:27:20Z</time>
</trkpt>
<trkpt lat="53.4048997" lon="18.4490273">
<ele>58</ele>
<time>2015-05-28T09:27:22Z</time>
</trkpt>
<trkpt lat="53.4048997" lon="18.4490273">
<ele>58</ele>
<time>2015-05-28T09:27:24Z</time>
</trkpt>
<trkpt lat="53.4048997" lon="18.4490273">
<ele>58</ele>
<time>2015-05-28T09:27:26Z</time>
</trkpt>
<trkpt lat="53.4048997" lon="18.4490273">
<ele>58</ele>
<time>2015-05-28T09:27:28Z</time>
</trkpt>
<trkpt lat="53.4048997" lon="18.4490273">
<ele>58</ele>
<time>2015-05-28T09:27:30Z</time>
</trkpt>
<trkpt lat="53.4048997" lon="18.4490273">
<ele>58</ele>
<time>2015-05-28T09:27:32Z</time>
</trkpt>
<trkpt lat="53.4048998" lon="18.4490273">
<ele>58</ele>
<time>2015-05-28T09:27:34Z</time>
</trkpt>
<trkpt lat="53.4048998" lon="18.4490273">
<ele>58</ele>
<time>2015-05-28T09:27:36Z</time>
</trkpt>
<trkpt lat="53.4048998" lon="18.4490273">
<ele>58</ele>
<time>2015-05-28T09:27:38Z</time>
</trkpt>
<trkpt lat="53.4048998" lon="18.4490274">
<ele>58</ele>
<time>2015-05-28T09:27:40Z</time>
</trkpt>
<trkpt lat="53.4048998" lon="18.4490274">
<ele>58</ele>
<time>2015-05-28T09:27:42Z</time>
</trkpt>
<trkpt lat="53.4048998" lon="18.4490275">
<ele>58</ele>
<time>2015-05-28T09:27:44Z</time>
</trkpt>
<trkpt lat="53.4048998" lon="18.4490276">
<ele>58</ele>
<time>2015-05-28T09:27:48Z</time>
</trkpt>
<trkpt lat="53.4048998" lon="18.4490276">
<ele>58</ele>
<time>2015-05-28T09:27:50Z</time>
</trkpt>
<trkpt lat="53.4048998" lon="18.4490275">
<ele>58</ele>
<time>2015-05-28T09:27:52Z</time>
</trkpt>
<trkpt lat="53.4048998" lon="18.4490275">
<ele>58</ele>
<time>2015-05-28T09:27:54Z</time>
</trkpt>
<trkpt lat="53.4048998" lon="18.4490276">
<ele>58</ele>
<time>2015-05-28T09:27:56Z</time>
</trkpt>
<trkpt lat="53.4048998" lon="18.4490276">
<ele>58</ele>
<time>2015-05-28T09:27:58Z</time>
</trkpt>
<trkpt lat="53.4048998" lon="18.4490276">
<ele>58</ele>
<time>2015-05-28T09:28:00Z</time>
</trkpt>
<trkpt lat="53.4048998" lon="18.4490276">
<ele>58</ele>
<time>2015-05-28T09:28:02Z</time>
</trkpt>
<trkpt lat="53.4048998" lon="18.4490275">
<ele>58</ele>
<time>2015-05-28T09:28:04Z</time>
</trkpt>
<trkpt lat="53.4048999" lon="18.4490275">
<ele>58</ele>
<time>2015-05-28T09:28:06Z</time>
</trkpt>
<trkpt lat="53.4048999" lon="18.4490274">
<ele>58</ele>
<time>2015-05-28T09:28:08Z</time>
</trkpt>
<trkpt lat="53.4048999" lon="18.4490274">
<ele>58</ele>
<time>2015-05-28T09:28:10Z</time>
</trkpt>
<trkpt lat="53.4048999" lon="18.4490275">
<ele>58</ele>
<time>2015-05-28T09:28:12Z</time>
</trkpt>
<trkpt lat="53.4048999" lon="18.4490275">
<ele>58</ele>
<time>2015-05-28T09:28:14Z</time>
</trkpt>
<trkpt lat="53.4048999" lon="18.4490275">
<ele>58</ele>
<time>2015-05-28T09:28:16Z</time>
</trkpt>
<trkpt lat="53.4048999" lon="18.4490275">
<ele>58</ele>
<time>2015-05-28T09:28:18Z</time>
</trkpt>
<trkpt lat="53.4048999" lon="18.4490275">
<ele>58</ele>
<time>2015-05-28T09:28:20Z</time>
</trkpt>
<trkpt lat="53.4049" lon="18.4490275">
<ele>58</ele>
<time>2015-05-28T09:28:22Z</time>
</trkpt>
<trkpt lat="53.4049000" lon="18.4490275">
<ele>58</ele>
<time>2015-05-28T09:28:24Z</time>
</trkpt>
<trkpt lat="53.4049000" lon="18.4490275">
<ele>58</ele>
<time>2015-05-28T09:28:26Z</time>
</trkpt>
<trkpt lat="53.4049001" lon="18.4490274">
<ele>58</ele>
<time>2015-05-28T09:28:28Z</time>
</trkpt>
<trkpt lat="53.4049001" lon="18.4490274">
<ele>58</ele>
<time>2015-05-28T09:28:30Z</time>
</trkpt>
<trkpt lat="53.4049002" lon="18.4490274">
<ele>58</ele>
<time>2015-05-28T09:28:32Z</time>
</trkpt>
<trkpt lat="53.4049002" lon="18.4490274">
<ele>58</ele>
<time>2015-05-28T09:28:34Z</time>
</trkpt>
<trkpt lat="53.4049002" lon="18.4490275">
<ele>58</ele>
<time>2015-05-28T09:28:36Z</time>
</trkpt>
<trkpt lat="53.4049002" lon="18.4490275">
<ele>58</ele>
<time>2015-05-28T09:28:38Z</time>
</trkpt>
<trkpt lat="53.4049002" lon="18.4490275">
<ele>58</ele>
<time>2015-05-28T09:28:40Z</time>
</trkpt>
<trkpt lat="53.4049002" lon="18.4490275">
<ele>58</ele>
<time>2015-05-28T09:28:42Z</time>
</trkpt>
<trkpt lat="53.4049002" lon="18.4490275">
<ele>58</ele>
<time>2015-05-28T09:28:44Z</time>
</trkpt>
<trkpt lat="53.4049002" lon="18.4490275">
<ele>58</ele>
<time>2015-05-28T09:28:46Z</time>
</trkpt>
<trkpt lat="53.4049002" lon="18.4490275">
<ele>58</ele>
<time>2015-05-28T09:28:48Z</time>
</trkpt>
<trkpt lat="53.4049002" lon="18.4490275">
<ele>58</ele>
<time>2015-05-28T09:28:50Z</time>
</trkpt>
<trkpt lat="53.4049002" lon="18.4490275">
<ele>58</ele>
<time>2015-05-28T09:28:52Z</time>
</trkpt>
<trkpt lat="53.4049002" lon="18.4490275">
<ele>58</ele>
<time>2015-05-28T09:28:54Z</time>
</trkpt>
<trkpt lat="53.4049002" lon="18.4490275">
<ele>58</ele>
<time>2015-05-28T09:28:56Z</time>
</trkpt>
<trkpt lat="53.4049002" lon="18.4490275">
<ele>58</ele>
<time>2015-05-28T09:28:58Z</time>
</trkpt>
<trkpt lat="53.4049002" lon="18.4490275">
<ele>58</ele>
<time>2015-05-28T09:29:00Z</time>
</trkpt>
<trkpt lat="53.4049002" lon="18.4490276">
<ele>58</ele>
<time>2015-05-28T09:29:02Z</time>
</trkpt>
<trkpt lat="53.4049002" lon="18.4490276">
<ele>58</ele>
<time>2015-05-28T09:29:04Z</time>
</trkpt>
<trkpt lat="53.4049002" lon="18.4490276">
<ele>58</ele>
<time>2015-05-28T09:29:06Z</time>
</trkpt>
<trkpt lat="53.4049002" lon="18.4490276">
<ele>58</ele>
<time>2015-05-28T09:29:08Z</time>
</trkpt>
<trkpt lat="53.4049002" lon="18.4490275">
<ele>58</ele>
<time>2015-05-28T09:29:10Z</time>
</trkpt>
<trkpt lat="53.4049002" lon="18.4490275">
<ele>58</ele>
<time>2015-05-28T09:29:12Z</time>
</trkpt>
<trkpt lat="53.4049002" lon="18.4490275">
<ele>58</ele>
<time>2015-05-28T09:29:14Z</time>
</trkpt>
<trkpt lat="53.4049002" lon="18.4490275">
<ele>58</ele>
<time>2015-05-28T09:29:16Z</time>
</trkpt>
<trkpt lat="53.4049001" lon="18.4490275">
<ele>58</ele>
<time>2015-05-28T09:29:18Z</time>
</trkpt>
<trkpt lat="53.4049001" lon="18.4490274">
<ele>58</ele>
<time>2015-05-28T09:29:20Z</time>
</trkpt>
<trkpt lat="53.4049001" lon="18.4490274">
<ele>58</ele>
<time>2015-05-28T09:29:22Z</time>
</trkpt>
<trkpt lat="53.4049001" lon="18.4490274">
<ele>58</ele>
<time>2015-05-28T09:29:24Z</time>
</trkpt>
<trkpt lat="53.4049001" lon="18.4490274">
<ele>58</ele>
<time>2015-05-28T09:29:26Z</time>
</trkpt>
<trkpt lat="53.4049001" lon="18.4490274">
<ele>58</ele>
<time>2015-05-28T09:29:28Z</time>
</trkpt>
<trkpt lat="53.4049001" lon="18.4490274">
<ele>58</ele>
<time>2015-05-28T09:29:30Z</time>
</trkpt>
<trkpt lat="53.4049001" lon="18.4490274">
<ele>58</ele>
<time>2015-05-28T09:29:32Z</time>
</trkpt>
<trkpt lat="53.4049001" lon="18.4490274">
<ele>58</ele>
<time>2015-05-28T09:29:34Z</time>
</trkpt>
<trkpt lat="53.4049002" lon="18.4490274">
<ele>58</ele>
<time>2015-05-28T09:29:36Z</time>
</trkpt>
<trkpt lat="53.4049002" lon="18.4490274">
<ele>58</ele>
<time>2015-05-28T09:29:38Z</time>
</trkpt>
<trkpt lat="53.4049002" lon="18.4490274">
<ele>58</ele>
<time>2015-05-28T09:29:40Z</time>
</trkpt>
<trkpt lat="53.4049002" lon="18.4490274">
<ele>58</ele>
<time>2015-05-28T09:29:42Z</time>
</trkpt>
<trkpt lat="53.4049002" lon="18.4490274">
<ele>58</ele>
<time>2015-05-28T09:29:44Z</time>
</trkpt>
<trkpt lat="53.4049002" lon="18.4490274">
<ele>58</ele>
<time>2015-05-28T09:29:46Z</time>
</trkpt>
<trkpt lat="53.4049002" lon="18.4490274">
<ele>58</ele>
<time>2015-05-28T09:29:48Z</time>
</trkpt>
<trkpt lat="53.4049002" lon="18.4490274">
<ele>58</ele>
<time>2015-05-28T09:29:50Z</time>
</trkpt>
<trkpt lat="53.4049002" lon="18.4490274">
<ele>58</ele>
<time>2015-05-28T09:29:52Z</time>
</trkpt>
<trkpt lat="53.4049002" lon="18.4490274">
<ele>58</ele>
<time>2015-05-28T09:29:54Z</time>
</trkpt>
<trkpt lat="53.4049002" lon="18.4490274">
<ele>58</ele>
<time>2015-05-28T09:29:56Z</time>
</trkpt>
<trkpt lat="53.4049002" lon="18.4490274">
<ele>58</ele>
<time>2015-05-28T09:29:58Z</time>
</trkpt>
<trkpt lat="53.4049002" lon="18.4490274">
<ele>58</ele>
<time>2015-05-28T09:30:00Z</time>
</trkpt>
<trkpt lat="53.4049002" lon="18.4490274">
<ele>58</ele>
<time>2015-05-28T09:30:02Z</time>
</trkpt>
<trkpt lat="53.4049002" lon="18.4490274">
<ele>58</ele>
<time>2015-05-28T09:30:04Z</time>
</trkpt>
<trkpt lat="53.4049002" lon="18.4490274">
<ele>58</ele>
<time>2015-05-28T09:30:06Z</time>
</trkpt>
<trkpt lat="53.4049001" lon="18.4490275">
<ele>58</ele>
<time>2015-05-28T09:30:08Z</time>
</trkpt>
<trkpt lat="53.4049001" lon="18.4490275">
<ele>58</ele>
<time>2015-05-28T09:30:10Z</time>
</trkpt>
<trkpt lat="53.4049001" lon="18.4490275">
<ele>58</ele>
<time>2015-05-28T09:30:12Z</time>
</trkpt>
<trkpt lat="53.4049000" lon="18.4490275">
<ele>58</ele>
<time>2015-05-28T09:30:14Z</time>
</trkpt>
<trkpt lat="53.4049000" lon="18.4490276">
<ele>58</ele>
<time>2015-05-28T09:30:16Z</time>
</trkpt>
<trkpt lat="53.4049000" lon="18.4490276">
<ele>58</ele>
<time>2015-05-28T09:30:18Z</time>
</trkpt>
<trkpt lat="53.4049000" lon="18.4490275">
<ele>58</ele>
<time>2015-05-28T09:30:20Z</time>
</trkpt>
<trkpt lat="53.4049000" lon="18.4490275">
<ele>58</ele>
<time>2015-05-28T09:30:22Z</time>
</trkpt>
<trkpt lat="53.4049000" lon="18.4490275">
<ele>58</ele>
<time>2015-05-28T09:30:24Z</time>
</trkpt>
<trkpt lat="53.4049" lon="18.4490275">
<ele>58</ele>
<time>2015-05-28T09:30:26Z</time>
</trkpt>
<trkpt lat="53.4048999" lon="18.4490275">
<ele>58</ele>
<time>2015-05-28T09:30:28Z</time>
</trkpt>
<trkpt lat="53.4048999" lon="18.4490275">
<ele>58</ele>
<time>2015-05-28T09:30:30Z</time>
</trkpt>
<trkpt lat="53.4048999" lon="18.4490274">
<ele>58</ele>
<time>2015-05-28T09:30:32Z</time>
</trkpt>
<trkpt lat="53.4048999" lon="18.4490274">
<ele>58</ele>
<time>2015-05-28T09:30:34Z</time>
</trkpt>
<trkpt lat="53.4048999" lon="18.4490274">
<ele>58</ele>
<time>2015-05-28T09:30:36Z</time>
</trkpt>
<trkpt lat="53.4048999" lon="18.4490274">
<ele>58</ele>
<time>2015-05-28T09:30:38Z</time>
</trkpt>
<trkpt lat="53.4048999" lon="18.4490274">
<ele>58</ele>
<time>2015-05-28T09:30:40Z</time>
</trkpt>
<trkpt lat="53.4048999" lon="18.4490273">
<ele>58</ele>
<time>2015-05-28T09:30:42Z</time>
</trkpt>
<trkpt lat="53.4048999" lon="18.4490273">
<ele>58</ele>
<time>2015-05-28T09:30:44Z</time>
</trkpt>
<trkpt lat="53.4048999" lon="18.4490273">
<ele>58</ele>
<time>2015-05-28T09:30:46Z</time>
</trkpt>
<trkpt lat="53.4048999" lon="18.4490274">
<ele>58</ele>
<time>2015-05-28T09:30:48Z</time>
</trkpt>
<trkpt lat="53.4048999" lon="18.4490274">
<ele>58</ele>
<time>2015-05-28T09:30:50Z</time>
</trkpt>
<trkpt lat="53.4048999" lon="18.4490274">
<ele>58</ele>
<time>2015-05-28T09:30:52Z</time>
</trkpt>
<trkpt lat="53.4048998" lon="18.4490274">
<ele>58</ele>
<time>2015-05-28T09:30:54Z</time>
</trkpt>
<trkpt lat="53.4048998" lon="18.4490274">
<ele>58</ele>
<time>2015-05-28T09:30:56Z</time>
</trkpt>
<trkpt lat="53.4048998" lon="18.4490274">
<ele>58</ele>
<time>2015-05-28T09:30:58Z</time>
</trkpt>
<trkpt lat="53.4048998" lon="18.4490274">
<ele>58</ele>
<time>2015-05-28T09:31:00Z</time>
</trkpt>
<trkpt lat="53.4048997" lon="18.4490275">
<ele>58</ele>
<time>2015-05-28T09:31:02Z</time>
</trkpt>
<trkpt lat="53.4048997" lon="18.4490275">
<ele>58</ele>
<time>2015-05-28T09:31:04Z</time>
</trkpt>
<trkpt lat="53.4048997" lon="18.4490275">
<ele>58</ele>
<time>2015-05-28T09:31:06Z</time>
</trkpt>
<trkpt lat="53.4048997" lon="18.4490275">
<ele>58</ele>
<time>2015-05-28T09:31:08Z</time>
</trkpt>
<trkpt lat="53.4048997" lon="18.4490275">
<ele>58</ele>
<time>2015-05-28T09:31:10Z</time>
</trkpt>
<trkpt lat="53.4048996" lon="18.4490276">
<ele>58</ele>
<time>2015-05-28T09:31:12Z</time>
</trkpt>
<trkpt lat="53.4048996" lon="18.4490276">
<ele>58</ele>
<time>2015-05-28T09:31:14Z</time>
</trkpt>
<trkpt lat="53.4048996" lon="18.4490276">
<ele>58</ele>
<time>2015-05-28T09:31:16Z</time>
</trkpt>
<trkpt lat="53.4048996" lon="18.4490276">
<ele>58</ele>
<time>2015-05-28T09:31:18Z</time>
</trkpt>
<trkpt lat="53.4048997" lon="18.4490277">
<ele>58</ele>
<time>2015-05-28T09:31:20Z</time>
</trkpt>
<trkpt lat="53.4048997" lon="18.4490277">
<ele>58</ele>
<time>2015-05-28T09:31:22Z</time>
</trkpt>
<trkpt lat="53.4048997" lon="18.4490278">
<ele>58</ele>
<time>2015-05-28T09:31:24Z</time>
</trkpt>
<trkpt lat="53.4048997" lon="18.4490278">
<ele>58</ele>
<time>2015-05-28T09:31:26Z</time>
</trkpt>
<trkpt lat="53.4048997" lon="18.4490278">
<ele>58</ele>
<time>2015-05-28T09:31:28Z</time>
</trkpt>
<trkpt lat="53.4048997" lon="18.4490278">
<ele>58</ele>
<time>2015-05-28T09:31:30Z</time>
</trkpt>
<trkpt lat="53.4048997" lon="18.4490278">
<ele>58</ele>
<time>2015-05-28T09:31:32Z</time>
</trkpt>
<trkpt lat="53.4048997" lon="18.4490279">
<ele>58</ele>
<time>2015-05-28T09:31:34Z</time>
</trkpt>
<trkpt lat="53.4048997" lon="18.4490279">
<ele>58</ele>
<time>2015-05-28T09:31:36Z</time>
</trkpt>
<trkpt lat="53.4048997" lon="18.4490279">
<ele>58</ele>
<time>2015-05-28T09:31:38Z</time>
</trkpt>
<trkpt lat="53.4048997" lon="18.4490279">
<ele>58</ele>
<time>2015-05-28T09:31:40Z</time>
</trkpt>
<trkpt lat="53.4048997" lon="18.4490279">
<ele>58</ele>
<time>2015-05-28T09:31:42Z</time>
</trkpt>
<trkpt lat="53.4048996" lon="18.4490280">
<ele>58</ele>
<time>2015-05-28T09:31:44Z</time>
</trkpt>
<trkpt lat="53.4048996" lon="18.4490280">
<ele>58</ele>
<time>2015-05-28T09:31:46Z</time>
</trkpt>
<trkpt lat="53.4048996" lon="18.4490280">
<ele>58</ele>
<time>2015-05-28T09:31:48Z</time>
</trkpt>
<trkpt lat="53.4048996" lon="18.4490281">
<ele>58</ele>
<time>2015-05-28T09:31:50Z</time>
</trkpt>
<trkpt lat="53.4048996" lon="18.4490281">
<ele>58</ele>
<time>2015-05-28T09:31:52Z</time>
</trkpt>
<trkpt lat="53.4048996" lon="18.4490282">
<ele>58</ele>
<time>2015-05-28T09:31:54Z</time>
</trkpt>
<trkpt lat="53.4048995" lon="18.4490282">
<ele>58</ele>
<time>2015-05-28T09:31:56Z</time>
</trkpt>
<trkpt lat="53.4048995" lon="18.4490283">
<ele>58</ele>
<time>2015-05-28T09:31:58Z</time>
</trkpt>
<trkpt lat="53.4048995" lon="18.4490284">
<ele>58</ele>
<time>2015-05-28T09:32:00Z</time>
</trkpt>
<trkpt lat="53.4048994" lon="18.4490285">
<ele>58</ele>
<time>2015-05-28T09:32:02Z</time>
</trkpt>
<trkpt lat="53.4048994" lon="18.4490285">
<ele>58</ele>
<time>2015-05-28T09:32:04Z</time>
</trkpt>
<trkpt lat="53.4048995" lon="18.4490286">
<ele>58</ele>
<time>2015-05-28T09:32:06Z</time>
</trkpt>
<trkpt lat="53.4048994" lon="18.4490286">
<ele>58</ele>
<time>2015-05-28T09:32:08Z</time>
</trkpt>
<trkpt lat="53.4048994" lon="18.4490286">
<ele>58</ele>
<time>2015-05-28T09:32:10Z</time>
</trkpt>
<trkpt lat="53.4048994" lon="18.4490286">
<ele>58</ele>
<time>2015-05-28T09:32:12Z</time>
</trkpt>
<trkpt lat="53.4048994" lon="18.4490286">
<ele>58</ele>
<time>2015-05-28T09:32:14Z</time>
</trkpt>
<trkpt lat="53.4048994" lon="18.4490286">
<ele>58</ele>
<time>2015-05-28T09:32:16Z</time>
</trkpt>
<trkpt lat="53.4048994" lon="18.4490286">
<ele>58</ele>
<time>2015-05-28T09:32:18Z</time>
</trkpt>
<trkpt lat="53.4048994" lon="18.4490287">
<ele>58</ele>
<time>2015-05-28T09:32:20Z</time>
</trkpt>
<trkpt lat="53.4048994" lon="18.4490287">
<ele>58</ele>
<time>2015-05-28T09:32:22Z</time>
</trkpt>
<trkpt lat="53.4048994" lon="18.4490288">
<ele>58</ele>
<time>2015-05-28T09:32:24Z</time>
</trkpt>
<trkpt lat="53.4048994" lon="18.4490288">
<ele>58</ele>
<time>2015-05-28T09:32:26Z</time>
</trkpt>
<trkpt lat="53.4048994" lon="18.4490288">
<ele>58</ele>
<time>2015-05-28T09:32:28Z</time>
</trkpt>
<trkpt lat="53.4048994" lon="18.4490288">
<ele>58</ele>
<time>2015-05-28T09:32:30Z</time>
</trkpt>
<trkpt lat="53.4048994" lon="18.4490288">
<ele>58</ele>
<time>2015-05-28T09:32:32Z</time>
</trkpt>
<trkpt lat="53.4048994" lon="18.4490288">
<ele>58</ele>
<time>2015-05-28T09:32:34Z</time>
</trkpt>
<trkpt lat="53.4048994" lon="18.4490288">
<ele>58</ele>
<time>2015-05-28T09:32:36Z</time>
</trkpt>
<trkpt lat="53.4048993" lon="18.4490288">
<ele>58</ele>
<time>2015-05-28T09:32:38Z</time>
</trkpt>
<trkpt lat="53.4048993" lon="18.4490289">
<ele>58</ele>
<time>2015-05-28T09:32:40Z</time>
</trkpt>
<trkpt lat="53.4048993" lon="18.4490289">
<ele>58</ele>
<time>2015-05-28T09:32:42Z</time>
</trkpt>
<trkpt lat="53.4048993" lon="18.4490289">
<ele>58</ele>
<time>2015-05-28T09:32:44Z</time>
</trkpt>
<trkpt lat="53.4048993" lon="18.4490289">
<ele>58</ele>
<time>2015-05-28T09:32:46Z</time>
</trkpt>
<trkpt lat="53.4048993" lon="18.4490289">
<ele>58</ele>
<time>2015-05-28T09:32:48Z</time>
</trkpt>
<trkpt lat="53.4048993" lon="18.4490289">
<ele>58</ele>
<time>2015-05-28T09:32:50Z</time>
</trkpt>
<trkpt lat="53.4048993" lon="18.4490288">
<ele>58</ele>
<time>2015-05-28T09:32:52Z</time>
</trkpt>
<trkpt lat="53.4048993" lon="18.4490288">
<ele>58</ele>
<time>2015-05-28T09:32:54Z</time>
</trkpt>
<trkpt lat="53.4048993" lon="18.4490288">
<ele>58</ele>
<time>2015-05-28T09:32:56Z</time>
</trkpt>
<trkpt lat="53.4048993" lon="18.4490288">
<ele>58</ele>
<time>2015-05-28T09:32:58Z</time>
</trkpt>
<trkpt lat="53.4048993" lon="18.4490288">
<ele>58</ele>
<time>2015-05-28T09:33:00Z</time>
</trkpt>
<trkpt lat="53.4048994" lon="18.4490288">
<ele>58</ele>
<time>2015-05-28T09:33:02Z</time>
</trkpt>
<trkpt lat="53.4048994" lon="18.4490288">
<ele>58</ele>
<time>2015-05-28T09:33:04Z</time>
</trkpt>
<trkpt lat="53.4048994" lon="18.4490288">
<ele>58</ele>
<time>2015-05-28T09:33:06Z</time>
</trkpt>
<trkpt lat="53.4048994" lon="18.4490288">
<ele>58</ele>
<time>2015-05-28T09:33:08Z</time>
</trkpt>
<trkpt lat="53.4048994" lon="18.4490288">
<ele>58</ele>
<time>2015-05-28T09:33:10Z</time>
</trkpt>
<trkpt lat="53.4048993" lon="18.4490287">
<ele>58</ele>
<time>2015-05-28T09:33:12Z</time>
</trkpt>
<trkpt lat="53.4048993" lon="18.4490287">
<ele>58</ele>
<time>2015-05-28T09:33:14Z</time>
</trkpt>
<trkpt lat="53.4048994" lon="18.4490286">
<ele>58</ele>
<time>2015-05-28T09:33:16Z</time>
</trkpt>
<trkpt lat="53.4048994" lon="18.4490285">
<ele>58</ele>
<time>2015-05-28T09:33:18Z</time>
</trkpt>
<trkpt lat="53.4048994" lon="18.4490285">
<ele>58</ele>
<time>2015-05-28T09:33:20Z</time>
</trkpt>
<trkpt lat="53.4048994" lon="18.4490284">
<ele>58</ele>
<time>2015-05-28T09:33:22Z</time>
</trkpt>
<trkpt lat="53.4048994" lon="18.4490284">
<ele>58</ele>
<time>2015-05-28T09:33:24Z</time>
</trkpt>
<trkpt lat="53.4048994" lon="18.4490284">
<ele>58</ele>
<time>2015-05-28T09:33:26Z</time>
</trkpt>
<trkpt lat="53.4048994" lon="18.4490284">
<ele>58</ele>
<time>2015-05-28T09:33:28Z</time>
</trkpt>
<trkpt lat="53.4048994" lon="18.4490284">
<ele>58</ele>
<time>2015-05-28T09:33:30Z</time>
</trkpt>
<trkpt lat="53.4048994" lon="18.4490284">
<ele>58</ele>
<time>2015-05-28T09:33:32Z</time>
</trkpt>
<trkpt lat="53.4048994" lon="18.4490285">
<ele>58</ele>
<time>2015-05-28T09:33:34Z</time>
</trkpt>
<trkpt lat="53.4048994" lon="18.4490285">
<ele>58</ele>
<time>2015-05-28T09:33:36Z</time>
</trkpt>
<trkpt lat="53.4048994" lon="18.4490285">
<ele>58</ele>
<time>2015-05-28T09:33:38Z</time>
</trkpt>
<trkpt lat="53.4048994" lon="18.4490285">
<ele>58</ele>
<time>2015-05-28T09:33:40Z</time>
</trkpt>
<trkpt lat="53.4048994" lon="18.4490285">
<ele>58</ele>
<time>2015-05-28T09:33:42Z</time>
</trkpt>
<trkpt lat="53.4048994" lon="18.4490285">
<ele>58</ele>
<time>2015-05-28T09:33:44Z</time>
</trkpt>
<trkpt lat="53.4048995" lon="18.4490285">
<ele>58</ele>
<time>2015-05-28T09:33:46Z</time>
</trkpt>
<trkpt lat="53.4048995" lon="18.4490285">
<ele>58</ele>
<time>2015-05-28T09:33:48Z</time>
</trkpt>
<trkpt lat="53.4048995" lon="18.4490285">
<ele>58</ele>
<time>2015-05-28T09:33:50Z</time>
</trkpt>
<trkpt lat="53.4048995" lon="18.4490285">
<ele>58</ele>
<time>2015-05-28T09:33:52Z</time>
</trkpt>
<trkpt lat="53.4048995" lon="18.4490284">
<ele>58</ele>
<time>2015-05-28T09:33:54Z</time>
</trkpt>
<trkpt lat="53.4048995" lon="18.4490284">
<ele>58</ele>
<time>2015-05-28T09:33:56Z</time>
</trkpt>
<trkpt lat="53.4048995" lon="18.4490283">
<ele>58</ele>
<time>2015-05-28T09:33:58Z</time>
</trkpt>
<trkpt lat="53.4048995" lon="18.4490283">
<ele>58</ele>
<time>2015-05-28T09:34:00Z</time>
</trkpt>
<trkpt lat="53.4048995" lon="18.4490283">
<ele>58</ele>
<time>2015-05-28T09:34:02Z</time>
</trkpt>
<trkpt lat="53.4048995" lon="18.4490284">
<ele>58</ele>
<time>2015-05-28T09:34:04Z</time>
</trkpt>
<trkpt lat="53.4048995" lon="18.4490284">
<ele>58</ele>
<time>2015-05-28T09:34:06Z</time>
</trkpt>
<trkpt lat="53.4048995" lon="18.4490284">
<ele>58</ele>
<time>2015-05-28T09:34:08Z</time>
</trkpt>
<trkpt lat="53.4048995" lon="18.4490284">
<ele>58</ele>
<time>2015-05-28T09:34:10Z</time>
</trkpt>
<trkpt lat="53.4048996" lon="18.4490284">
<ele>58</ele>
<time>2015-05-28T09:34:12Z</time>
</trkpt>
<trkpt lat="53.4048996" lon="18.4490284">
<ele>58</ele>
<time>2015-05-28T09:34:14Z</time>
</trkpt>
<trkpt lat="53.4048996" lon="18.4490283">
<ele>58</ele>
<time>2015-05-28T09:34:16Z</time>
</trkpt>
<trkpt lat="53.4048997" lon="18.4490283">
<ele>58</ele>
<time>2015-05-28T09:34:18Z</time>
</trkpt>
<trkpt lat="53.4048997" lon="18.4490283">
<ele>58</ele>
<time>2015-05-28T09:34:20Z</time>
</trkpt>
<trkpt lat="53.4048997" lon="18.4490284">
<ele>58</ele>
<time>2015-05-28T09:34:22Z</time>
</trkpt>
<trkpt lat="53.4048997" lon="18.4490284">
<ele>58</ele>
<time>2015-05-28T09:34:24Z</time>
</trkpt>
<trkpt lat="53.4048997" lon="18.4490284">
<ele>58</ele>
<time>2015-05-28T09:34:26Z</time>
</trkpt>
<trkpt lat="53.4048997" lon="18.4490286">
<ele>58</ele>
<time>2015-05-28T09:34:30Z</time>
</trkpt>
<trkpt lat="53.4048997" lon="18.4490286">
<ele>58</ele>
<time>2015-05-28T09:34:32Z</time>
</trkpt>
<trkpt lat="53.4048997" lon="18.4490287">
<ele>58</ele>
<time>2015-05-28T09:34:36Z</time>
</trkpt>
<trkpt lat="53.4048997" lon="18.4490287">
<ele>58</ele>
<time>2015-05-28T09:34:38Z</time>
</trkpt>
<trkpt lat="53.4048997" lon="18.4490288">
<ele>58</ele>
<time>2015-05-28T09:34:40Z</time>
</trkpt>
<trkpt lat="53.4048997" lon="18.4490288">
<ele>58</ele>
<time>2015-05-28T09:34:42Z</time>
</trkpt>
<trkpt lat="53.4048998" lon="18.4490288">
<ele>58</ele>
<time>2015-05-28T09:34:44Z</time>
</trkpt>
<trkpt lat="53.4048998" lon="18.4490288">
<ele>58</ele>
<time>2015-05-28T09:34:46Z</time>
</trkpt>
<trkpt lat="53.4048997" lon="18.4490288">
<ele>58</ele>
<time>2015-05-28T09:34:48Z</time>
</trkpt>
<trkpt lat="53.4048997" lon="18.4490288">
<ele>58</ele>
<time>2015-05-28T09:34:50Z</time>
</trkpt>
<trkpt lat="53.4048959" lon="18.4490253">
<ele>58</ele>
<time>2015-05-28T09:34:52Z</time>
</trkpt>
<trkpt lat="53.4048744" lon="18.4490292">
<ele>58</ele>
<time>2015-05-28T09:34:54Z</time>
</trkpt>
<trkpt lat="53.4048591" lon="18.4490314">
<ele>58</ele>
<time>2015-05-28T09:34:56Z</time>
</trkpt>
<trkpt lat="53.4048530" lon="18.4490331">
<ele>58</ele>
<time>2015-05-28T09:34:58Z</time>
</trkpt>
<trkpt lat="53.4048505" lon="18.4490333">
<ele>58</ele>
<time>2015-05-28T09:35:00Z</time>
</trkpt>
<trkpt lat="53.4048454" lon="18.4490346">
<ele>59</ele>
<time>2015-05-28T09:35:02Z</time>
</trkpt>
<trkpt lat="53.4048395" lon="18.4490376">
<ele>59</ele>
<time>2015-05-28T09:35:04Z</time>
</trkpt>
<trkpt lat="53.4048294" lon="18.4490434">
<ele>59</ele>
<time>2015-05-28T09:35:06Z</time>
</trkpt>
<trkpt lat="53.4048196" lon="18.4490486">
<ele>59</ele>
<time>2015-05-28T09:35:08Z</time>
</trkpt>
<trkpt lat="53.4048195" lon="18.4490435">
<ele>59</ele>
<time>2015-05-28T09:35:10Z</time>
</trkpt>
<trkpt lat="53.4048125" lon="18.4490441">
<ele>60</ele>
<time>2015-05-28T09:35:12Z</time>
</trkpt>
<trkpt lat="53.4048081" lon="18.4490433">
<ele>60</ele>
<time>2015-05-28T09:35:14Z</time>
</trkpt>
<trkpt lat="53.4048021" lon="18.4490409">
<ele>60</ele>
<time>2015-05-28T09:35:16Z</time>
</trkpt>
<trkpt lat="53.4047968" lon="18.4490401">
<ele>60</ele>
<time>2015-05-28T09:35:18Z</time>
</trkpt>
<trkpt lat="53.4047937" lon="18.4490409">
<ele>60</ele>
<time>2015-05-28T09:35:20Z</time>
</trkpt>
<trkpt lat="53.4047942" lon="18.4490418">
<ele>61</ele>
<time>2015-05-28T09:35:22Z</time>
</trkpt>
<trkpt lat="53.4047943" lon="18.4490424">
<ele>61</ele>
<time>2015-05-28T09:35:24Z</time>
</trkpt>
<trkpt lat="53.4047938" lon="18.4490428">
<ele>61</ele>
<time>2015-05-28T09:35:26Z</time>
</trkpt>
<trkpt lat="53.4047942" lon="18.4490429">
<ele>60</ele>
<time>2015-05-28T09:35:28Z</time>
</trkpt>
<trkpt lat="53.4047941" lon="18.4490426">
<ele>61</ele>
<time>2015-05-28T09:35:30Z</time>
</trkpt>
<trkpt lat="53.4047846" lon="18.4490450">
<ele>58</ele>
<time>2015-05-28T09:35:32Z</time>
</trkpt>
<trkpt lat="53.4047527" lon="18.4490547">
<ele>55</ele>
<time>2015-05-28T09:35:34Z</time>
</trkpt>
<trkpt lat="53.4047246" lon="18.4490646">
<ele>54</ele>
<time>2015-05-28T09:35:36Z</time>
</trkpt>
<trkpt lat="53.4047070" lon="18.4490549">
<ele>54</ele>
<time>2015-05-28T09:35:38Z</time>
</trkpt>
<trkpt lat="53.4046968" lon="18.4490392">
<ele>54</ele>
<time>2015-05-28T09:35:40Z</time>
</trkpt>
<trkpt lat="53.4047006" lon="18.4490403">
<ele>55</ele>
<time>2015-05-28T09:35:42Z</time>
</trkpt>
<trkpt lat="53.4047024" lon="18.4490411">
<ele>56</ele>
<time>2015-05-28T09:35:44Z</time>
</trkpt>
<trkpt lat="53.4047020" lon="18.4490729">
<ele>56</ele>
<time>2015-05-28T09:35:46Z</time>
</trkpt>
<trkpt lat="53.4047402" lon="18.4493228">
<ele>57</ele>
<time>2015-05-28T09:35:48Z</time>
</trkpt>
<trkpt lat="53.4047897" lon="18.4495639">
<ele>56</ele>
<time>2015-05-28T09:35:50Z</time>
</trkpt>
<trkpt lat="53.4048042" lon="18.4498333">
<ele>55</ele>
<time>2015-05-28T09:35:52Z</time>
</trkpt>
<trkpt lat="53.4048285" lon="18.4500392">
<ele>54</ele>
<time>2015-05-28T09:35:54Z</time>
</trkpt>
<trkpt lat="53.4048500" lon="18.4502400">
<ele>54</ele>
<time>2015-05-28T09:35:56Z</time>
</trkpt>
<trkpt lat="53.4048636" lon="18.4504240">
<ele>55</ele>
<time>2015-05-28T09:35:58Z</time>
</trkpt>
<trkpt lat="53.4048823" lon="18.4505966">
<ele>52</ele>
<time>2015-05-28T09:36:00Z</time>
</trkpt>
<trkpt lat="53.4049017" lon="18.4507154">
<ele>51</ele>
<time>2015-05-28T09:36:02Z</time>
</trkpt>
<trkpt lat="53.4049031" lon="18.4507439">
<ele>50</ele>
<time>2015-05-28T09:36:04Z</time>
</trkpt>
<trkpt lat="53.4048485" lon="18.4508190">
<ele>52</ele>
<time>2015-05-28T09:36:06Z</time>
</trkpt>
<trkpt lat="53.4048040" lon="18.4508695">
<ele>53</ele>
<time>2015-05-28T09:36:08Z</time>
</trkpt>
<trkpt lat="53.4046561" lon="18.4508765">
<ele>54</ele>
<time>2015-05-28T09:36:10Z</time>
</trkpt>
<trkpt lat="53.4045153" lon="18.4508891">
<ele>53</ele>
<time>2015-05-28T09:36:12Z</time>
</trkpt>
<trkpt lat="53.4043503" lon="18.4509139">
<ele>54</ele>
<time>2015-05-28T09:36:14Z</time>
</trkpt>
<trkpt lat="53.4041420" lon="18.4509170">
<ele>55</ele>
<time>2015-05-28T09:36:16Z</time>
</trkpt>
<trkpt lat="53.4039558" lon="18.4509378">
<ele>54</ele>
<time>2015-05-28T09:36:18Z</time>
</trkpt>
<trkpt lat="53.4037403" lon="18.4510106">
<ele>53</ele>
<time>2015-05-28T09:36:20Z</time>
</trkpt>
<trkpt lat="53.4035113" lon="18.4511187">
<ele>52</ele>
<time>2015-05-28T09:36:22Z</time>
</trkpt>
<trkpt lat="53.4032893" lon="18.4512583">
<ele>51</ele>
<time>2015-05-28T09:36:24Z</time>
</trkpt>
<trkpt lat="53.4030695" lon="18.4513873">
<ele>49</ele>
<time>2015-05-28T09:36:26Z</time>
</trkpt>
<trkpt lat="53.4028542" lon="18.4515178">
<ele>50</ele>
<time>2015-05-28T09:36:28Z</time>
</trkpt>
<trkpt lat="53.4026518" lon="18.4516773">
<ele>49</ele>
<time>2015-05-28T09:36:30Z</time>
</trkpt>
<trkpt lat="53.4024873" lon="18.4519069">
<ele>48</ele>
<time>2015-05-28T09:36:32Z</time>
</trkpt>
<trkpt lat="53.4023412" lon="18.4521844">
<ele>49</ele>
<time>2015-05-28T09:36:34Z</time>
</trkpt>
<trkpt lat="53.4022238" lon="18.4524685">
<ele>48</ele>
<time>2015-05-28T09:36:36Z</time>
</trkpt>
<trkpt lat="53.4020753" lon="18.4527200">
<ele>47</ele>
<time>2015-05-28T09:36:38Z</time>
</trkpt>
<trkpt lat="53.4019634" lon="18.4529489">
<ele>46</ele>
<time>2015-05-28T09:36:40Z</time>
</trkpt>
<trkpt lat="53.4018495" lon="18.4530572">
<ele>46</ele>
<time>2015-05-28T09:36:42Z</time>
</trkpt>
<trkpt lat="53.4017604" lon="18.4530264">
<ele>46</ele>
<time>2015-05-28T09:36:44Z</time>
</trkpt>
<trkpt lat="53.4016668" lon="18.4528938">
<ele>48</ele>
<time>2015-05-28T09:36:46Z</time>
</trkpt>
<trkpt lat="53.4015595" lon="18.4527035">
<ele>49</ele>
<time>2015-05-28T09:36:48Z</time>
</trkpt>
<trkpt lat="53.4014359" lon="18.4524779">
<ele>52</ele>
<time>2015-05-28T09:36:50Z</time>
</trkpt>
<trkpt lat="53.4013100" lon="18.4522336">
<ele>51</ele>
<time>2015-05-28T09:36:52Z</time>
</trkpt>
<trkpt lat="53.4012098" lon="18.4519402">
<ele>50</ele>
<time>2015-05-28T09:36:54Z</time>
</trkpt>
<trkpt lat="53.4010379" lon="18.4516606">
<ele>48</ele>
<time>2015-05-28T09:36:56Z</time>
</trkpt>
<trkpt lat="53.4009034" lon="18.4513596">
<ele>47</ele>
<time>2015-05-28T09:36:58Z</time>
</trkpt>
<trkpt lat="53.4007096" lon="18.4511207">
<ele>48</ele>
<time>2015-05-28T09:37:00Z</time>
</trkpt>
<trkpt lat="53.4005396" lon="18.4508540">
<ele>48</ele>
<time>2015-05-28T09:37:02Z</time>
</trkpt>
<trkpt lat="53.4003651" lon="18.4506079">
<ele>49</ele>
<time>2015-05-28T09:37:04Z</time>
</trkpt>
<trkpt lat="53.4001796" lon="18.4503336">
<ele>49</ele>
<time>2015-05-28T09:37:06Z</time>
</trkpt>
<trkpt lat="53.400024" lon="18.4500599">
<ele>51</ele>
<time>2015-05-28T09:37:08Z</time>
</trkpt>
<trkpt lat="53.3998420" lon="18.4497970">
<ele>53</ele>
<time>2015-05-28T09:37:10Z</time>
</trkpt>
<trkpt lat="53.3996706" lon="18.4495338">
<ele>52</ele>
<time>2015-05-28T09:37:12Z</time>
</trkpt>
<trkpt lat="53.3995158" lon="18.4492461">
<ele>50</ele>
<time>2015-05-28T09:37:14Z</time>
</trkpt>
<trkpt lat="53.3993580" lon="18.4489386">
<ele>50</ele>
<time>2015-05-28T09:37:16Z</time>
</trkpt>
<trkpt lat="53.3991690" lon="18.4486169">
<ele>49</ele>
<time>2015-05-28T09:37:18Z</time>
</trkpt>
<trkpt lat="53.3989735" lon="18.4482885">
<ele>48</ele>
<time>2015-05-28T09:37:20Z</time>
</trkpt>
<trkpt lat="53.3987982" lon="18.4479510">
<ele>49</ele>
<time>2015-05-28T09:37:22Z</time>
</trkpt>
<trkpt lat="53.3986072" lon="18.4476137">
<ele>50</ele>
<time>2015-05-28T09:37:24Z</time>
</trkpt>
<trkpt lat="53.3983874" lon="18.4472534">
<ele>49</ele>
<time>2015-05-28T09:37:26Z</time>
</trkpt>
<trkpt lat="53.3979659" lon="18.4465253">
<ele>48</ele>
<time>2015-05-28T09:37:30Z</time>
</trkpt>
<trkpt lat="53.3977536" lon="18.4461285">
<ele>47</ele>
<time>2015-05-28T09:37:32Z</time>
</trkpt>
<trkpt lat="53.3975495" lon="18.4457216">
<ele>49</ele>
<time>2015-05-28T09:37:34Z</time>
</trkpt>
<trkpt lat="53.3973282" lon="18.4452920">
<ele>49</ele>
<time>2015-05-28T09:37:36Z</time>
</trkpt>
<trkpt lat="53.3971166" lon="18.4448829">
<ele>50</ele>
<time>2015-05-28T09:37:38Z</time>
</trkpt>
<trkpt lat="53.3968961" lon="18.4444667">
<ele>50</ele>
<time>2015-05-28T09:37:40Z</time>
</trkpt>
<trkpt lat="53.3966840" lon="18.4440369">
<ele>49</ele>
<time>2015-05-28T09:37:42Z</time>
</trkpt>
<trkpt lat="53.3964504" lon="18.4435923">
<ele>51</ele>
<time>2015-05-28T09:37:44Z</time>
</trkpt>
<trkpt lat="53.3962099" lon="18.4431342">
<ele>51</ele>
<time>2015-05-28T09:37:46Z</time>
</trkpt>
<trkpt lat="53.3954661" lon="18.4417031">
<ele>52</ele>
<time>2015-05-28T09:37:52Z</time>
</trkpt>
<trkpt lat="53.3952316" lon="18.4412019">
<ele>53</ele>
<time>2015-05-28T09:37:54Z</time>
</trkpt>
<trkpt lat="53.3949730" lon="18.4407124">
<ele>52</ele>
<time>2015-05-28T09:37:56Z</time>
</trkpt>
<trkpt lat="53.3947035" lon="18.4402153">
<ele>51</ele>
<time>2015-05-28T09:37:58Z</time>
</trkpt>
<trkpt lat="53.3944451" lon="18.4397166">
<ele>51</ele>
<time>2015-05-28T09:38:00Z</time>
</trkpt>
<trkpt lat="53.3941810" lon="18.4392114">
<ele>53</ele>
<time>2015-05-28T09:38:02Z</time>
</trkpt>
<trkpt lat="53.3939321" lon="18.4386958">
<ele>54</ele>
<time>2015-05-28T09:38:04Z</time>
</trkpt>
<trkpt lat="53.3936807" lon="18.4382033">
<ele>55</ele>
<time>2015-05-28T09:38:06Z</time>
</trkpt>
<trkpt lat="53.3934149" lon="18.4377076">
<ele>54</ele>
<time>2015-05-28T09:38:08Z</time>
</trkpt>
<trkpt lat="53.3931683" lon="18.4372316">
<ele>54</ele>
<time>2015-05-28T09:38:10Z</time>
</trkpt>
<trkpt lat="53.3929114" lon="18.4367540">
<ele>54</ele>
<time>2015-05-28T09:38:12Z</time>
</trkpt>
<trkpt lat="53.3926532" lon="18.4362629">
<ele>54</ele>
<time>2015-05-28T09:38:14Z</time>
</trkpt>
<trkpt lat="53.3924023" lon="18.4357706">
<ele>55</ele>
<time>2015-05-28T09:38:16Z</time>
</trkpt>
<trkpt lat="53.3921442" lon="18.4352807">
<ele>55</ele>
<time>2015-05-28T09:38:18Z</time>
</trkpt>
<trkpt lat="53.3918896" lon="18.4347604">
<ele>55</ele>
<time>2015-05-28T09:38:20Z</time>
</trkpt>
<trkpt lat="53.3911268" lon="18.4333067">
<ele>56</ele>
<time>2015-05-28T09:38:26Z</time>
</trkpt>
<trkpt lat="53.3908659" lon="18.4328757">
<ele>56</ele>
<time>2015-05-28T09:38:28Z</time>
</trkpt>
<trkpt lat="53.3905938" lon="18.4325217">
<ele>57</ele>
<time>2015-05-28T09:38:30Z</time>
</trkpt>
<trkpt lat="53.3903134" lon="18.4321907">
<ele>56</ele>
<time>2015-05-28T09:38:32Z</time>
</trkpt>
<trkpt lat="53.3900101" lon="18.4318056">
<ele>57</ele>
<time>2015-05-28T09:38:34Z</time>
</trkpt>
<trkpt lat="53.3896914" lon="18.4313801">
<ele>58</ele>
<time>2015-05-28T09:38:36Z</time>
</trkpt>
<trkpt lat="53.3893337" lon="18.4309250">
<ele>59</ele>
<time>2015-05-28T09:38:38Z</time>
</trkpt>
<trkpt lat="53.3889573" lon="18.4304512">
<ele>61</ele>
<time>2015-05-28T09:38:40Z</time>
</trkpt>
<trkpt lat="53.3885874" lon="18.4299668">
<ele>61</ele>
<time>2015-05-28T09:38:42Z</time>
</trkpt>
<trkpt lat="53.3882349" lon="18.4295181">
<ele>61</ele>
<time>2015-05-28T09:38:44Z</time>
</trkpt>
<trkpt lat="53.3878720" lon="18.4291313">
<ele>59</ele>
<time>2015-05-28T09:38:46Z</time>
</trkpt>
<trkpt lat="53.3875459" lon="18.4287259">
<ele>60</ele>
<time>2015-05-28T09:38:48Z</time>
</trkpt>
<trkpt lat="53.3872317" lon="18.4283775">
<ele>60</ele>
<time>2015-05-28T09:38:50Z</time>
</trkpt>
<trkpt lat="53.3869143" lon="18.4281139">
<ele>60</ele>
<time>2015-05-28T09:38:52Z</time>
</trkpt>
<trkpt lat="53.3865997" lon="18.4278894">
<ele>59</ele>
<time>2015-05-28T09:38:54Z</time>
</trkpt>
<trkpt lat="53.3862957" lon="18.4276672">
<ele>60</ele>
<time>2015-05-28T09:38:56Z</time>
</trkpt>
<trkpt lat="53.3859690" lon="18.4274071">
<ele>60</ele>
<time>2015-05-28T09:38:58Z</time>
</trkpt>
<trkpt lat="53.3857194" lon="18.4272530">
<ele>60</ele>
<time>2015-05-28T09:39:00Z</time>
</trkpt>
<trkpt lat="53.3853833" lon="18.4270098">
<ele>60</ele>
<time>2015-05-28T09:39:02Z</time>
</trkpt>
<trkpt lat="53.3850543" lon="18.4267920">
<ele>56</ele>
<time>2015-05-28T09:39:04Z</time>
</trkpt>
<trkpt lat="53.3847455" lon="18.4265575">
<ele>55</ele>
<time>2015-05-28T09:39:06Z</time>
</trkpt>
<trkpt lat="53.3844124" lon="18.4263022">
<ele>53</ele>
<time>2015-05-28T09:39:08Z</time>
</trkpt>
<trkpt lat="53.3840788" lon="18.4260707">
<ele>52</ele>
<time>2015-05-28T09:39:10Z</time>
</trkpt>
<trkpt lat="53.3837682" lon="18.4258160">
<ele>54</ele>
<time>2015-05-28T09:39:12Z</time>
</trkpt>
<trkpt lat="53.3834715" lon="18.4255955">
<ele>57</ele>
<time>2015-05-28T09:39:14Z</time>
</trkpt>
<trkpt lat="53.3831457" lon="18.4254254">
<ele>57</ele>
<time>2015-05-28T09:39:16Z</time>
</trkpt>
<trkpt lat="53.3828336" lon="18.4252703">
<ele>58</ele>
<time>2015-05-28T09:39:18Z</time>
</trkpt>
<trkpt lat="53.3825205" lon="18.4251067">
<ele>57</ele>
<time>2015-05-28T09:39:20Z</time>
</trkpt>
<trkpt lat="53.3822096" lon="18.4249305">
<ele>57</ele>
<time>2015-05-28T09:39:22Z</time>
</trkpt>
<trkpt lat="53.3818816" lon="18.4247692">
<ele>57</ele>
<time>2015-05-28T09:39:24Z</time>
</trkpt>
<trkpt lat="53.3815916" lon="18.4246091">
<ele>58</ele>
<time>2015-05-28T09:39:26Z</time>
</trkpt>
<trkpt lat="53.3813198" lon="18.4244043">
<ele>58</ele>
<time>2015-05-28T09:39:28Z</time>
</trkpt>
<trkpt lat="53.3810646" lon="18.4241694">
<ele>59</ele>
<time>2015-05-28T09:39:30Z</time>
</trkpt>
<trkpt lat="53.3808419" lon="18.423935">
<ele>60</ele>
<time>2015-05-28T09:39:32Z</time>
</trkpt>
<trkpt lat="53.3806121" lon="18.4237193">
<ele>60</ele>
<time>2015-05-28T09:39:34Z</time>
</trkpt>
<trkpt lat="53.3803963" lon="18.4235259">
<ele>60</ele>
<time>2015-05-28T09:39:36Z</time>
</trkpt>
<trkpt lat="53.3801873" lon="18.4233311">
<ele>61</ele>
<time>2015-05-28T09:39:38Z</time>
</trkpt>
<trkpt lat="53.3799665" lon="18.423127">
<ele>61</ele>
<time>2015-05-28T09:39:40Z</time>
</trkpt>
<trkpt lat="53.3797438" lon="18.4229162">
<ele>61</ele>
<time>2015-05-28T09:39:42Z</time>
</trkpt>
<trkpt lat="53.3795009" lon="18.4227137">
<ele>59</ele>
<time>2015-05-28T09:39:44Z</time>
</trkpt>
<trkpt lat="53.3792658" lon="18.4224977">
<ele>58</ele>
<time>2015-05-28T09:39:46Z</time>
</trkpt>
<trkpt lat="53.3790319" lon="18.4222688">
<ele>58</ele>
<time>2015-05-28T09:39:48Z</time>
</trkpt>
<trkpt lat="53.3788151" lon="18.4220448">
<ele>60</ele>
<time>2015-05-28T09:39:50Z</time>
</trkpt>
<trkpt lat="53.3786105" lon="18.4218314">
<ele>61</ele>
<time>2015-05-28T09:39:52Z</time>
</trkpt>
<trkpt lat="53.3784240" lon="18.4215572">
<ele>61</ele>
<time>2015-05-28T09:39:54Z</time>
</trkpt>
<trkpt lat="53.3782395" lon="18.4212971">
<ele>62</ele>
<time>2015-05-28T09:39:56Z</time>
</trkpt>
<trkpt lat="53.3780499" lon="18.4210869">
<ele>62</ele>
<time>2015-05-28T09:39:58Z</time>
</trkpt>
<trkpt lat="53.3779068" lon="18.4208810">
<ele>62</ele>
<time>2015-05-28T09:40:00Z</time>
</trkpt>
<trkpt lat="53.3778122" lon="18.4207189">
<ele>64</ele>
<time>2015-05-28T09:40:02Z</time>
</trkpt>
<trkpt lat="53.3777596" lon="18.4206257">
<ele>64</ele>
<time>2015-05-28T09:40:04Z</time>
</trkpt>
<trkpt lat="53.3777181" lon="18.4205483">
<ele>65</ele>
<time>2015-05-28T09:40:06Z</time>
</trkpt>
<trkpt lat="53.3776725" lon="18.4204999">
<ele>61</ele>
<time>2015-05-28T09:40:08Z</time>
</trkpt>
<trkpt lat="53.3776302" lon="18.4204562">
<ele>60</ele>
<time>2015-05-28T09:40:10Z</time>
</trkpt>
<trkpt lat="53.3776306" lon="18.4204552">
<ele>61</ele>
<time>2015-05-28T09:40:12Z</time>
</trkpt>
<trkpt lat="53.3776253" lon="18.4204471">
<ele>59</ele>
<time>2015-05-28T09:40:14Z</time>
</trkpt>
<trkpt lat="53.3776209" lon="18.4204469">
<ele>59</ele>
<time>2015-05-28T09:40:16Z</time>
</trkpt>
<trkpt lat="53.3776137" lon="18.4204449">
<ele>57</ele>
<time>2015-05-28T09:40:18Z</time>
</trkpt>
<trkpt lat="53.3776132" lon="18.4204422">
<ele>57</ele>
<time>2015-05-28T09:40:20Z</time>
</trkpt>
<trkpt lat="53.3776161" lon="18.4204456">
<ele>57</ele>
<time>2015-05-28T09:40:22Z</time>
</trkpt>
<trkpt lat="53.3776123" lon="18.4204463">
<ele>56</ele>
<time>2015-05-28T09:40:24Z</time>
</trkpt>
<trkpt lat="53.3776081" lon="18.4204425">
<ele>55</ele>
<time>2015-05-28T09:40:26Z</time>
</trkpt>
<trkpt lat="53.3776034" lon="18.4204419">
<ele>55</ele>
<time>2015-05-28T09:40:28Z</time>
</trkpt>
<trkpt lat="53.3776016" lon="18.4204415">
<ele>55</ele>
<time>2015-05-28T09:40:30Z</time>
</trkpt>
<trkpt lat="53.3776011" lon="18.4204399">
<ele>55</ele>
<time>2015-05-28T09:40:32Z</time>
</trkpt>
<trkpt lat="53.3775792" lon="18.4203991">
<ele>55</ele>
<time>2015-05-28T09:40:34Z</time>
</trkpt>
<trkpt lat="53.3775508" lon="18.4203444">
<ele>54</ele>
<time>2015-05-28T09:40:36Z</time>
</trkpt>
<trkpt lat="53.3775249" lon="18.4202896">
<ele>55</ele>
<time>2015-05-28T09:40:38Z</time>
</trkpt>
<trkpt lat="53.3774948" lon="18.4202313">
<ele>52</ele>
<time>2015-05-28T09:40:40Z</time>
</trkpt>
<trkpt lat="53.3774838" lon="18.4201995">
<ele>54</ele>
<time>2015-05-28T09:40:42Z</time>
</trkpt>
<trkpt lat="53.3774775" lon="18.4201825">
<ele>54</ele>
<time>2015-05-28T09:40:44Z</time>
</trkpt>
<trkpt lat="53.3774614" lon="18.4201226">
<ele>57</ele>
<time>2015-05-28T09:40:46Z</time>
</trkpt>
<trkpt lat="53.3774421" lon="18.4200672">
<ele>57</ele>
<time>2015-05-28T09:40:48Z</time>
</trkpt>
<trkpt lat="53.3774061" lon="18.4200156">
<ele>57</ele>
<time>2015-05-28T09:40:50Z</time>
</trkpt>
<trkpt lat="53.3773187" lon="18.4199987">
<ele>57</ele>
<time>2015-05-28T09:40:52Z</time>
</trkpt>
<trkpt lat="53.3771544" lon="18.4201526">
<ele>59</ele>
<time>2015-05-28T09:40:54Z</time>
</trkpt>
<trkpt lat="53.3769901" lon="18.4203363">
<ele>59</ele>
<time>2015-05-28T09:40:56Z</time>
</trkpt>
<trkpt lat="53.3767750" lon="18.4205498">
<ele>58</ele>
<time>2015-05-28T09:40:58Z</time>
</trkpt>
<trkpt lat="53.3765071" lon="18.4208088">
<ele>59</ele>
<time>2015-05-28T09:41:00Z</time>
</trkpt>
<trkpt lat="53.3762409" lon="18.4211128">
<ele>60</ele>
<time>2015-05-28T09:41:02Z</time>
</trkpt>
<trkpt lat="53.3759313" lon="18.4214287">
<ele>59</ele>
<time>2015-05-28T09:41:04Z</time>
</trkpt>
<trkpt lat="53.3755971" lon="18.4217691">
<ele>59</ele>
<time>2015-05-28T09:41:06Z</time>
</trkpt>
<trkpt lat="53.3752518" lon="18.4221351">
<ele>59</ele>
<time>2015-05-28T09:41:08Z</time>
</trkpt>
<trkpt lat="53.3749223" lon="18.4224889">
<ele>61</ele>
<time>2015-05-28T09:41:10Z</time>
</trkpt>
<trkpt lat="53.3745893" lon="18.4228310">
<ele>60</ele>
<time>2015-05-28T09:41:12Z</time>
</trkpt>
<trkpt lat="53.3742436" lon="18.4231894">
<ele>58</ele>
<time>2015-05-28T09:41:14Z</time>
</trkpt>
<trkpt lat="53.3738912" lon="18.4235561">
<ele>58</ele>
<time>2015-05-28T09:41:16Z</time>
</trkpt>
<trkpt lat="53.3735437" lon="18.4239247">
<ele>61</ele>
<time>2015-05-28T09:41:18Z</time>
</trkpt>
<trkpt lat="53.3731743" lon="18.4242963">
<ele>61</ele>
<time>2015-05-28T09:41:20Z</time>
</trkpt>
<trkpt lat="53.3728114" lon="18.4246658">
<ele>61</ele>
<time>2015-05-28T09:41:22Z</time>
</trkpt>
<trkpt lat="53.3724438" lon="18.4250717">
<ele>62</ele>
<time>2015-05-28T09:41:24Z</time>
</trkpt>
<trkpt lat="53.3720899" lon="18.4254225">
<ele>62</ele>
<time>2015-05-28T09:41:26Z</time>
</trkpt>
<trkpt lat="53.3717304" lon="18.4257872">
<ele>63</ele>
<time>2015-05-28T09:41:28Z</time>
</trkpt>
<trkpt lat="53.3713886" lon="18.4261460">
<ele>65</ele>
<time>2015-05-28T09:41:30Z</time>
</trkpt>
<trkpt lat="53.3710282" lon="18.4265342">
<ele>64</ele>
<time>2015-05-28T09:41:32Z</time>
</trkpt>
<trkpt lat="53.3706704" lon="18.4269069">
<ele>62</ele>
<time>2015-05-28T09:41:34Z</time>
</trkpt>
<trkpt lat="53.3703149" lon="18.4272643">
<ele>62</ele>
<time>2015-05-28T09:41:36Z</time>
</trkpt>
<trkpt lat="53.3699804" lon="18.4276026">
<ele>61</ele>
<time>2015-05-28T09:41:38Z</time>
</trkpt>
<trkpt lat="53.3696737" lon="18.4279178">
<ele>61</ele>
<time>2015-05-28T09:41:40Z</time>
</trkpt>
<trkpt lat="53.3693719" lon="18.4282231">
<ele>62</ele>
<time>2015-05-28T09:41:42Z</time>
</trkpt>
<trkpt lat="53.3690600" lon="18.4285068">
<ele>61</ele>
<time>2015-05-28T09:41:44Z</time>
</trkpt>
<trkpt lat="53.3687532" lon="18.4288333">
<ele>61</ele>
<time>2015-05-28T09:41:46Z</time>
</trkpt>
<trkpt lat="53.3684549" lon="18.4291664">
<ele>66</ele>
<time>2015-05-28T09:41:48Z</time>
</trkpt>
<trkpt lat="53.3681439" lon="18.4294927">
<ele>65</ele>
<time>2015-05-28T09:41:50Z</time>
</trkpt>
<trkpt lat="53.3678186" lon="18.4298220">
<ele>65</ele>
<time>2015-05-28T09:41:52Z</time>
</trkpt>
<trkpt lat="53.3674935" lon="18.4301366">
<ele>65</ele>
<time>2015-05-28T09:41:54Z</time>
</trkpt>
<trkpt lat="53.3671652" lon="18.4304655">
<ele>63</ele>
<time>2015-05-28T09:41:56Z</time>
</trkpt>
<trkpt lat="53.3668253" lon="18.4308237">
<ele>60</ele>
<time>2015-05-28T09:41:58Z</time>
</trkpt>
<trkpt lat="53.3665139" lon="18.4311724">
<ele>61</ele>
<time>2015-05-28T09:42:00Z</time>
</trkpt>
<trkpt lat="53.3661711" lon="18.4314963">
<ele>57</ele>
<time>2015-05-28T09:42:02Z</time>
</trkpt>
<trkpt lat="53.3658298" lon="18.4318430">
<ele>55</ele>
<time>2015-05-28T09:42:04Z</time>
</trkpt>
<trkpt lat="53.3654952" lon="18.4321714">
<ele>56</ele>
<time>2015-05-28T09:42:06Z</time>
</trkpt>
<trkpt lat="53.3651474" lon="18.4324865">
<ele>55</ele>
<time>2015-05-28T09:42:08Z</time>
</trkpt>
<trkpt lat="53.3647919" lon="18.4328710">
<ele>53</ele>
<time>2015-05-28T09:42:10Z</time>
</trkpt>
<trkpt lat="53.3644606" lon="18.4332477">
<ele>52</ele>
<time>2015-05-28T09:42:12Z</time>
</trkpt>
<trkpt lat="53.3641065" lon="18.4336086">
<ele>52</ele>
<time>2015-05-28T09:42:14Z</time>
</trkpt>
<trkpt lat="53.3637695" lon="18.4339633">
<ele>51</ele>
<time>2015-05-28T09:42:16Z</time>
</trkpt>
<trkpt lat="53.3634297" lon="18.4343332">
<ele>51</ele>
<time>2015-05-28T09:42:18Z</time>
</trkpt>
<trkpt lat="53.3630937" lon="18.4346929">
<ele>52</ele>
<time>2015-05-28T09:42:20Z</time>
</trkpt>
<trkpt lat="53.3627554" lon="18.4350530">
<ele>51</ele>
<time>2015-05-28T09:42:22Z</time>
</trkpt>
<trkpt lat="53.3624214" lon="18.4354196">
<ele>51</ele>
<time>2015-05-28T09:42:24Z</time>
</trkpt>
<trkpt lat="53.3620931" lon="18.4357430">
<ele>52</ele>
<time>2015-05-28T09:42:26Z</time>
</trkpt>
<trkpt lat="53.3617582" lon="18.4360964">
<ele>52</ele>
<time>2015-05-28T09:42:28Z</time>
</trkpt>
<trkpt lat="53.3614337" lon="18.4364495">
<ele>53</ele>
<time>2015-05-28T09:42:30Z</time>
</trkpt>
<trkpt lat="53.3610613" lon="18.4368450">
<ele>52</ele>
<time>2015-05-28T09:42:32Z</time>
</trkpt>
<trkpt lat="53.3607431" lon="18.4372733">
<ele>52</ele>
<time>2015-05-28T09:42:34Z</time>
</trkpt>
<trkpt lat="53.3604551" lon="18.4377509">
<ele>52</ele>
<time>2015-05-28T09:42:36Z</time>
</trkpt>
<trkpt lat="53.3601604" lon="18.4382325">
<ele>53</ele>
<time>2015-05-28T09:42:38Z</time>
</trkpt>
<trkpt lat="53.3598794" lon="18.4387197">
<ele>50</ele>
<time>2015-05-28T09:42:40Z</time>
</trkpt>
<trkpt lat="53.3596113" lon="18.4391957">
<ele>51</ele>
<time>2015-05-28T09:42:42Z</time>
</trkpt>
<trkpt lat="53.3593377" lon="18.4396424">
<ele>50</ele>
<time>2015-05-28T09:42:44Z</time>
</trkpt>
<trkpt lat="53.3590541" lon="18.4401355">
<ele>51</ele>
<time>2015-05-28T09:42:46Z</time>
</trkpt>
<trkpt lat="53.3587919" lon="18.4406004">
<ele>51</ele>
<time>2015-05-28T09:42:48Z</time>
</trkpt>
<trkpt lat="53.3585182" lon="18.4410707">
<ele>53</ele>
<time>2015-05-28T09:42:50Z</time>
</trkpt>
<trkpt lat="53.3582324" lon="18.4415227">
<ele>51</ele>
<time>2015-05-28T09:42:52Z</time>
</trkpt>
<trkpt lat="53.3579401" lon="18.4419876">
<ele>49</ele>
<time>2015-05-28T09:42:54Z</time>
</trkpt>
<trkpt lat="53.3576406" lon="18.4424725">
<ele>48</ele>
<time>2015-05-28T09:42:56Z</time>
</trkpt>
<trkpt lat="53.3573723" lon="18.4429269">
<ele>48</ele>
<time>2015-05-28T09:42:58Z</time>
</trkpt>
<trkpt lat="53.3571132" lon="18.4433611">
<ele>47</ele>
<time>2015-05-28T09:43:00Z</time>
</trkpt>
<trkpt lat="53.3568444" lon="18.4438331">
<ele>47</ele>
<time>2015-05-28T09:43:02Z</time>
</trkpt>
<trkpt lat="53.3565749" lon="18.4442768">
<ele>46</ele>
<time>2015-05-28T09:43:04Z</time>
</trkpt>
<trkpt lat="53.3563256" lon="18.4447252">
<ele>48</ele>
<time>2015-05-28T09:43:06Z</time>
</trkpt>
<trkpt lat="53.3560188" lon="18.4451815">
<ele>46</ele>
<time>2015-05-28T09:43:08Z</time>
</trkpt>
<trkpt lat="53.3557296" lon="18.4456710">
<ele>47</ele>
<time>2015-05-28T09:43:10Z</time>
</trkpt>
<trkpt lat="53.3554759" lon="18.4461480">
<ele>48</ele>
<time>2015-05-28T09:43:12Z</time>
</trkpt>
<trkpt lat="53.3551854" lon="18.4466559">
<ele>48</ele>
<time>2015-05-28T09:43:14Z</time>
</trkpt>
<trkpt lat="53.3549106" lon="18.4471369">
<ele>48</ele>
<time>2015-05-28T09:43:16Z</time>
</trkpt>
<trkpt lat="53.3546358" lon="18.4476040">
<ele>51</ele>
<time>2015-05-28T09:43:18Z</time>
</trkpt>
<trkpt lat="53.3543705" lon="18.4480666">
<ele>52</ele>
<time>2015-05-28T09:43:20Z</time>
</trkpt>
<trkpt lat="53.3540963" lon="18.4485264">
<ele>55</ele>
<time>2015-05-28T09:43:22Z</time>
</trkpt>
<trkpt lat="53.3538024" lon="18.4490117">
<ele>57</ele>
<time>2015-05-28T09:43:24Z</time>
</trkpt>
<trkpt lat="53.3535003" lon="18.4494560">
<ele>60</ele>
<time>2015-05-28T09:43:26Z</time>
</trkpt>
<trkpt lat="53.3532104" lon="18.4498323">
<ele>62</ele>
<time>2015-05-28T09:43:28Z</time>
</trkpt>
<trkpt lat="53.3529329" lon="18.4501548">
<ele>63</ele>
<time>2015-05-28T09:43:30Z</time>
</trkpt>
<trkpt lat="53.3527687" lon="18.4503489">
<ele>67</ele>
<time>2015-05-28T09:43:32Z</time>
</trkpt>
<trkpt lat="53.3526125" lon="18.4504922">
<ele>69</ele>
<time>2015-05-28T09:43:34Z</time>
</trkpt>
<trkpt lat="53.3525669" lon="18.4505498">
<ele>69</ele>
<time>2015-05-28T09:43:36Z</time>
</trkpt>
<trkpt lat="53.3525215" lon="18.4505818">
<ele>69</ele>
<time>2015-05-28T09:43:38Z</time>
</trkpt>
<trkpt lat="53.3524948" lon="18.4505963">
<ele>68</ele>
<time>2015-05-28T09:43:40Z</time>
</trkpt>
<trkpt lat="53.3524900" lon="18.4506002">
<ele>70</ele>
<time>2015-05-28T09:43:42Z</time>
</trkpt>
<trkpt lat="53.3524735" lon="18.4506001">
<ele>70</ele>
<time>2015-05-28T09:43:44Z</time>
</trkpt>
<trkpt lat="53.3524643" lon="18.4505931">
<ele>69</ele>
<time>2015-05-28T09:43:46Z</time>
</trkpt>
<trkpt lat="53.3524760" lon="18.4505991">
<ele>69</ele>
<time>2015-05-28T09:43:48Z</time>
</trkpt>
<trkpt lat="53.3524799" lon="18.4506005">
<ele>69</ele>
<time>2015-05-28T09:43:50Z</time>
</trkpt>
<trkpt lat="53.3524748" lon="18.4506030">
<ele>70</ele>
<time>2015-05-28T09:43:52Z</time>
</trkpt>
<trkpt lat="53.3524751" lon="18.4506075">
<ele>70</ele>
<time>2015-05-28T09:43:54Z</time>
</trkpt>
<trkpt lat="53.3524786" lon="18.4506048">
<ele>70</ele>
<time>2015-05-28T09:43:56Z</time>
</trkpt>
<trkpt lat="53.3524790" lon="18.4506015">
<ele>71</ele>
<time>2015-05-28T09:43:58Z</time>
</trkpt>
<trkpt lat="53.3524782" lon="18.4506030">
<ele>70</ele>
<time>2015-05-28T09:44:00Z</time>
</trkpt>
<trkpt lat="53.3524016" lon="18.4506734">
<ele>71</ele>
<time>2015-05-28T09:44:04Z</time>
</trkpt>
<trkpt lat="53.3522677" lon="18.4507935">
<ele>71</ele>
<time>2015-05-28T09:44:06Z</time>
</trkpt>
<trkpt lat="53.3521739" lon="18.4508632">
<ele>72</ele>
<time>2015-05-28T09:44:08Z</time>
</trkpt>
<trkpt lat="53.3521030" lon="18.4507854">
<ele>72</ele>
<time>2015-05-28T09:44:10Z</time>
</trkpt>
<trkpt lat="53.3519605" lon="18.4507301">
<ele>65</ele>
<time>2015-05-28T09:44:12Z</time>
</trkpt>
<trkpt lat="53.3518321" lon="18.4504945">
<ele>65</ele>
<time>2015-05-28T09:44:14Z</time>
</trkpt>
<trkpt lat="53.3517169" lon="18.4502080">
<ele>68</ele>
<time>2015-05-28T09:44:16Z</time>
</trkpt>
<trkpt lat="53.3515842" lon="18.4498857">
<ele>70</ele>
<time>2015-05-28T09:44:18Z</time>
</trkpt>
<trkpt lat="53.3514659" lon="18.4495417">
<ele>73</ele>
<time>2015-05-28T09:44:20Z</time>
</trkpt>
<trkpt lat="53.3513047" lon="18.4492000">
<ele>73</ele>
<time>2015-05-28T09:44:22Z</time>
</trkpt>
<trkpt lat="53.3511338" lon="18.4488740">
<ele>71</ele>
<time>2015-05-28T09:44:24Z</time>
</trkpt>
<trkpt lat="53.3509403" lon="18.4485378">
<ele>74</ele>
<time>2015-05-28T09:44:26Z</time>
</trkpt>
<trkpt lat="53.3507658" lon="18.4481810">
<ele>75</ele>
<time>2015-05-28T09:44:28Z</time>
</trkpt>
<trkpt lat="53.3505971" lon="18.4478331">
<ele>79</ele>
<time>2015-05-28T09:44:30Z</time>
</trkpt>
<trkpt lat="53.3504223" lon="18.447501">
<ele>82</ele>
<time>2015-05-28T09:44:32Z</time>
</trkpt>
<trkpt lat="53.3502213" lon="18.4471955">
<ele>82</ele>
<time>2015-05-28T09:44:34Z</time>
</trkpt>
<trkpt lat="53.3500637" lon="18.4468841">
<ele>82</ele>
<time>2015-05-28T09:44:36Z</time>
</trkpt>
<trkpt lat="53.3499326" lon="18.4465775">
<ele>81</ele>
<time>2015-05-28T09:44:38Z</time>
</trkpt>
<trkpt lat="53.3498086" lon="18.4463206">
<ele>82</ele>
<time>2015-05-28T09:44:40Z</time>
</trkpt>
<trkpt lat="53.3497054" lon="18.4460246">
<ele>82</ele>
<time>2015-05-28T09:44:42Z</time>
</trkpt>
<trkpt lat="53.3495735" lon="18.4458359">
<ele>82</ele>
<time>2015-05-28T09:44:44Z</time>
</trkpt>
<trkpt lat="53.3494712" lon="18.4456447">
<ele>84</ele>
<time>2015-05-28T09:44:46Z</time>
</trkpt>
<trkpt lat="53.3493471" lon="18.4454008">
<ele>84</ele>
<time>2015-05-28T09:44:48Z</time>
</trkpt>
<trkpt lat="53.3492198" lon="18.4451454">
<ele>84</ele>
<time>2015-05-28T09:44:50Z</time>
</trkpt>
<trkpt lat="53.3490902" lon="18.4449605">
<ele>82</ele>
<time>2015-05-28T09:44:52Z</time>
</trkpt>
<trkpt lat="53.3489262" lon="18.4448368">
<ele>81</ele>
<time>2015-05-28T09:44:54Z</time>
</trkpt>
<trkpt lat="53.3487917" lon="18.4448337">
<ele>84</ele>
<time>2015-05-28T09:44:56Z</time>
</trkpt>
<trkpt lat="53.3486612" lon="18.4447917">
<ele>84</ele>
<time>2015-05-28T09:44:58Z</time>
</trkpt>
<trkpt lat="53.3486064" lon="18.4448324">
<ele>84</ele>
<time>2015-05-28T09:45:00Z</time>
</trkpt>
<trkpt lat="53.3486008" lon="18.4448651">
<ele>84</ele>
<time>2015-05-28T09:45:02Z</time>
</trkpt>
<trkpt lat="53.3485796" lon="18.4449287">
<ele>84</ele>
<time>2015-05-28T09:45:04Z</time>
</trkpt>
<trkpt lat="53.3485423" lon="18.4450384">
<ele>84</ele>
<time>2015-05-28T09:45:06Z</time>
</trkpt>
<trkpt lat="53.3485004" lon="18.4451200">
<ele>85</ele>
<time>2015-05-28T09:45:08Z</time>
</trkpt>
<trkpt lat="53.3484448" lon="18.4451938">
<ele>86</ele>
<time>2015-05-28T09:45:10Z</time>
</trkpt>
<trkpt lat="53.3483803" lon="18.4452505">
<ele>85</ele>
<time>2015-05-28T09:45:12Z</time>
</trkpt>
<trkpt lat="53.3483022" lon="18.4452656">
<ele>88</ele>
<time>2015-05-28T09:45:14Z</time>
</trkpt>
<trkpt lat="53.3482368" lon="18.4452589">
<ele>88</ele>
<time>2015-05-28T09:45:16Z</time>
</trkpt>
<trkpt lat="53.3481809" lon="18.4453018">
<ele>88</ele>
<time>2015-05-28T09:45:18Z</time>
</trkpt>
<trkpt lat="53.3481850" lon="18.4453617">
<ele>89</ele>
<time>2015-05-28T09:45:20Z</time>
</trkpt>
<trkpt lat="53.3482092" lon="18.4453860">
<ele>89</ele>
<time>2015-05-28T09:45:22Z</time>
</trkpt>
<trkpt lat="53.3482424" lon="18.4453936">
<ele>89</ele>
<time>2015-05-28T09:45:24Z</time>
</trkpt>
<trkpt lat="53.3482791" lon="18.4453868">
<ele>89</ele>
<time>2015-05-28T09:45:26Z</time>
</trkpt>
<trkpt lat="53.3483314" lon="18.4453645">
<ele>91</ele>
<time>2015-05-28T09:45:28Z</time>
</trkpt>
<trkpt lat="53.3483584" lon="18.4453463">
<ele>94</ele>
<time>2015-05-28T09:45:30Z</time>
</trkpt>
<trkpt lat="53.3483591" lon="18.4453396">
<ele>97</ele>
<time>2015-05-28T09:45:32Z</time>
</trkpt>
<trkpt lat="53.3483532" lon="18.4453456">
<ele>99</ele>
<time>2015-05-28T09:45:34Z</time>
</trkpt>
<trkpt lat="53.3483558" lon="18.4453395">
<ele>98</ele>
<time>2015-05-28T09:45:36Z</time>
</trkpt>
<trkpt lat="53.3483550" lon="18.4453484">
<ele>98</ele>
<time>2015-05-28T09:45:38Z</time>
</trkpt>
<trkpt lat="53.3483571" lon="18.4453615">
<ele>97</ele>
<time>2015-05-28T09:45:40Z</time>
</trkpt>
<trkpt lat="53.3483586" lon="18.4453729">
<ele>96</ele>
<time>2015-05-28T09:45:42Z</time>
</trkpt>
<trkpt lat="53.3483608" lon="18.4453838">
<ele>97</ele>
<time>2015-05-28T09:45:44Z</time>
</trkpt>
<trkpt lat="53.3483631" lon="18.4453911">
<ele>97</ele>
<time>2015-05-28T09:45:46Z</time>
</trkpt>
<trkpt lat="53.3483635" lon="18.4453941">
<ele>97</ele>
<time>2015-05-28T09:45:48Z</time>
</trkpt>
<trkpt lat="53.3483642" lon="18.4453949">
<ele>97</ele>
<time>2015-05-28T09:45:50Z</time>
</trkpt>
<trkpt lat="53.3483640" lon="18.4453952">
<ele>97</ele>
<time>2015-05-28T09:45:52Z</time>
</trkpt>
<trkpt lat="53.3483635" lon="18.4453955">
<ele>97</ele>
<time>2015-05-28T09:45:54Z</time>
</trkpt>
<trkpt lat="53.3483625" lon="18.4453961">
<ele>97</ele>
<time>2015-05-28T09:45:56Z</time>
</trkpt>
<trkpt lat="53.3483616" lon="18.4453967">
<ele>96</ele>
<time>2015-05-28T09:45:58Z</time>
</trkpt>
<trkpt lat="53.3483608" lon="18.4453973">
<ele>96</ele>
<time>2015-05-28T09:46:00Z</time>
</trkpt>
<trkpt lat="53.3483604" lon="18.4453976">
<ele>96</ele>
<time>2015-05-28T09:46:02Z</time>
</trkpt>
<trkpt lat="53.3483604" lon="18.4453977">
<ele>96</ele>
<time>2015-05-28T09:46:04Z</time>
</trkpt>
<trkpt lat="53.3483604" lon="18.4453977">
<ele>96</ele>
<time>2015-05-28T09:46:06Z</time>
</trkpt>
<trkpt lat="53.3483604" lon="18.4453977">
<ele>96</ele>
<time>2015-05-28T09:46:08Z</time>
</trkpt>
<trkpt lat="53.3483604" lon="18.4453978">
<ele>96</ele>
<time>2015-05-28T09:46:10Z</time>
</trkpt>
<trkpt lat="53.3483603" lon="18.4453985">
<ele>97</ele>
<time>2015-05-28T09:46:12Z</time>
</trkpt>
<trkpt lat="53.3483600" lon="18.4453992">
<ele>97</ele>
<time>2015-05-28T09:46:14Z</time>
</trkpt>
<trkpt lat="53.3483599" lon="18.4453997">
<ele>97</ele>
<time>2015-05-28T09:46:16Z</time>
</trkpt>
<trkpt lat="53.3483597" lon="18.4454002">
<ele>97</ele>
<time>2015-05-28T09:46:18Z</time>
</trkpt>
<trkpt lat="" lon="">
<ele></ele>
<time>2015-05-28TZ</time>
</trkpt>
</trkseg>
</trk>
<wpt lat="" lon="">
	<name></name>
	<desc></desc>
	<cmt></cmt>
	<photoid></photoid>
	<type></type>
</wpt>
</gpx>
